<?xml version="1.0" encoding="UTF-8" standalone="no" ?>
<gpx xmlns="http://www.topografix.com/GPX/1/1" xmlns:xsi="http://www.w3.org/2001/XMLSchema-instance" xsi:schemaLocation="http://www.topografix.com/GPX/1/1 http://www.topografix.com/GPX/1/1/gpx.xsd" version="1.1" creator="VisuGPX - https://www.visugpx.com">
  <metadata>
    <name>Le Lavagnes - Fraisses - Fario</name>
    <desc><![CDATA[Entraînement Trail]]></desc>
  </metadata>
  <trk>
    <name><![CDATA[Les Lavagnes 2014-12-07]]></name>
    <trkseg>
      <trkpt lat="43.74136" lon="3.50221">
        <ele>466.86</ele>
        <time>2014-12-07T09:20:47Z</time>
      </trkpt>
      <trkpt lat="43.74136" lon="3.50222">
        <ele>466.86</ele>
        <time>2014-12-07T09:21:02Z</time>
      </trkpt>
      <trkpt lat="43.74134" lon="3.50222">
        <ele>465.42</ele>
        <time>2014-12-07T09:21:17Z</time>
      </trkpt>
      <trkpt lat="43.74134" lon="3.5022">
        <ele>468.3</ele>
        <time>2014-12-07T09:21:32Z</time>
      </trkpt>
      <trkpt lat="43.74137" lon="3.50212">
        <ele>467.82</ele>
        <time>2014-12-07T09:21:47Z</time>
      </trkpt>
      <trkpt lat="43.74142" lon="3.50235">
        <ele>469.26</ele>
        <time>2014-12-07T09:22:02Z</time>
      </trkpt>
      <trkpt lat="43.74143" lon="3.50262">
        <ele>470.22</ele>
        <time>2014-12-07T09:22:17Z</time>
      </trkpt>
      <trkpt lat="43.7415" lon="3.50286">
        <ele>468.78</ele>
        <time>2014-12-07T09:22:32Z</time>
      </trkpt>
      <trkpt lat="43.74159" lon="3.5031">
        <ele>467.34</ele>
        <time>2014-12-07T09:22:47Z</time>
      </trkpt>
      <trkpt lat="43.74172" lon="3.50329">
        <ele>466.38</ele>
        <time>2014-12-07T09:23:02Z</time>
      </trkpt>
      <trkpt lat="43.7419" lon="3.50331">
        <ele>466.86</ele>
        <time>2014-12-07T09:23:17Z</time>
      </trkpt>
      <trkpt lat="43.74207" lon="3.50315">
        <ele>470.22</ele>
        <time>2014-12-07T09:23:32Z</time>
      </trkpt>
      <trkpt lat="43.74226" lon="3.50325">
        <ele>471.66</ele>
        <time>2014-12-07T09:23:47Z</time>
      </trkpt>
      <trkpt lat="43.74243" lon="3.50342">
        <ele>469.74</ele>
        <time>2014-12-07T09:24:02Z</time>
      </trkpt>
      <trkpt lat="43.74261" lon="3.50362">
        <ele>470.22</ele>
        <time>2014-12-07T09:24:17Z</time>
      </trkpt>
      <trkpt lat="43.74277" lon="3.50379">
        <ele>460.61</ele>
        <time>2014-12-07T09:24:32Z</time>
      </trkpt>
      <trkpt lat="43.74295" lon="3.50395">
        <ele>464.45</ele>
        <time>2014-12-07T09:24:47Z</time>
      </trkpt>
      <trkpt lat="43.74308" lon="3.50417">
        <ele>466.86</ele>
        <time>2014-12-07T09:25:02Z</time>
      </trkpt>
      <trkpt lat="43.74323" lon="3.50436">
        <ele>467.34</ele>
        <time>2014-12-07T09:25:17Z</time>
      </trkpt>
      <trkpt lat="43.74341" lon="3.50451">
        <ele>470.22</ele>
        <time>2014-12-07T09:25:32Z</time>
      </trkpt>
      <trkpt lat="43.74359" lon="3.50465">
        <ele>473.59</ele>
        <time>2014-12-07T09:25:47Z</time>
      </trkpt>
      <trkpt lat="43.74377" lon="3.50481">
        <ele>473.59</ele>
        <time>2014-12-07T09:26:02Z</time>
      </trkpt>
      <trkpt lat="43.74397" lon="3.50489">
        <ele>474.07</ele>
        <time>2014-12-07T09:26:17Z</time>
      </trkpt>
      <trkpt lat="43.74418" lon="3.50492">
        <ele>475.99</ele>
        <time>2014-12-07T09:26:32Z</time>
      </trkpt>
      <trkpt lat="43.74429" lon="3.50514">
        <ele>474.55</ele>
        <time>2014-12-07T09:26:47Z</time>
      </trkpt>
      <trkpt lat="43.74434" lon="3.5054">
        <ele>468.78</ele>
        <time>2014-12-07T09:27:02Z</time>
      </trkpt>
      <trkpt lat="43.74439" lon="3.50568">
        <ele>470.22</ele>
        <time>2014-12-07T09:27:17Z</time>
      </trkpt>
      <trkpt lat="43.74444" lon="3.50598">
        <ele>467.82</ele>
        <time>2014-12-07T09:27:32Z</time>
      </trkpt>
      <trkpt lat="43.74452" lon="3.50633">
        <ele>468.78</ele>
        <time>2014-12-07T09:27:47Z</time>
      </trkpt>
      <trkpt lat="43.74467" lon="3.50657">
        <ele>469.74</ele>
        <time>2014-12-07T09:28:02Z</time>
      </trkpt>
      <trkpt lat="43.74485" lon="3.50669">
        <ele>466.86</ele>
        <time>2014-12-07T09:28:17Z</time>
      </trkpt>
      <trkpt lat="43.74502" lon="3.50679">
        <ele>467.82</ele>
        <time>2014-12-07T09:28:32Z</time>
      </trkpt>
      <trkpt lat="43.74525" lon="3.50691">
        <ele>467.34</ele>
        <time>2014-12-07T09:28:47Z</time>
      </trkpt>
      <trkpt lat="43.74542" lon="3.50699">
        <ele>468.78</ele>
        <time>2014-12-07T09:29:02Z</time>
      </trkpt>
      <trkpt lat="43.74563" lon="3.50704">
        <ele>469.26</ele>
        <time>2014-12-07T09:29:17Z</time>
      </trkpt>
      <trkpt lat="43.74567" lon="3.50706">
        <ele>473.59</ele>
        <time>2014-12-07T09:29:32Z</time>
      </trkpt>
      <trkpt lat="43.74563" lon="3.50695">
        <ele>475.03</ele>
        <time>2014-12-07T09:29:47Z</time>
      </trkpt>
      <trkpt lat="43.74572" lon="3.50689">
        <ele>476.47</ele>
        <time>2014-12-07T09:30:02Z</time>
      </trkpt>
      <trkpt lat="43.74571" lon="3.50679">
        <ele>478.39</ele>
        <time>2014-12-07T09:30:17Z</time>
      </trkpt>
      <trkpt lat="43.74573" lon="3.50671">
        <ele>479.84</ele>
        <time>2014-12-07T09:30:32Z</time>
      </trkpt>
      <trkpt lat="43.74573" lon="3.50658">
        <ele>482.72</ele>
        <time>2014-12-07T09:30:47Z</time>
      </trkpt>
      <trkpt lat="43.74576" lon="3.50644">
        <ele>487.53</ele>
        <time>2014-12-07T09:31:02Z</time>
      </trkpt>
      <trkpt lat="43.74587" lon="3.50651">
        <ele>488.97</ele>
        <time>2014-12-07T09:31:17Z</time>
      </trkpt>
      <trkpt lat="43.74599" lon="3.50662">
        <ele>492.33</ele>
        <time>2014-12-07T09:31:32Z</time>
      </trkpt>
      <trkpt lat="43.74601" lon="3.50649">
        <ele>495.22</ele>
        <time>2014-12-07T09:31:47Z</time>
      </trkpt>
      <trkpt lat="43.74604" lon="3.50641">
        <ele>498.1</ele>
        <time>2014-12-07T09:32:02Z</time>
      </trkpt>
      <trkpt lat="43.74618" lon="3.5065">
        <ele>500.02</ele>
        <time>2014-12-07T09:32:17Z</time>
      </trkpt>
      <trkpt lat="43.74626" lon="3.50652">
        <ele>503.87</ele>
        <time>2014-12-07T09:32:32Z</time>
      </trkpt>
      <trkpt lat="43.74621" lon="3.50641">
        <ele>503.39</ele>
        <time>2014-12-07T09:32:47Z</time>
      </trkpt>
      <trkpt lat="43.74615" lon="3.50629">
        <ele>505.79</ele>
        <time>2014-12-07T09:33:02Z</time>
      </trkpt>
      <trkpt lat="43.74611" lon="3.50618">
        <ele>508.19</ele>
        <time>2014-12-07T09:33:17Z</time>
      </trkpt>
      <trkpt lat="43.74604" lon="3.50602">
        <ele>510.12</ele>
        <time>2014-12-07T09:33:32Z</time>
      </trkpt>
      <trkpt lat="43.74602" lon="3.50586">
        <ele>514.44</ele>
        <time>2014-12-07T09:33:47Z</time>
      </trkpt>
      <trkpt lat="43.74602" lon="3.50569">
        <ele>518.29</ele>
        <time>2014-12-07T09:34:02Z</time>
      </trkpt>
      <trkpt lat="43.74603" lon="3.5055">
        <ele>519.25</ele>
        <time>2014-12-07T09:34:17Z</time>
      </trkpt>
      <trkpt lat="43.74594" lon="3.50539">
        <ele>521.65</ele>
        <time>2014-12-07T09:34:32Z</time>
      </trkpt>
      <trkpt lat="43.74602" lon="3.50532">
        <ele>524.54</ele>
        <time>2014-12-07T09:34:47Z</time>
      </trkpt>
      <trkpt lat="43.74616" lon="3.50542">
        <ele>525.98</ele>
        <time>2014-12-07T09:35:02Z</time>
      </trkpt>
      <trkpt lat="43.74623" lon="3.50561">
        <ele>525.98</ele>
        <time>2014-12-07T09:35:17Z</time>
      </trkpt>
      <trkpt lat="43.74632" lon="3.50575">
        <ele>527.9</ele>
        <time>2014-12-07T09:35:32Z</time>
      </trkpt>
      <trkpt lat="43.74644" lon="3.50591">
        <ele>529.34</ele>
        <time>2014-12-07T09:35:47Z</time>
      </trkpt>
      <trkpt lat="43.74655" lon="3.50604">
        <ele>531.75</ele>
        <time>2014-12-07T09:36:02Z</time>
      </trkpt>
      <trkpt lat="43.74666" lon="3.50612">
        <ele>535.59</ele>
        <time>2014-12-07T09:36:17Z</time>
      </trkpt>
      <trkpt lat="43.74676" lon="3.50624">
        <ele>538.96</ele>
        <time>2014-12-07T09:36:32Z</time>
      </trkpt>
      <trkpt lat="43.74685" lon="3.50633">
        <ele>539.44</ele>
        <time>2014-12-07T09:36:47Z</time>
      </trkpt>
      <trkpt lat="43.74697" lon="3.50645">
        <ele>544.24</ele>
        <time>2014-12-07T09:37:02Z</time>
      </trkpt>
      <trkpt lat="43.74709" lon="3.5065">
        <ele>543.76</ele>
        <time>2014-12-07T09:37:17Z</time>
      </trkpt>
      <trkpt lat="43.74721" lon="3.50656">
        <ele>545.69</ele>
        <time>2014-12-07T09:37:32Z</time>
      </trkpt>
      <trkpt lat="43.74733" lon="3.50664">
        <ele>548.09</ele>
        <time>2014-12-07T09:37:47Z</time>
      </trkpt>
      <trkpt lat="43.74746" lon="3.50671">
        <ele>550.01</ele>
        <time>2014-12-07T09:38:02Z</time>
      </trkpt>
      <trkpt lat="43.7476" lon="3.50679">
        <ele>551.45</ele>
        <time>2014-12-07T09:38:17Z</time>
      </trkpt>
      <trkpt lat="43.74774" lon="3.50682">
        <ele>553.38</ele>
        <time>2014-12-07T09:38:32Z</time>
      </trkpt>
      <trkpt lat="43.74785" lon="3.50692">
        <ele>556.26</ele>
        <time>2014-12-07T09:38:47Z</time>
      </trkpt>
      <trkpt lat="43.74795" lon="3.50706">
        <ele>559.62</ele>
        <time>2014-12-07T09:39:02Z</time>
      </trkpt>
      <trkpt lat="43.74804" lon="3.50722">
        <ele>563.95</ele>
        <time>2014-12-07T09:39:17Z</time>
      </trkpt>
      <trkpt lat="43.7481" lon="3.50727">
        <ele>565.87</ele>
        <time>2014-12-07T09:39:32Z</time>
      </trkpt>
      <trkpt lat="43.7481" lon="3.50709">
        <ele>565.87</ele>
        <time>2014-12-07T09:39:47Z</time>
      </trkpt>
      <trkpt lat="43.7482" lon="3.50725">
        <ele>571.64</ele>
        <time>2014-12-07T09:40:02Z</time>
      </trkpt>
      <trkpt lat="43.74829" lon="3.50737">
        <ele>575.01</ele>
        <time>2014-12-07T09:40:17Z</time>
      </trkpt>
      <trkpt lat="43.7484" lon="3.50747">
        <ele>578.85</ele>
        <time>2014-12-07T09:40:32Z</time>
      </trkpt>
      <trkpt lat="43.74851" lon="3.50756">
        <ele>581.25</ele>
        <time>2014-12-07T09:40:47Z</time>
      </trkpt>
      <trkpt lat="43.74864" lon="3.50763">
        <ele>580.77</ele>
        <time>2014-12-07T09:41:02Z</time>
      </trkpt>
      <trkpt lat="43.74872" lon="3.50764">
        <ele>583.66</ele>
        <time>2014-12-07T09:41:17Z</time>
      </trkpt>
      <trkpt lat="43.74864" lon="3.5075">
        <ele>587.5</ele>
        <time>2014-12-07T09:41:32Z</time>
      </trkpt>
      <trkpt lat="43.74857" lon="3.50736">
        <ele>584.14</ele>
        <time>2014-12-07T09:41:47Z</time>
      </trkpt>
      <trkpt lat="43.74852" lon="3.50726">
        <ele>589.91</ele>
        <time>2014-12-07T09:42:02Z</time>
      </trkpt>
      <trkpt lat="43.74852" lon="3.50728">
        <ele>589.43</ele>
        <time>2014-12-07T09:42:17Z</time>
      </trkpt>
      <trkpt lat="43.74854" lon="3.50728">
        <ele>591.83</ele>
        <time>2014-12-07T09:42:32Z</time>
      </trkpt>
      <trkpt lat="43.74855" lon="3.5073">
        <ele>593.27</ele>
        <time>2014-12-07T09:42:47Z</time>
      </trkpt>
      <trkpt lat="43.74852" lon="3.50727">
        <ele>585.1</ele>
        <time>2014-12-07T09:43:02Z</time>
      </trkpt>
      <trkpt lat="43.74853" lon="3.50727">
        <ele>588.46</ele>
        <time>2014-12-07T09:43:17Z</time>
      </trkpt>
      <trkpt lat="43.74855" lon="3.50727">
        <ele>589.43</ele>
        <time>2014-12-07T09:43:32Z</time>
      </trkpt>
      <trkpt lat="43.74862" lon="3.50732">
        <ele>592.31</ele>
        <time>2014-12-07T09:43:47Z</time>
      </trkpt>
      <trkpt lat="43.74873" lon="3.50738">
        <ele>592.31</ele>
        <time>2014-12-07T09:44:02Z</time>
      </trkpt>
      <trkpt lat="43.74884" lon="3.50741">
        <ele>596.64</ele>
        <time>2014-12-07T09:44:17Z</time>
      </trkpt>
      <trkpt lat="43.74897" lon="3.50743">
        <ele>597.12</ele>
        <time>2014-12-07T09:44:32Z</time>
      </trkpt>
      <trkpt lat="43.7491" lon="3.50745">
        <ele>603.36</ele>
        <time>2014-12-07T09:44:47Z</time>
      </trkpt>
      <trkpt lat="43.74922" lon="3.50746">
        <ele>605.29</ele>
        <time>2014-12-07T09:45:02Z</time>
      </trkpt>
      <trkpt lat="43.74932" lon="3.50753">
        <ele>606.25</ele>
        <time>2014-12-07T09:45:17Z</time>
      </trkpt>
      <trkpt lat="43.74937" lon="3.50751">
        <ele>608.17</ele>
        <time>2014-12-07T09:45:32Z</time>
      </trkpt>
      <trkpt lat="43.74931" lon="3.50736">
        <ele>610.57</ele>
        <time>2014-12-07T09:45:47Z</time>
      </trkpt>
      <trkpt lat="43.7494" lon="3.50742">
        <ele>612.5</ele>
        <time>2014-12-07T09:46:02Z</time>
      </trkpt>
      <trkpt lat="43.74948" lon="3.50753">
        <ele>614.9</ele>
        <time>2014-12-07T09:46:17Z</time>
      </trkpt>
      <trkpt lat="43.74959" lon="3.5076">
        <ele>616.34</ele>
        <time>2014-12-07T09:46:32Z</time>
      </trkpt>
      <trkpt lat="43.74968" lon="3.50769">
        <ele>619.71</ele>
        <time>2014-12-07T09:46:47Z</time>
      </trkpt>
      <trkpt lat="43.74979" lon="3.50775">
        <ele>623.55</ele>
        <time>2014-12-07T09:47:02Z</time>
      </trkpt>
      <trkpt lat="43.74992" lon="3.50786">
        <ele>624.99</ele>
        <time>2014-12-07T09:47:17Z</time>
      </trkpt>
      <trkpt lat="43.75003" lon="3.50794">
        <ele>624.51</ele>
        <time>2014-12-07T09:47:32Z</time>
      </trkpt>
      <trkpt lat="43.75014" lon="3.50803">
        <ele>626.92</ele>
        <time>2014-12-07T09:47:47Z</time>
      </trkpt>
      <trkpt lat="43.75024" lon="3.50815">
        <ele>626.92</ele>
        <time>2014-12-07T09:48:02Z</time>
      </trkpt>
      <trkpt lat="43.75036" lon="3.50825">
        <ele>628.36</ele>
        <time>2014-12-07T09:48:17Z</time>
      </trkpt>
      <trkpt lat="43.75047" lon="3.50835">
        <ele>631.72</ele>
        <time>2014-12-07T09:48:32Z</time>
      </trkpt>
      <trkpt lat="43.75058" lon="3.50846">
        <ele>629.8</ele>
        <time>2014-12-07T09:48:47Z</time>
      </trkpt>
      <trkpt lat="43.75066" lon="3.50854">
        <ele>635.57</ele>
        <time>2014-12-07T09:49:02Z</time>
      </trkpt>
      <trkpt lat="43.75079" lon="3.50862">
        <ele>637.01</ele>
        <time>2014-12-07T09:49:17Z</time>
      </trkpt>
      <trkpt lat="43.7509" lon="3.50872">
        <ele>636.05</ele>
        <time>2014-12-07T09:49:32Z</time>
      </trkpt>
      <trkpt lat="43.75102" lon="3.50881">
        <ele>638.45</ele>
        <time>2014-12-07T09:49:47Z</time>
      </trkpt>
      <trkpt lat="43.75114" lon="3.50892">
        <ele>638.45</ele>
        <time>2014-12-07T09:50:02Z</time>
      </trkpt>
      <trkpt lat="43.75127" lon="3.50905">
        <ele>638.93</ele>
        <time>2014-12-07T09:50:17Z</time>
      </trkpt>
      <trkpt lat="43.75141" lon="3.50915">
        <ele>636.53</ele>
        <time>2014-12-07T09:50:32Z</time>
      </trkpt>
      <trkpt lat="43.75155" lon="3.5092">
        <ele>638.45</ele>
        <time>2014-12-07T09:50:47Z</time>
      </trkpt>
      <trkpt lat="43.7517" lon="3.50925">
        <ele>640.38</ele>
        <time>2014-12-07T09:51:02Z</time>
      </trkpt>
      <trkpt lat="43.75183" lon="3.50936">
        <ele>641.34</ele>
        <time>2014-12-07T09:51:17Z</time>
      </trkpt>
      <trkpt lat="43.75199" lon="3.50937">
        <ele>641.82</ele>
        <time>2014-12-07T09:51:32Z</time>
      </trkpt>
      <trkpt lat="43.75212" lon="3.50931">
        <ele>639.89</ele>
        <time>2014-12-07T09:51:47Z</time>
      </trkpt>
      <trkpt lat="43.75225" lon="3.5092">
        <ele>643.74</ele>
        <time>2014-12-07T09:52:02Z</time>
      </trkpt>
      <trkpt lat="43.75236" lon="3.5091">
        <ele>645.66</ele>
        <time>2014-12-07T09:52:17Z</time>
      </trkpt>
      <trkpt lat="43.75246" lon="3.509">
        <ele>646.14</ele>
        <time>2014-12-07T09:52:32Z</time>
      </trkpt>
      <trkpt lat="43.75257" lon="3.50892">
        <ele>647.1</ele>
        <time>2014-12-07T09:52:47Z</time>
      </trkpt>
      <trkpt lat="43.75257" lon="3.50889">
        <ele>647.59</ele>
        <time>2014-12-07T09:53:02Z</time>
      </trkpt>
      <trkpt lat="43.75268" lon="3.50879">
        <ele>647.59</ele>
        <time>2014-12-07T09:53:17Z</time>
      </trkpt>
      <trkpt lat="43.75271" lon="3.50877">
        <ele>654.8</ele>
        <time>2014-12-07T09:53:32Z</time>
      </trkpt>
      <trkpt lat="43.75269" lon="3.50877">
        <ele>654.8</ele>
        <time>2014-12-07T09:53:47Z</time>
      </trkpt>
      <trkpt lat="43.75274" lon="3.5087">
        <ele>648.55</ele>
        <time>2014-12-07T09:54:02Z</time>
      </trkpt>
      <trkpt lat="43.7528" lon="3.50857">
        <ele>652.39</ele>
        <time>2014-12-07T09:54:17Z</time>
      </trkpt>
      <trkpt lat="43.75287" lon="3.50845">
        <ele>655.28</ele>
        <time>2014-12-07T09:54:32Z</time>
      </trkpt>
      <trkpt lat="43.7529" lon="3.5083">
        <ele>658.64</ele>
        <time>2014-12-07T09:54:47Z</time>
      </trkpt>
      <trkpt lat="43.75295" lon="3.50813">
        <ele>659.6</ele>
        <time>2014-12-07T09:55:02Z</time>
      </trkpt>
      <trkpt lat="43.75297" lon="3.50796">
        <ele>658.64</ele>
        <time>2014-12-07T09:55:17Z</time>
      </trkpt>
      <trkpt lat="43.75298" lon="3.50778">
        <ele>662.49</ele>
        <time>2014-12-07T09:55:32Z</time>
      </trkpt>
      <trkpt lat="43.75298" lon="3.50759">
        <ele>665.37</ele>
        <time>2014-12-07T09:55:47Z</time>
      </trkpt>
      <trkpt lat="43.75296" lon="3.50741">
        <ele>664.89</ele>
        <time>2014-12-07T09:56:02Z</time>
      </trkpt>
      <trkpt lat="43.75295" lon="3.50723">
        <ele>665.85</ele>
        <time>2014-12-07T09:56:17Z</time>
      </trkpt>
      <trkpt lat="43.75296" lon="3.50705">
        <ele>664.89</ele>
        <time>2014-12-07T09:56:32Z</time>
      </trkpt>
      <trkpt lat="43.75294" lon="3.50688">
        <ele>660.08</ele>
        <time>2014-12-07T09:56:47Z</time>
      </trkpt>
      <trkpt lat="43.75294" lon="3.50677">
        <ele>667.29</ele>
        <time>2014-12-07T09:57:02Z</time>
      </trkpt>
      <trkpt lat="43.75295" lon="3.50676">
        <ele>668.25</ele>
        <time>2014-12-07T09:57:17Z</time>
      </trkpt>
      <trkpt lat="43.75294" lon="3.50676">
        <ele>666.81</ele>
        <time>2014-12-07T09:57:32Z</time>
      </trkpt>
      <trkpt lat="43.75292" lon="3.50677">
        <ele>667.29</ele>
        <time>2014-12-07T09:57:47Z</time>
      </trkpt>
      <trkpt lat="43.75294" lon="3.50671">
        <ele>668.73</ele>
        <time>2014-12-07T09:58:02Z</time>
      </trkpt>
      <trkpt lat="43.75295" lon="3.50668">
        <ele>667.29</ele>
        <time>2014-12-07T09:58:17Z</time>
      </trkpt>
      <trkpt lat="43.75299" lon="3.5066">
        <ele>669.22</ele>
        <time>2014-12-07T09:58:32Z</time>
      </trkpt>
      <trkpt lat="43.75306" lon="3.50645">
        <ele>671.14</ele>
        <time>2014-12-07T09:58:47Z</time>
      </trkpt>
      <trkpt lat="43.75313" lon="3.50627">
        <ele>673.54</ele>
        <time>2014-12-07T09:59:02Z</time>
      </trkpt>
      <trkpt lat="43.75319" lon="3.50607">
        <ele>672.58</ele>
        <time>2014-12-07T09:59:17Z</time>
      </trkpt>
      <trkpt lat="43.75325" lon="3.50585">
        <ele>674.98</ele>
        <time>2014-12-07T09:59:32Z</time>
      </trkpt>
      <trkpt lat="43.75331" lon="3.50565">
        <ele>674.98</ele>
        <time>2014-12-07T09:59:47Z</time>
      </trkpt>
      <trkpt lat="43.7534" lon="3.50544">
        <ele>672.1</ele>
        <time>2014-12-07T10:00:02Z</time>
      </trkpt>
      <trkpt lat="43.75343" lon="3.5052">
        <ele>674.5</ele>
        <time>2014-12-07T10:00:17Z</time>
      </trkpt>
      <trkpt lat="43.75348" lon="3.50499">
        <ele>676.42</ele>
        <time>2014-12-07T10:00:32Z</time>
      </trkpt>
      <trkpt lat="43.75357" lon="3.50483">
        <ele>677.39</ele>
        <time>2014-12-07T10:00:47Z</time>
      </trkpt>
      <trkpt lat="43.75359" lon="3.50467">
        <ele>681.23</ele>
        <time>2014-12-07T10:01:02Z</time>
      </trkpt>
      <trkpt lat="43.75365" lon="3.50451">
        <ele>683.63</ele>
        <time>2014-12-07T10:01:17Z</time>
      </trkpt>
      <trkpt lat="43.75369" lon="3.50444">
        <ele>685.56</ele>
        <time>2014-12-07T10:01:32Z</time>
      </trkpt>
      <trkpt lat="43.7538" lon="3.50429">
        <ele>687.96</ele>
        <time>2014-12-07T10:01:47Z</time>
      </trkpt>
      <trkpt lat="43.75389" lon="3.50413">
        <ele>689.4</ele>
        <time>2014-12-07T10:02:02Z</time>
      </trkpt>
      <trkpt lat="43.75397" lon="3.50398">
        <ele>690.84</ele>
        <time>2014-12-07T10:02:17Z</time>
      </trkpt>
      <trkpt lat="43.75406" lon="3.50383">
        <ele>692.29</ele>
        <time>2014-12-07T10:02:32Z</time>
      </trkpt>
      <trkpt lat="43.75417" lon="3.50369">
        <ele>695.17</ele>
        <time>2014-12-07T10:02:47Z</time>
      </trkpt>
      <trkpt lat="43.75427" lon="3.50357">
        <ele>697.09</ele>
        <time>2014-12-07T10:03:02Z</time>
      </trkpt>
      <trkpt lat="43.75438" lon="3.50342">
        <ele>697.57</ele>
        <time>2014-12-07T10:03:17Z</time>
      </trkpt>
      <trkpt lat="43.75451" lon="3.5033">
        <ele>699.98</ele>
        <time>2014-12-07T10:03:32Z</time>
      </trkpt>
      <trkpt lat="43.7546" lon="3.50329">
        <ele>700.94</ele>
        <time>2014-12-07T10:03:47Z</time>
      </trkpt>
      <trkpt lat="43.7546" lon="3.50329">
        <ele>700.94</ele>
        <time>2014-12-07T10:04:02Z</time>
      </trkpt>
      <trkpt lat="43.7546" lon="3.50331">
        <ele>699.5</ele>
        <time>2014-12-07T10:04:17Z</time>
      </trkpt>
      <trkpt lat="43.75459" lon="3.50332">
        <ele>699.98</ele>
        <time>2014-12-07T10:04:32Z</time>
      </trkpt>
      <trkpt lat="43.75457" lon="3.50331">
        <ele>700.46</ele>
        <time>2014-12-07T10:04:47Z</time>
      </trkpt>
      <trkpt lat="43.75458" lon="3.50331">
        <ele>701.42</ele>
        <time>2014-12-07T10:05:02Z</time>
      </trkpt>
      <trkpt lat="43.75458" lon="3.5033">
        <ele>700.94</ele>
        <time>2014-12-07T10:05:17Z</time>
      </trkpt>
      <trkpt lat="43.75458" lon="3.5033">
        <ele>700.94</ele>
        <time>2014-12-07T10:05:32Z</time>
      </trkpt>
      <trkpt lat="43.75459" lon="3.5033">
        <ele>701.9</ele>
        <time>2014-12-07T10:05:47Z</time>
      </trkpt>
      <trkpt lat="43.75462" lon="3.50324">
        <ele>699.5</ele>
        <time>2014-12-07T10:06:02Z</time>
      </trkpt>
      <trkpt lat="43.75472" lon="3.50308">
        <ele>701.42</ele>
        <time>2014-12-07T10:06:17Z</time>
      </trkpt>
      <trkpt lat="43.75477" lon="3.50289">
        <ele>704.3</ele>
        <time>2014-12-07T10:06:32Z</time>
      </trkpt>
      <trkpt lat="43.75478" lon="3.50268">
        <ele>704.78</ele>
        <time>2014-12-07T10:06:47Z</time>
      </trkpt>
      <trkpt lat="43.75478" lon="3.5025">
        <ele>707.19</ele>
        <time>2014-12-07T10:07:02Z</time>
      </trkpt>
      <trkpt lat="43.75481" lon="3.50236">
        <ele>709.59</ele>
        <time>2014-12-07T10:07:17Z</time>
      </trkpt>
      <trkpt lat="43.75485" lon="3.50222">
        <ele>711.99</ele>
        <time>2014-12-07T10:07:32Z</time>
      </trkpt>
      <trkpt lat="43.75487" lon="3.50208">
        <ele>714.4</ele>
        <time>2014-12-07T10:07:47Z</time>
      </trkpt>
      <trkpt lat="43.75484" lon="3.50188">
        <ele>715.84</ele>
        <time>2014-12-07T10:08:02Z</time>
      </trkpt>
      <trkpt lat="43.75483" lon="3.50171">
        <ele>717.28</ele>
        <time>2014-12-07T10:08:17Z</time>
      </trkpt>
      <trkpt lat="43.7549" lon="3.50163">
        <ele>719.68</ele>
        <time>2014-12-07T10:08:32Z</time>
      </trkpt>
      <trkpt lat="43.75497" lon="3.50152">
        <ele>724.01</ele>
        <time>2014-12-07T10:08:47Z</time>
      </trkpt>
      <trkpt lat="43.755" lon="3.50137">
        <ele>727.37</ele>
        <time>2014-12-07T10:09:02Z</time>
      </trkpt>
      <trkpt lat="43.75497" lon="3.50121">
        <ele>728.34</ele>
        <time>2014-12-07T10:09:17Z</time>
      </trkpt>
      <trkpt lat="43.75493" lon="3.50101">
        <ele>729.3</ele>
        <time>2014-12-07T10:09:32Z</time>
      </trkpt>
      <trkpt lat="43.75488" lon="3.50085">
        <ele>730.74</ele>
        <time>2014-12-07T10:09:47Z</time>
      </trkpt>
      <trkpt lat="43.75498" lon="3.50074">
        <ele>731.22</ele>
        <time>2014-12-07T10:10:02Z</time>
      </trkpt>
      <trkpt lat="43.75511" lon="3.50066">
        <ele>735.07</ele>
        <time>2014-12-07T10:10:17Z</time>
      </trkpt>
      <trkpt lat="43.75526" lon="3.50068">
        <ele>734.58</ele>
        <time>2014-12-07T10:10:32Z</time>
      </trkpt>
      <trkpt lat="43.75541" lon="3.50062">
        <ele>735.07</ele>
        <time>2014-12-07T10:10:47Z</time>
      </trkpt>
      <trkpt lat="43.75552" lon="3.50073">
        <ele>736.99</ele>
        <time>2014-12-07T10:11:02Z</time>
      </trkpt>
      <trkpt lat="43.75564" lon="3.50082">
        <ele>741.31</ele>
        <time>2014-12-07T10:11:17Z</time>
      </trkpt>
      <trkpt lat="43.75578" lon="3.50086">
        <ele>744.68</ele>
        <time>2014-12-07T10:11:32Z</time>
      </trkpt>
      <trkpt lat="43.75593" lon="3.50081">
        <ele>743.72</ele>
        <time>2014-12-07T10:11:47Z</time>
      </trkpt>
      <trkpt lat="43.75606" lon="3.50083">
        <ele>744.68</ele>
        <time>2014-12-07T10:12:02Z</time>
      </trkpt>
      <trkpt lat="43.75621" lon="3.50081">
        <ele>747.08</ele>
        <time>2014-12-07T10:12:17Z</time>
      </trkpt>
      <trkpt lat="43.75638" lon="3.50076">
        <ele>746.12</ele>
        <time>2014-12-07T10:12:32Z</time>
      </trkpt>
      <trkpt lat="43.75654" lon="3.50076">
        <ele>747.56</ele>
        <time>2014-12-07T10:12:47Z</time>
      </trkpt>
      <trkpt lat="43.75647" lon="3.50098">
        <ele>751.41</ele>
        <time>2014-12-07T10:13:02Z</time>
      </trkpt>
      <trkpt lat="43.75641" lon="3.50123">
        <ele>754.77</ele>
        <time>2014-12-07T10:13:17Z</time>
      </trkpt>
      <trkpt lat="43.75641" lon="3.50151">
        <ele>753.33</ele>
        <time>2014-12-07T10:13:32Z</time>
      </trkpt>
      <trkpt lat="43.7564" lon="3.50176">
        <ele>754.77</ele>
        <time>2014-12-07T10:13:47Z</time>
      </trkpt>
      <trkpt lat="43.75649" lon="3.50192">
        <ele>753.33</ele>
        <time>2014-12-07T10:14:02Z</time>
      </trkpt>
      <trkpt lat="43.75665" lon="3.50187">
        <ele>755.25</ele>
        <time>2014-12-07T10:14:17Z</time>
      </trkpt>
      <trkpt lat="43.75684" lon="3.50187">
        <ele>754.77</ele>
        <time>2014-12-07T10:14:32Z</time>
      </trkpt>
      <trkpt lat="43.75703" lon="3.50187">
        <ele>751.89</ele>
        <time>2014-12-07T10:14:47Z</time>
      </trkpt>
      <trkpt lat="43.75721" lon="3.50184">
        <ele>752.37</ele>
        <time>2014-12-07T10:15:02Z</time>
      </trkpt>
      <trkpt lat="43.75738" lon="3.50184">
        <ele>752.85</ele>
        <time>2014-12-07T10:15:17Z</time>
      </trkpt>
      <trkpt lat="43.75753" lon="3.5019">
        <ele>754.29</ele>
        <time>2014-12-07T10:15:32Z</time>
      </trkpt>
      <trkpt lat="43.7577" lon="3.50197">
        <ele>755.25</ele>
        <time>2014-12-07T10:15:47Z</time>
      </trkpt>
      <trkpt lat="43.75776" lon="3.50217">
        <ele>758.14</ele>
        <time>2014-12-07T10:16:02Z</time>
      </trkpt>
      <trkpt lat="43.75792" lon="3.50223">
        <ele>760.54</ele>
        <time>2014-12-07T10:16:17Z</time>
      </trkpt>
      <trkpt lat="43.75801" lon="3.50219">
        <ele>763.9</ele>
        <time>2014-12-07T10:16:32Z</time>
      </trkpt>
      <trkpt lat="43.75804" lon="3.50217">
        <ele>760.06</ele>
        <time>2014-12-07T10:16:47Z</time>
      </trkpt>
      <trkpt lat="43.75809" lon="3.5022">
        <ele>761.5</ele>
        <time>2014-12-07T10:17:02Z</time>
      </trkpt>
      <trkpt lat="43.7581" lon="3.50224">
        <ele>762.94</ele>
        <time>2014-12-07T10:17:17Z</time>
      </trkpt>
      <trkpt lat="43.7581" lon="3.50224">
        <ele>762.94</ele>
        <time>2014-12-07T10:17:32Z</time>
      </trkpt>
      <trkpt lat="43.7581" lon="3.50224">
        <ele>762.94</ele>
        <time>2014-12-07T10:17:47Z</time>
      </trkpt>
      <trkpt lat="43.75808" lon="3.50226">
        <ele>762.46</ele>
        <time>2014-12-07T10:18:02Z</time>
      </trkpt>
      <trkpt lat="43.75818" lon="3.50231">
        <ele>763.9</ele>
        <time>2014-12-07T10:18:17Z</time>
      </trkpt>
      <trkpt lat="43.75835" lon="3.50227">
        <ele>765.83</ele>
        <time>2014-12-07T10:18:32Z</time>
      </trkpt>
      <trkpt lat="43.75845" lon="3.50244">
        <ele>766.79</ele>
        <time>2014-12-07T10:18:47Z</time>
      </trkpt>
      <trkpt lat="43.75861" lon="3.50251">
        <ele>769.67</ele>
        <time>2014-12-07T10:19:02Z</time>
      </trkpt>
      <trkpt lat="43.75875" lon="3.50263">
        <ele>772.08</ele>
        <time>2014-12-07T10:19:17Z</time>
      </trkpt>
      <trkpt lat="43.75891" lon="3.50261">
        <ele>774.48</ele>
        <time>2014-12-07T10:19:32Z</time>
      </trkpt>
      <trkpt lat="43.75908" lon="3.50273">
        <ele>776.88</ele>
        <time>2014-12-07T10:19:47Z</time>
      </trkpt>
      <trkpt lat="43.75917" lon="3.50295">
        <ele>778.81</ele>
        <time>2014-12-07T10:20:02Z</time>
      </trkpt>
      <trkpt lat="43.7593" lon="3.50313">
        <ele>778.32</ele>
        <time>2014-12-07T10:20:17Z</time>
      </trkpt>
      <trkpt lat="43.75949" lon="3.50331">
        <ele>779.77</ele>
        <time>2014-12-07T10:20:32Z</time>
      </trkpt>
      <trkpt lat="43.7596" lon="3.50356">
        <ele>776.88</ele>
        <time>2014-12-07T10:20:47Z</time>
      </trkpt>
      <trkpt lat="43.7597" lon="3.50375">
        <ele>776.4</ele>
        <time>2014-12-07T10:21:02Z</time>
      </trkpt>
      <trkpt lat="43.75986" lon="3.50395">
        <ele>777.84</ele>
        <time>2014-12-07T10:21:17Z</time>
      </trkpt>
      <trkpt lat="43.75998" lon="3.5042">
        <ele>776.88</ele>
        <time>2014-12-07T10:21:32Z</time>
      </trkpt>
      <trkpt lat="43.76005" lon="3.50441">
        <ele>777.84</ele>
        <time>2014-12-07T10:21:47Z</time>
      </trkpt>
      <trkpt lat="43.76015" lon="3.5047">
        <ele>775.92</ele>
        <time>2014-12-07T10:22:02Z</time>
      </trkpt>
      <trkpt lat="43.76018" lon="3.50485">
        <ele>774.96</ele>
        <time>2014-12-07T10:22:17Z</time>
      </trkpt>
      <trkpt lat="43.76028" lon="3.50502">
        <ele>775.44</ele>
        <time>2014-12-07T10:22:32Z</time>
      </trkpt>
      <trkpt lat="43.76035" lon="3.50521">
        <ele>772.56</ele>
        <time>2014-12-07T10:22:47Z</time>
      </trkpt>
      <trkpt lat="43.76042" lon="3.5054">
        <ele>772.08</ele>
        <time>2014-12-07T10:23:02Z</time>
      </trkpt>
      <trkpt lat="43.7605" lon="3.50558">
        <ele>771.6</ele>
        <time>2014-12-07T10:23:17Z</time>
      </trkpt>
      <trkpt lat="43.76058" lon="3.50577">
        <ele>768.23</ele>
        <time>2014-12-07T10:23:32Z</time>
      </trkpt>
      <trkpt lat="43.7607" lon="3.50594">
        <ele>765.35</ele>
        <time>2014-12-07T10:23:47Z</time>
      </trkpt>
      <trkpt lat="43.76087" lon="3.50606">
        <ele>766.79</ele>
        <time>2014-12-07T10:24:02Z</time>
      </trkpt>
      <trkpt lat="43.76105" lon="3.50613">
        <ele>764.39</ele>
        <time>2014-12-07T10:24:17Z</time>
      </trkpt>
      <trkpt lat="43.76122" lon="3.50616">
        <ele>764.39</ele>
        <time>2014-12-07T10:24:32Z</time>
      </trkpt>
      <trkpt lat="43.76135" lon="3.50618">
        <ele>766.79</ele>
        <time>2014-12-07T10:24:47Z</time>
      </trkpt>
      <trkpt lat="43.76136" lon="3.50618">
        <ele>768.23</ele>
        <time>2014-12-07T10:25:02Z</time>
      </trkpt>
      <trkpt lat="43.76137" lon="3.50618">
        <ele>768.23</ele>
        <time>2014-12-07T10:25:17Z</time>
      </trkpt>
      <trkpt lat="43.76137" lon="3.50619">
        <ele>764.39</ele>
        <time>2014-12-07T10:25:32Z</time>
      </trkpt>
      <trkpt lat="43.76138" lon="3.50619">
        <ele>771.11</ele>
        <time>2014-12-07T10:25:47Z</time>
      </trkpt>
      <trkpt lat="43.76144" lon="3.50615">
        <ele>766.79</ele>
        <time>2014-12-07T10:26:02Z</time>
      </trkpt>
      <trkpt lat="43.7616" lon="3.50624">
        <ele>769.19</ele>
        <time>2014-12-07T10:26:17Z</time>
      </trkpt>
      <trkpt lat="43.76176" lon="3.50623">
        <ele>771.11</ele>
        <time>2014-12-07T10:26:32Z</time>
      </trkpt>
      <trkpt lat="43.76192" lon="3.50638">
        <ele>770.63</ele>
        <time>2014-12-07T10:26:47Z</time>
      </trkpt>
      <trkpt lat="43.76208" lon="3.50645">
        <ele>770.15</ele>
        <time>2014-12-07T10:27:02Z</time>
      </trkpt>
      <trkpt lat="43.76225" lon="3.50644">
        <ele>771.11</ele>
        <time>2014-12-07T10:27:17Z</time>
      </trkpt>
      <trkpt lat="43.76236" lon="3.50634">
        <ele>776.88</ele>
        <time>2014-12-07T10:27:32Z</time>
      </trkpt>
      <trkpt lat="43.76252" lon="3.50639">
        <ele>779.29</ele>
        <time>2014-12-07T10:27:47Z</time>
      </trkpt>
      <trkpt lat="43.76263" lon="3.50653">
        <ele>782.17</ele>
        <time>2014-12-07T10:28:02Z</time>
      </trkpt>
      <trkpt lat="43.76271" lon="3.50667">
        <ele>779.77</ele>
        <time>2014-12-07T10:28:17Z</time>
      </trkpt>
      <trkpt lat="43.76282" lon="3.50675">
        <ele>784.57</ele>
        <time>2014-12-07T10:28:32Z</time>
      </trkpt>
      <trkpt lat="43.76291" lon="3.50692">
        <ele>784.09</ele>
        <time>2014-12-07T10:28:47Z</time>
      </trkpt>
      <trkpt lat="43.763" lon="3.50707">
        <ele>783.13</ele>
        <time>2014-12-07T10:29:02Z</time>
      </trkpt>
      <trkpt lat="43.76311" lon="3.50717">
        <ele>783.13</ele>
        <time>2014-12-07T10:29:17Z</time>
      </trkpt>
      <trkpt lat="43.76321" lon="3.50736">
        <ele>782.17</ele>
        <time>2014-12-07T10:29:32Z</time>
      </trkpt>
      <trkpt lat="43.76332" lon="3.50751">
        <ele>781.21</ele>
        <time>2014-12-07T10:29:47Z</time>
      </trkpt>
      <trkpt lat="43.76346" lon="3.5076">
        <ele>784.57</ele>
        <time>2014-12-07T10:30:02Z</time>
      </trkpt>
      <trkpt lat="43.76357" lon="3.50768">
        <ele>788.42</ele>
        <time>2014-12-07T10:30:17Z</time>
      </trkpt>
      <trkpt lat="43.76368" lon="3.50784">
        <ele>791.78</ele>
        <time>2014-12-07T10:30:32Z</time>
      </trkpt>
      <trkpt lat="43.76379" lon="3.50792">
        <ele>792.26</ele>
        <time>2014-12-07T10:30:47Z</time>
      </trkpt>
      <trkpt lat="43.76392" lon="3.50806">
        <ele>792.26</ele>
        <time>2014-12-07T10:31:02Z</time>
      </trkpt>
      <trkpt lat="43.76404" lon="3.50821">
        <ele>792.26</ele>
        <time>2014-12-07T10:31:17Z</time>
      </trkpt>
      <trkpt lat="43.76414" lon="3.50834">
        <ele>794.67</ele>
        <time>2014-12-07T10:31:32Z</time>
      </trkpt>
      <trkpt lat="43.76424" lon="3.50848">
        <ele>792.26</ele>
        <time>2014-12-07T10:31:47Z</time>
      </trkpt>
      <trkpt lat="43.76436" lon="3.5086">
        <ele>790.34</ele>
        <time>2014-12-07T10:32:02Z</time>
      </trkpt>
      <trkpt lat="43.76444" lon="3.50877">
        <ele>786.98</ele>
        <time>2014-12-07T10:32:17Z</time>
      </trkpt>
      <trkpt lat="43.76449" lon="3.50899">
        <ele>784.57</ele>
        <time>2014-12-07T10:32:32Z</time>
      </trkpt>
      <trkpt lat="43.76449" lon="3.50919">
        <ele>785.05</ele>
        <time>2014-12-07T10:32:47Z</time>
      </trkpt>
      <trkpt lat="43.76457" lon="3.50937">
        <ele>785.53</ele>
        <time>2014-12-07T10:33:02Z</time>
      </trkpt>
      <trkpt lat="43.7646" lon="3.50954">
        <ele>785.53</ele>
        <time>2014-12-07T10:33:17Z</time>
      </trkpt>
      <trkpt lat="43.76474" lon="3.50957">
        <ele>786.02</ele>
        <time>2014-12-07T10:33:32Z</time>
      </trkpt>
      <trkpt lat="43.76487" lon="3.50964">
        <ele>788.9</ele>
        <time>2014-12-07T10:33:47Z</time>
      </trkpt>
      <trkpt lat="43.76494" lon="3.50975">
        <ele>787.94</ele>
        <time>2014-12-07T10:34:02Z</time>
      </trkpt>
      <trkpt lat="43.765" lon="3.50978">
        <ele>789.38</ele>
        <time>2014-12-07T10:34:17Z</time>
      </trkpt>
      <trkpt lat="43.76501" lon="3.5098">
        <ele>790.82</ele>
        <time>2014-12-07T10:34:32Z</time>
      </trkpt>
      <trkpt lat="43.76499" lon="3.5098">
        <ele>788.42</ele>
        <time>2014-12-07T10:34:47Z</time>
      </trkpt>
      <trkpt lat="43.76501" lon="3.50982">
        <ele>788.9</ele>
        <time>2014-12-07T10:35:02Z</time>
      </trkpt>
      <trkpt lat="43.765" lon="3.50982">
        <ele>786.5</ele>
        <time>2014-12-07T10:35:17Z</time>
      </trkpt>
      <trkpt lat="43.76503" lon="3.50984">
        <ele>787.94</ele>
        <time>2014-12-07T10:35:32Z</time>
      </trkpt>
      <trkpt lat="43.7651" lon="3.50994">
        <ele>783.61</ele>
        <time>2014-12-07T10:35:47Z</time>
      </trkpt>
      <trkpt lat="43.76523" lon="3.51006">
        <ele>780.73</ele>
        <time>2014-12-07T10:36:02Z</time>
      </trkpt>
      <trkpt lat="43.76535" lon="3.51022">
        <ele>777.84</ele>
        <time>2014-12-07T10:36:17Z</time>
      </trkpt>
      <trkpt lat="43.76544" lon="3.51038">
        <ele>771.6</ele>
        <time>2014-12-07T10:36:32Z</time>
      </trkpt>
      <trkpt lat="43.76547" lon="3.51055">
        <ele>767.75</ele>
        <time>2014-12-07T10:36:47Z</time>
      </trkpt>
      <trkpt lat="43.76556" lon="3.51075">
        <ele>762.46</ele>
        <time>2014-12-07T10:37:02Z</time>
      </trkpt>
      <trkpt lat="43.76568" lon="3.51088">
        <ele>757.18</ele>
        <time>2014-12-07T10:37:17Z</time>
      </trkpt>
      <trkpt lat="43.76582" lon="3.51094">
        <ele>751.89</ele>
        <time>2014-12-07T10:37:32Z</time>
      </trkpt>
      <trkpt lat="43.76597" lon="3.51117">
        <ele>750.93</ele>
        <time>2014-12-07T10:37:47Z</time>
      </trkpt>
      <trkpt lat="43.76611" lon="3.51139">
        <ele>750.45</ele>
        <time>2014-12-07T10:38:02Z</time>
      </trkpt>
      <trkpt lat="43.76623" lon="3.51168">
        <ele>749.49</ele>
        <time>2014-12-07T10:38:17Z</time>
      </trkpt>
      <trkpt lat="43.76638" lon="3.51184">
        <ele>748.52</ele>
        <time>2014-12-07T10:38:32Z</time>
      </trkpt>
      <trkpt lat="43.76657" lon="3.51182">
        <ele>746.6</ele>
        <time>2014-12-07T10:38:47Z</time>
      </trkpt>
      <trkpt lat="43.76675" lon="3.51193">
        <ele>744.68</ele>
        <time>2014-12-07T10:39:02Z</time>
      </trkpt>
      <trkpt lat="43.76687" lon="3.51212">
        <ele>743.72</ele>
        <time>2014-12-07T10:39:17Z</time>
      </trkpt>
      <trkpt lat="43.7669" lon="3.51225">
        <ele>744.68</ele>
        <time>2014-12-07T10:39:32Z</time>
      </trkpt>
      <trkpt lat="43.7669" lon="3.51221">
        <ele>744.2</ele>
        <time>2014-12-07T10:39:47Z</time>
      </trkpt>
      <trkpt lat="43.76688" lon="3.5123">
        <ele>746.12</ele>
        <time>2014-12-07T10:40:02Z</time>
      </trkpt>
      <trkpt lat="43.76682" lon="3.51254">
        <ele>745.16</ele>
        <time>2014-12-07T10:40:17Z</time>
      </trkpt>
      <trkpt lat="43.76685" lon="3.51277">
        <ele>744.68</ele>
        <time>2014-12-07T10:40:32Z</time>
      </trkpt>
      <trkpt lat="43.76698" lon="3.51289">
        <ele>743.72</ele>
        <time>2014-12-07T10:40:47Z</time>
      </trkpt>
      <trkpt lat="43.76714" lon="3.51296">
        <ele>743.72</ele>
        <time>2014-12-07T10:41:02Z</time>
      </trkpt>
      <trkpt lat="43.76727" lon="3.51307">
        <ele>744.2</ele>
        <time>2014-12-07T10:41:17Z</time>
      </trkpt>
      <trkpt lat="43.76744" lon="3.51316">
        <ele>746.12</ele>
        <time>2014-12-07T10:41:32Z</time>
      </trkpt>
      <trkpt lat="43.76758" lon="3.51325">
        <ele>746.6</ele>
        <time>2014-12-07T10:41:47Z</time>
      </trkpt>
      <trkpt lat="43.76771" lon="3.51339">
        <ele>748.52</ele>
        <time>2014-12-07T10:42:02Z</time>
      </trkpt>
      <trkpt lat="43.76787" lon="3.51347">
        <ele>745.64</ele>
        <time>2014-12-07T10:42:17Z</time>
      </trkpt>
      <trkpt lat="43.76802" lon="3.51362">
        <ele>747.08</ele>
        <time>2014-12-07T10:42:32Z</time>
      </trkpt>
      <trkpt lat="43.76815" lon="3.51381">
        <ele>750.93</ele>
        <time>2014-12-07T10:42:47Z</time>
      </trkpt>
      <trkpt lat="43.7683" lon="3.51393">
        <ele>746.6</ele>
        <time>2014-12-07T10:43:02Z</time>
      </trkpt>
      <trkpt lat="43.76838" lon="3.51414">
        <ele>746.12</ele>
        <time>2014-12-07T10:43:17Z</time>
      </trkpt>
      <trkpt lat="43.76843" lon="3.51436">
        <ele>744.68</ele>
        <time>2014-12-07T10:43:32Z</time>
      </trkpt>
      <trkpt lat="43.76841" lon="3.51459">
        <ele>745.16</ele>
        <time>2014-12-07T10:43:47Z</time>
      </trkpt>
      <trkpt lat="43.76835" lon="3.51483">
        <ele>743.24</ele>
        <time>2014-12-07T10:44:02Z</time>
      </trkpt>
      <trkpt lat="43.76843" lon="3.51503">
        <ele>742.28</ele>
        <time>2014-12-07T10:44:17Z</time>
      </trkpt>
      <trkpt lat="43.76848" lon="3.51526">
        <ele>742.76</ele>
        <time>2014-12-07T10:44:32Z</time>
      </trkpt>
      <trkpt lat="43.76856" lon="3.51552">
        <ele>740.83</ele>
        <time>2014-12-07T10:44:47Z</time>
      </trkpt>
      <trkpt lat="43.76869" lon="3.51568">
        <ele>738.91</ele>
        <time>2014-12-07T10:45:02Z</time>
      </trkpt>
      <trkpt lat="43.7688" lon="3.51577">
        <ele>741.79</ele>
        <time>2014-12-07T10:45:17Z</time>
      </trkpt>
      <trkpt lat="43.7688" lon="3.51576">
        <ele>742.28</ele>
        <time>2014-12-07T10:45:32Z</time>
      </trkpt>
      <trkpt lat="43.7689" lon="3.5158">
        <ele>741.31</ele>
        <time>2014-12-07T10:45:47Z</time>
      </trkpt>
      <trkpt lat="43.76892" lon="3.51583">
        <ele>742.28</ele>
        <time>2014-12-07T10:46:02Z</time>
      </trkpt>
      <trkpt lat="43.76902" lon="3.51586">
        <ele>745.64</ele>
        <time>2014-12-07T10:46:17Z</time>
      </trkpt>
      <trkpt lat="43.76911" lon="3.51598">
        <ele>749.49</ele>
        <time>2014-12-07T10:46:32Z</time>
      </trkpt>
      <trkpt lat="43.76918" lon="3.51611">
        <ele>753.81</ele>
        <time>2014-12-07T10:46:47Z</time>
      </trkpt>
      <trkpt lat="43.76925" lon="3.51616">
        <ele>756.21</ele>
        <time>2014-12-07T10:47:02Z</time>
      </trkpt>
      <trkpt lat="43.76926" lon="3.5162">
        <ele>755.25</ele>
        <time>2014-12-07T10:47:17Z</time>
      </trkpt>
      <trkpt lat="43.76927" lon="3.51637">
        <ele>758.62</ele>
        <time>2014-12-07T10:47:32Z</time>
      </trkpt>
      <trkpt lat="43.76935" lon="3.51648">
        <ele>762.94</ele>
        <time>2014-12-07T10:47:47Z</time>
      </trkpt>
      <trkpt lat="43.76942" lon="3.51664">
        <ele>771.11</ele>
        <time>2014-12-07T10:48:02Z</time>
      </trkpt>
      <trkpt lat="43.76955" lon="3.51675">
        <ele>771.11</ele>
        <time>2014-12-07T10:48:17Z</time>
      </trkpt>
      <trkpt lat="43.76968" lon="3.51681">
        <ele>764.87</ele>
        <time>2014-12-07T10:48:32Z</time>
      </trkpt>
      <trkpt lat="43.76974" lon="3.51699">
        <ele>762.94</ele>
        <time>2014-12-07T10:48:47Z</time>
      </trkpt>
      <trkpt lat="43.7697" lon="3.51717">
        <ele>758.62</ele>
        <time>2014-12-07T10:49:02Z</time>
      </trkpt>
      <trkpt lat="43.76966" lon="3.51733">
        <ele>755.73</ele>
        <time>2014-12-07T10:49:17Z</time>
      </trkpt>
      <trkpt lat="43.76963" lon="3.51744">
        <ele>753.33</ele>
        <time>2014-12-07T10:49:32Z</time>
      </trkpt>
      <trkpt lat="43.76975" lon="3.51753">
        <ele>751.41</ele>
        <time>2014-12-07T10:49:47Z</time>
      </trkpt>
      <trkpt lat="43.76982" lon="3.51762">
        <ele>748.04</ele>
        <time>2014-12-07T10:50:02Z</time>
      </trkpt>
      <trkpt lat="43.76981" lon="3.5177">
        <ele>748.04</ele>
        <time>2014-12-07T10:50:17Z</time>
      </trkpt>
      <trkpt lat="43.76983" lon="3.5177">
        <ele>747.08</ele>
        <time>2014-12-07T10:50:32Z</time>
      </trkpt>
      <trkpt lat="43.76983" lon="3.51771">
        <ele>747.56</ele>
        <time>2014-12-07T10:50:47Z</time>
      </trkpt>
      <trkpt lat="43.76982" lon="3.51771">
        <ele>748.04</ele>
        <time>2014-12-07T10:51:02Z</time>
      </trkpt>
      <trkpt lat="43.76982" lon="3.51767">
        <ele>747.56</ele>
        <time>2014-12-07T10:51:17Z</time>
      </trkpt>
      <trkpt lat="43.76983" lon="3.51775">
        <ele>746.12</ele>
        <time>2014-12-07T10:51:32Z</time>
      </trkpt>
      <trkpt lat="43.76987" lon="3.5179">
        <ele>744.68</ele>
        <time>2014-12-07T10:51:47Z</time>
      </trkpt>
      <trkpt lat="43.76999" lon="3.51809">
        <ele>741.79</ele>
        <time>2014-12-07T10:52:02Z</time>
      </trkpt>
      <trkpt lat="43.77" lon="3.51812">
        <ele>740.83</ele>
        <time>2014-12-07T10:52:17Z</time>
      </trkpt>
      <trkpt lat="43.77001" lon="3.51811">
        <ele>741.79</ele>
        <time>2014-12-07T10:52:32Z</time>
      </trkpt>
      <trkpt lat="43.77002" lon="3.5181">
        <ele>739.39</ele>
        <time>2014-12-07T10:52:47Z</time>
      </trkpt>
      <trkpt lat="43.77002" lon="3.51809">
        <ele>740.35</ele>
        <time>2014-12-07T10:53:02Z</time>
      </trkpt>
      <trkpt lat="43.77002" lon="3.51809">
        <ele>739.39</ele>
        <time>2014-12-07T10:53:17Z</time>
      </trkpt>
      <trkpt lat="43.77001" lon="3.5181">
        <ele>738.91</ele>
        <time>2014-12-07T10:53:32Z</time>
      </trkpt>
      <trkpt lat="43.77002" lon="3.5181">
        <ele>736.99</ele>
        <time>2014-12-07T10:53:47Z</time>
      </trkpt>
      <trkpt lat="43.77001" lon="3.5181">
        <ele>737.95</ele>
        <time>2014-12-07T10:54:02Z</time>
      </trkpt>
      <trkpt lat="43.77001" lon="3.51811">
        <ele>739.39</ele>
        <time>2014-12-07T10:54:17Z</time>
      </trkpt>
      <trkpt lat="43.77001" lon="3.5181">
        <ele>740.83</ele>
        <time>2014-12-07T10:54:32Z</time>
      </trkpt>
      <trkpt lat="43.77001" lon="3.5181">
        <ele>740.83</ele>
        <time>2014-12-07T10:54:47Z</time>
      </trkpt>
      <trkpt lat="43.77001" lon="3.5181">
        <ele>741.31</ele>
        <time>2014-12-07T10:55:02Z</time>
      </trkpt>
      <trkpt lat="43.77002" lon="3.51811">
        <ele>740.83</ele>
        <time>2014-12-07T10:55:17Z</time>
      </trkpt>
      <trkpt lat="43.77002" lon="3.51811">
        <ele>739.87</ele>
        <time>2014-12-07T10:55:32Z</time>
      </trkpt>
      <trkpt lat="43.77002" lon="3.51811">
        <ele>740.83</ele>
        <time>2014-12-07T10:55:47Z</time>
      </trkpt>
      <trkpt lat="43.77002" lon="3.51811">
        <ele>739.87</ele>
        <time>2014-12-07T10:56:02Z</time>
      </trkpt>
      <trkpt lat="43.77" lon="3.51812">
        <ele>740.35</ele>
        <time>2014-12-07T10:56:17Z</time>
      </trkpt>
      <trkpt lat="43.77002" lon="3.51811">
        <ele>740.35</ele>
        <time>2014-12-07T10:56:32Z</time>
      </trkpt>
      <trkpt lat="43.77001" lon="3.5181">
        <ele>740.35</ele>
        <time>2014-12-07T10:56:47Z</time>
      </trkpt>
      <trkpt lat="43.77001" lon="3.5181">
        <ele>744.2</ele>
        <time>2014-12-07T10:57:02Z</time>
      </trkpt>
      <trkpt lat="43.77" lon="3.51812">
        <ele>740.83</ele>
        <time>2014-12-07T10:57:17Z</time>
      </trkpt>
      <trkpt lat="43.77" lon="3.51811">
        <ele>740.83</ele>
        <time>2014-12-07T10:57:32Z</time>
      </trkpt>
      <trkpt lat="43.77001" lon="3.5181">
        <ele>741.79</ele>
        <time>2014-12-07T10:57:47Z</time>
      </trkpt>
      <trkpt lat="43.77" lon="3.51809">
        <ele>743.24</ele>
        <time>2014-12-07T10:58:02Z</time>
      </trkpt>
      <trkpt lat="43.77002" lon="3.5181">
        <ele>741.31</ele>
        <time>2014-12-07T10:58:17Z</time>
      </trkpt>
      <trkpt lat="43.77003" lon="3.51811">
        <ele>742.76</ele>
        <time>2014-12-07T10:58:32Z</time>
      </trkpt>
      <trkpt lat="43.77001" lon="3.5181">
        <ele>743.72</ele>
        <time>2014-12-07T10:58:47Z</time>
      </trkpt>
      <trkpt lat="43.77003" lon="3.51813">
        <ele>744.2</ele>
        <time>2014-12-07T10:59:02Z</time>
      </trkpt>
      <trkpt lat="43.77019" lon="3.51816">
        <ele>745.16</ele>
        <time>2014-12-07T10:59:17Z</time>
      </trkpt>
      <trkpt lat="43.77026" lon="3.51835">
        <ele>743.24</ele>
        <time>2014-12-07T10:59:32Z</time>
      </trkpt>
      <trkpt lat="43.77031" lon="3.51858">
        <ele>741.31</ele>
        <time>2014-12-07T10:59:47Z</time>
      </trkpt>
      <trkpt lat="43.77042" lon="3.51867">
        <ele>743.24</ele>
        <time>2014-12-07T11:00:02Z</time>
      </trkpt>
      <trkpt lat="43.77051" lon="3.5188">
        <ele>744.68</ele>
        <time>2014-12-07T11:00:17Z</time>
      </trkpt>
      <trkpt lat="43.77059" lon="3.51895">
        <ele>745.64</ele>
        <time>2014-12-07T11:00:32Z</time>
      </trkpt>
      <trkpt lat="43.77073" lon="3.51901">
        <ele>746.6</ele>
        <time>2014-12-07T11:00:47Z</time>
      </trkpt>
      <trkpt lat="43.77089" lon="3.51891">
        <ele>744.68</ele>
        <time>2014-12-07T11:01:02Z</time>
      </trkpt>
      <trkpt lat="43.77101" lon="3.51879">
        <ele>742.76</ele>
        <time>2014-12-07T11:01:17Z</time>
      </trkpt>
      <trkpt lat="43.77117" lon="3.51875">
        <ele>742.76</ele>
        <time>2014-12-07T11:01:32Z</time>
      </trkpt>
      <trkpt lat="43.77131" lon="3.51875">
        <ele>740.83</ele>
        <time>2014-12-07T11:01:47Z</time>
      </trkpt>
      <trkpt lat="43.77147" lon="3.5188">
        <ele>739.87</ele>
        <time>2014-12-07T11:02:02Z</time>
      </trkpt>
      <trkpt lat="43.77163" lon="3.51881">
        <ele>738.91</ele>
        <time>2014-12-07T11:02:17Z</time>
      </trkpt>
      <trkpt lat="43.77181" lon="3.51887">
        <ele>737.95</ele>
        <time>2014-12-07T11:02:32Z</time>
      </trkpt>
      <trkpt lat="43.77202" lon="3.51886">
        <ele>735.55</ele>
        <time>2014-12-07T11:02:47Z</time>
      </trkpt>
      <trkpt lat="43.77209" lon="3.51888">
        <ele>733.14</ele>
        <time>2014-12-07T11:03:02Z</time>
      </trkpt>
      <trkpt lat="43.77208" lon="3.51889">
        <ele>734.58</ele>
        <time>2014-12-07T11:03:17Z</time>
      </trkpt>
      <trkpt lat="43.77207" lon="3.51891">
        <ele>734.1</ele>
        <time>2014-12-07T11:03:32Z</time>
      </trkpt>
      <trkpt lat="43.7721" lon="3.51893">
        <ele>733.14</ele>
        <time>2014-12-07T11:03:47Z</time>
      </trkpt>
      <trkpt lat="43.77215" lon="3.51916">
        <ele>733.14</ele>
        <time>2014-12-07T11:04:02Z</time>
      </trkpt>
      <trkpt lat="43.77219" lon="3.51934">
        <ele>733.14</ele>
        <time>2014-12-07T11:04:17Z</time>
      </trkpt>
      <trkpt lat="43.77228" lon="3.51955">
        <ele>733.62</ele>
        <time>2014-12-07T11:04:32Z</time>
      </trkpt>
      <trkpt lat="43.7724" lon="3.51972">
        <ele>735.55</ele>
        <time>2014-12-07T11:04:47Z</time>
      </trkpt>
      <trkpt lat="43.77255" lon="3.5198">
        <ele>733.62</ele>
        <time>2014-12-07T11:05:02Z</time>
      </trkpt>
      <trkpt lat="43.77269" lon="3.51992">
        <ele>731.22</ele>
        <time>2014-12-07T11:05:17Z</time>
      </trkpt>
      <trkpt lat="43.77271" lon="3.52012">
        <ele>729.3</ele>
        <time>2014-12-07T11:05:32Z</time>
      </trkpt>
      <trkpt lat="43.77265" lon="3.52024">
        <ele>726.41</ele>
        <time>2014-12-07T11:05:47Z</time>
      </trkpt>
      <trkpt lat="43.77259" lon="3.52041">
        <ele>720.65</ele>
        <time>2014-12-07T11:06:02Z</time>
      </trkpt>
      <trkpt lat="43.77252" lon="3.52052">
        <ele>716.8</ele>
        <time>2014-12-07T11:06:17Z</time>
      </trkpt>
      <trkpt lat="43.77239" lon="3.52056">
        <ele>712.95</ele>
        <time>2014-12-07T11:06:32Z</time>
      </trkpt>
      <trkpt lat="43.77231" lon="3.52066">
        <ele>709.11</ele>
        <time>2014-12-07T11:06:47Z</time>
      </trkpt>
      <trkpt lat="43.77225" lon="3.52081">
        <ele>705.75</ele>
        <time>2014-12-07T11:07:02Z</time>
      </trkpt>
      <trkpt lat="43.77224" lon="3.52103">
        <ele>705.75</ele>
        <time>2014-12-07T11:07:17Z</time>
      </trkpt>
      <trkpt lat="43.77224" lon="3.52121">
        <ele>702.86</ele>
        <time>2014-12-07T11:07:32Z</time>
      </trkpt>
      <trkpt lat="43.77218" lon="3.52137">
        <ele>701.9</ele>
        <time>2014-12-07T11:07:47Z</time>
      </trkpt>
      <trkpt lat="43.77208" lon="3.52154">
        <ele>699.02</ele>
        <time>2014-12-07T11:08:02Z</time>
      </trkpt>
      <trkpt lat="43.77199" lon="3.52168">
        <ele>697.57</ele>
        <time>2014-12-07T11:08:17Z</time>
      </trkpt>
      <trkpt lat="43.77196" lon="3.52175">
        <ele>698.05</ele>
        <time>2014-12-07T11:08:32Z</time>
      </trkpt>
      <trkpt lat="43.77198" lon="3.52182">
        <ele>692.77</ele>
        <time>2014-12-07T11:08:47Z</time>
      </trkpt>
      <trkpt lat="43.77203" lon="3.52191">
        <ele>690.84</ele>
        <time>2014-12-07T11:09:02Z</time>
      </trkpt>
      <trkpt lat="43.77206" lon="3.52202">
        <ele>688.92</ele>
        <time>2014-12-07T11:09:17Z</time>
      </trkpt>
      <trkpt lat="43.77212" lon="3.52212">
        <ele>687</ele>
        <time>2014-12-07T11:09:32Z</time>
      </trkpt>
      <trkpt lat="43.7722" lon="3.52227">
        <ele>680.75</ele>
        <time>2014-12-07T11:09:47Z</time>
      </trkpt>
      <trkpt lat="43.77229" lon="3.5224">
        <ele>679.31</ele>
        <time>2014-12-07T11:10:02Z</time>
      </trkpt>
      <trkpt lat="43.7724" lon="3.52251">
        <ele>675.94</ele>
        <time>2014-12-07T11:10:17Z</time>
      </trkpt>
      <trkpt lat="43.77253" lon="3.52257">
        <ele>675.46</ele>
        <time>2014-12-07T11:10:32Z</time>
      </trkpt>
      <trkpt lat="43.77263" lon="3.52271">
        <ele>671.62</ele>
        <time>2014-12-07T11:10:47Z</time>
      </trkpt>
      <trkpt lat="43.77276" lon="3.52285">
        <ele>669.7</ele>
        <time>2014-12-07T11:11:02Z</time>
      </trkpt>
      <trkpt lat="43.7729" lon="3.52294">
        <ele>666.81</ele>
        <time>2014-12-07T11:11:17Z</time>
      </trkpt>
      <trkpt lat="43.77299" lon="3.52304">
        <ele>664.41</ele>
        <time>2014-12-07T11:11:32Z</time>
      </trkpt>
      <trkpt lat="43.77298" lon="3.52322">
        <ele>665.37</ele>
        <time>2014-12-07T11:11:47Z</time>
      </trkpt>
      <trkpt lat="43.77297" lon="3.52341">
        <ele>661.52</ele>
        <time>2014-12-07T11:12:02Z</time>
      </trkpt>
      <trkpt lat="43.77302" lon="3.52363">
        <ele>659.12</ele>
        <time>2014-12-07T11:12:17Z</time>
      </trkpt>
      <trkpt lat="43.77303" lon="3.52381">
        <ele>656.72</ele>
        <time>2014-12-07T11:12:32Z</time>
      </trkpt>
      <trkpt lat="43.77313" lon="3.52398">
        <ele>653.35</ele>
        <time>2014-12-07T11:12:47Z</time>
      </trkpt>
      <trkpt lat="43.77323" lon="3.52414">
        <ele>652.39</ele>
        <time>2014-12-07T11:13:02Z</time>
      </trkpt>
      <trkpt lat="43.77331" lon="3.5243">
        <ele>649.51</ele>
        <time>2014-12-07T11:13:17Z</time>
      </trkpt>
      <trkpt lat="43.77327" lon="3.52447">
        <ele>646.62</ele>
        <time>2014-12-07T11:13:32Z</time>
      </trkpt>
      <trkpt lat="43.77321" lon="3.52467">
        <ele>644.7</ele>
        <time>2014-12-07T11:13:47Z</time>
      </trkpt>
      <trkpt lat="43.77313" lon="3.52488">
        <ele>641.34</ele>
        <time>2014-12-07T11:14:02Z</time>
      </trkpt>
      <trkpt lat="43.77307" lon="3.5251">
        <ele>642.78</ele>
        <time>2014-12-07T11:14:17Z</time>
      </trkpt>
      <trkpt lat="43.77303" lon="3.52536">
        <ele>641.34</ele>
        <time>2014-12-07T11:14:32Z</time>
      </trkpt>
      <trkpt lat="43.77299" lon="3.52556">
        <ele>637.97</ele>
        <time>2014-12-07T11:14:47Z</time>
      </trkpt>
      <trkpt lat="43.773" lon="3.52574">
        <ele>636.53</ele>
        <time>2014-12-07T11:15:02Z</time>
      </trkpt>
      <trkpt lat="43.77302" lon="3.52589">
        <ele>636.05</ele>
        <time>2014-12-07T11:15:17Z</time>
      </trkpt>
      <trkpt lat="43.77305" lon="3.5261">
        <ele>637.01</ele>
        <time>2014-12-07T11:15:32Z</time>
      </trkpt>
      <trkpt lat="43.77312" lon="3.52627">
        <ele>636.53</ele>
        <time>2014-12-07T11:15:47Z</time>
      </trkpt>
      <trkpt lat="43.77318" lon="3.52644">
        <ele>632.68</ele>
        <time>2014-12-07T11:16:02Z</time>
      </trkpt>
      <trkpt lat="43.77325" lon="3.52657">
        <ele>630.28</ele>
        <time>2014-12-07T11:16:17Z</time>
      </trkpt>
      <trkpt lat="43.77335" lon="3.52673">
        <ele>627.4</ele>
        <time>2014-12-07T11:16:32Z</time>
      </trkpt>
      <trkpt lat="43.77347" lon="3.52683">
        <ele>625.96</ele>
        <time>2014-12-07T11:16:47Z</time>
      </trkpt>
      <trkpt lat="43.77359" lon="3.52696">
        <ele>624.03</ele>
        <time>2014-12-07T11:17:02Z</time>
      </trkpt>
      <trkpt lat="43.77373" lon="3.52707">
        <ele>620.19</ele>
        <time>2014-12-07T11:17:17Z</time>
      </trkpt>
      <trkpt lat="43.77389" lon="3.52717">
        <ele>620.19</ele>
        <time>2014-12-07T11:17:32Z</time>
      </trkpt>
      <trkpt lat="43.77403" lon="3.5273">
        <ele>617.3</ele>
        <time>2014-12-07T11:17:47Z</time>
      </trkpt>
      <trkpt lat="43.77411" lon="3.52746">
        <ele>615.38</ele>
        <time>2014-12-07T11:18:02Z</time>
      </trkpt>
      <trkpt lat="43.77423" lon="3.52756">
        <ele>613.46</ele>
        <time>2014-12-07T11:18:17Z</time>
      </trkpt>
      <trkpt lat="43.77433" lon="3.52774">
        <ele>612.5</ele>
        <time>2014-12-07T11:18:32Z</time>
      </trkpt>
      <trkpt lat="43.77443" lon="3.52789">
        <ele>611.06</ele>
        <time>2014-12-07T11:18:47Z</time>
      </trkpt>
      <trkpt lat="43.77453" lon="3.52808">
        <ele>607.21</ele>
        <time>2014-12-07T11:19:02Z</time>
      </trkpt>
      <trkpt lat="43.77457" lon="3.52822">
        <ele>603.36</ele>
        <time>2014-12-07T11:19:17Z</time>
      </trkpt>
      <trkpt lat="43.77466" lon="3.52835">
        <ele>600.96</ele>
        <time>2014-12-07T11:19:32Z</time>
      </trkpt>
      <trkpt lat="43.77477" lon="3.52841">
        <ele>598.08</ele>
        <time>2014-12-07T11:19:47Z</time>
      </trkpt>
      <trkpt lat="43.77489" lon="3.52846">
        <ele>598.08</ele>
        <time>2014-12-07T11:20:02Z</time>
      </trkpt>
      <trkpt lat="43.775" lon="3.52854">
        <ele>593.75</ele>
        <time>2014-12-07T11:20:17Z</time>
      </trkpt>
      <trkpt lat="43.77502" lon="3.52862">
        <ele>591.35</ele>
        <time>2014-12-07T11:20:32Z</time>
      </trkpt>
      <trkpt lat="43.77499" lon="3.52869">
        <ele>587.5</ele>
        <time>2014-12-07T11:20:47Z</time>
      </trkpt>
      <trkpt lat="43.77501" lon="3.52889">
        <ele>583.18</ele>
        <time>2014-12-07T11:21:02Z</time>
      </trkpt>
      <trkpt lat="43.77506" lon="3.529">
        <ele>580.77</ele>
        <time>2014-12-07T11:21:17Z</time>
      </trkpt>
      <trkpt lat="43.77515" lon="3.52911">
        <ele>577.41</ele>
        <time>2014-12-07T11:21:32Z</time>
      </trkpt>
      <trkpt lat="43.77529" lon="3.52923">
        <ele>575.49</ele>
        <time>2014-12-07T11:21:47Z</time>
      </trkpt>
      <trkpt lat="43.77534" lon="3.5294">
        <ele>572.6</ele>
        <time>2014-12-07T11:22:02Z</time>
      </trkpt>
      <trkpt lat="43.77536" lon="3.52964">
        <ele>572.12</ele>
        <time>2014-12-07T11:22:17Z</time>
      </trkpt>
      <trkpt lat="43.77541" lon="3.52983">
        <ele>565.87</ele>
        <time>2014-12-07T11:22:32Z</time>
      </trkpt>
      <trkpt lat="43.77544" lon="3.53001">
        <ele>564.43</ele>
        <time>2014-12-07T11:22:47Z</time>
      </trkpt>
      <trkpt lat="43.77553" lon="3.53016">
        <ele>564.91</ele>
        <time>2014-12-07T11:23:02Z</time>
      </trkpt>
      <trkpt lat="43.77558" lon="3.53036">
        <ele>563.47</ele>
        <time>2014-12-07T11:23:17Z</time>
      </trkpt>
      <trkpt lat="43.77556" lon="3.53056">
        <ele>561.55</ele>
        <time>2014-12-07T11:23:32Z</time>
      </trkpt>
      <trkpt lat="43.77541" lon="3.53067">
        <ele>556.74</ele>
        <time>2014-12-07T11:23:47Z</time>
      </trkpt>
      <trkpt lat="43.7753" lon="3.5307">
        <ele>560.11</ele>
        <time>2014-12-07T11:24:02Z</time>
      </trkpt>
      <trkpt lat="43.77518" lon="3.53072">
        <ele>552.9</ele>
        <time>2014-12-07T11:24:17Z</time>
      </trkpt>
      <trkpt lat="43.77503" lon="3.53077">
        <ele>548.57</ele>
        <time>2014-12-07T11:24:32Z</time>
      </trkpt>
      <trkpt lat="43.77485" lon="3.53086">
        <ele>546.17</ele>
        <time>2014-12-07T11:24:47Z</time>
      </trkpt>
      <trkpt lat="43.77471" lon="3.53101">
        <ele>542.32</ele>
        <time>2014-12-07T11:25:02Z</time>
      </trkpt>
      <trkpt lat="43.77463" lon="3.53124">
        <ele>538.96</ele>
        <time>2014-12-07T11:25:17Z</time>
      </trkpt>
      <trkpt lat="43.77449" lon="3.53142">
        <ele>535.11</ele>
        <time>2014-12-07T11:25:32Z</time>
      </trkpt>
      <trkpt lat="43.77431" lon="3.53151">
        <ele>531.75</ele>
        <time>2014-12-07T11:25:47Z</time>
      </trkpt>
      <trkpt lat="43.77413" lon="3.53159">
        <ele>529.34</ele>
        <time>2014-12-07T11:26:02Z</time>
      </trkpt>
      <trkpt lat="43.77402" lon="3.53164">
        <ele>527.9</ele>
        <time>2014-12-07T11:26:17Z</time>
      </trkpt>
      <trkpt lat="43.77381" lon="3.53167">
        <ele>523.58</ele>
        <time>2014-12-07T11:26:32Z</time>
      </trkpt>
      <trkpt lat="43.77363" lon="3.53169">
        <ele>524.54</ele>
        <time>2014-12-07T11:26:47Z</time>
      </trkpt>
      <trkpt lat="43.77343" lon="3.53167">
        <ele>518.29</ele>
        <time>2014-12-07T11:27:02Z</time>
      </trkpt>
      <trkpt lat="43.77326" lon="3.53173">
        <ele>516.37</ele>
        <time>2014-12-07T11:27:17Z</time>
      </trkpt>
      <trkpt lat="43.77309" lon="3.53186">
        <ele>513.48</ele>
        <time>2014-12-07T11:27:32Z</time>
      </trkpt>
      <trkpt lat="43.7729" lon="3.53185">
        <ele>511.56</ele>
        <time>2014-12-07T11:27:47Z</time>
      </trkpt>
      <trkpt lat="43.77269" lon="3.5319">
        <ele>508.67</ele>
        <time>2014-12-07T11:28:02Z</time>
      </trkpt>
      <trkpt lat="43.77254" lon="3.53207">
        <ele>508.67</ele>
        <time>2014-12-07T11:28:17Z</time>
      </trkpt>
      <trkpt lat="43.77244" lon="3.53196">
        <ele>505.79</ele>
        <time>2014-12-07T11:28:32Z</time>
      </trkpt>
      <trkpt lat="43.7723" lon="3.53183">
        <ele>505.79</ele>
        <time>2014-12-07T11:28:47Z</time>
      </trkpt>
      <trkpt lat="43.77215" lon="3.53183">
        <ele>500.98</ele>
        <time>2014-12-07T11:29:02Z</time>
      </trkpt>
      <trkpt lat="43.77218" lon="3.53184">
        <ele>505.31</ele>
        <time>2014-12-07T11:29:17Z</time>
      </trkpt>
      <trkpt lat="43.7722" lon="3.53183">
        <ele>504.35</ele>
        <time>2014-12-07T11:29:32Z</time>
      </trkpt>
      <trkpt lat="43.77217" lon="3.53184">
        <ele>505.31</ele>
        <time>2014-12-07T11:29:47Z</time>
      </trkpt>
      <trkpt lat="43.77216" lon="3.53184">
        <ele>505.31</ele>
        <time>2014-12-07T11:30:02Z</time>
      </trkpt>
      <trkpt lat="43.77215" lon="3.53187">
        <ele>505.31</ele>
        <time>2014-12-07T11:30:17Z</time>
      </trkpt>
      <trkpt lat="43.77203" lon="3.53183">
        <ele>503.87</ele>
        <time>2014-12-07T11:30:32Z</time>
      </trkpt>
      <trkpt lat="43.77187" lon="3.53186">
        <ele>500.5</ele>
        <time>2014-12-07T11:30:47Z</time>
      </trkpt>
      <trkpt lat="43.77171" lon="3.53186">
        <ele>498.1</ele>
        <time>2014-12-07T11:31:02Z</time>
      </trkpt>
      <trkpt lat="43.7716" lon="3.53166">
        <ele>495.7</ele>
        <time>2014-12-07T11:31:17Z</time>
      </trkpt>
      <trkpt lat="43.77149" lon="3.53149">
        <ele>495.7</ele>
        <time>2014-12-07T11:31:32Z</time>
      </trkpt>
      <trkpt lat="43.77131" lon="3.53146">
        <ele>494.26</ele>
        <time>2014-12-07T11:31:47Z</time>
      </trkpt>
      <trkpt lat="43.77117" lon="3.53139">
        <ele>495.22</ele>
        <time>2014-12-07T11:32:02Z</time>
      </trkpt>
      <trkpt lat="43.77097" lon="3.53136">
        <ele>492.81</ele>
        <time>2014-12-07T11:32:17Z</time>
      </trkpt>
      <trkpt lat="43.77073" lon="3.53145">
        <ele>491.85</ele>
        <time>2014-12-07T11:32:32Z</time>
      </trkpt>
      <trkpt lat="43.77058" lon="3.53147">
        <ele>490.89</ele>
        <time>2014-12-07T11:32:47Z</time>
      </trkpt>
      <trkpt lat="43.77041" lon="3.53158">
        <ele>488.01</ele>
        <time>2014-12-07T11:33:02Z</time>
      </trkpt>
      <trkpt lat="43.77038" lon="3.53169">
        <ele>488.97</ele>
        <time>2014-12-07T11:33:17Z</time>
      </trkpt>
      <trkpt lat="43.7704" lon="3.53165">
        <ele>489.45</ele>
        <time>2014-12-07T11:33:32Z</time>
      </trkpt>
      <trkpt lat="43.77042" lon="3.53164">
        <ele>490.41</ele>
        <time>2014-12-07T11:33:47Z</time>
      </trkpt>
      <trkpt lat="43.77039" lon="3.53167">
        <ele>487.53</ele>
        <time>2014-12-07T11:34:02Z</time>
      </trkpt>
      <trkpt lat="43.7704" lon="3.53166">
        <ele>490.89</ele>
        <time>2014-12-07T11:34:17Z</time>
      </trkpt>
      <trkpt lat="43.7704" lon="3.53164">
        <ele>488.97</ele>
        <time>2014-12-07T11:34:32Z</time>
      </trkpt>
      <trkpt lat="43.77041" lon="3.53162">
        <ele>490.41</ele>
        <time>2014-12-07T11:34:47Z</time>
      </trkpt>
      <trkpt lat="43.77039" lon="3.53162">
        <ele>490.41</ele>
        <time>2014-12-07T11:35:02Z</time>
      </trkpt>
      <trkpt lat="43.77041" lon="3.5317">
        <ele>488.97</ele>
        <time>2014-12-07T11:35:17Z</time>
      </trkpt>
      <trkpt lat="43.77043" lon="3.53172">
        <ele>489.93</ele>
        <time>2014-12-07T11:35:32Z</time>
      </trkpt>
      <trkpt lat="43.77043" lon="3.53173">
        <ele>488.49</ele>
        <time>2014-12-07T11:35:47Z</time>
      </trkpt>
      <trkpt lat="43.77043" lon="3.53173">
        <ele>488.49</ele>
        <time>2014-12-07T11:36:02Z</time>
      </trkpt>
      <trkpt lat="43.77043" lon="3.53173">
        <ele>488.49</ele>
        <time>2014-12-07T11:36:17Z</time>
      </trkpt>
      <trkpt lat="43.77043" lon="3.53173">
        <ele>488.01</ele>
        <time>2014-12-07T11:36:32Z</time>
      </trkpt>
      <trkpt lat="43.77042" lon="3.53174">
        <ele>489.45</ele>
        <time>2014-12-07T11:36:47Z</time>
      </trkpt>
      <trkpt lat="43.77042" lon="3.53175">
        <ele>489.45</ele>
        <time>2014-12-07T11:37:02Z</time>
      </trkpt>
      <trkpt lat="43.77042" lon="3.53175">
        <ele>489.45</ele>
        <time>2014-12-07T11:37:17Z</time>
      </trkpt>
      <trkpt lat="43.77042" lon="3.53174">
        <ele>488.97</ele>
        <time>2014-12-07T11:37:32Z</time>
      </trkpt>
      <trkpt lat="43.77043" lon="3.53172">
        <ele>489.93</ele>
        <time>2014-12-07T11:37:47Z</time>
      </trkpt>
      <trkpt lat="43.77044" lon="3.53171">
        <ele>492.33</ele>
        <time>2014-12-07T11:38:02Z</time>
      </trkpt>
      <trkpt lat="43.77044" lon="3.5317">
        <ele>490.41</ele>
        <time>2014-12-07T11:38:17Z</time>
      </trkpt>
      <trkpt lat="43.77045" lon="3.53169">
        <ele>488.97</ele>
        <time>2014-12-07T11:38:32Z</time>
      </trkpt>
      <trkpt lat="43.77045" lon="3.53168">
        <ele>490.41</ele>
        <time>2014-12-07T11:38:47Z</time>
      </trkpt>
      <trkpt lat="43.77045" lon="3.53168">
        <ele>488.97</ele>
        <time>2014-12-07T11:39:02Z</time>
      </trkpt>
      <trkpt lat="43.77045" lon="3.53169">
        <ele>490.89</ele>
        <time>2014-12-07T11:39:17Z</time>
      </trkpt>
      <trkpt lat="43.77043" lon="3.53168">
        <ele>489.93</ele>
        <time>2014-12-07T11:39:32Z</time>
      </trkpt>
      <trkpt lat="43.77043" lon="3.5317">
        <ele>490.41</ele>
        <time>2014-12-07T11:39:47Z</time>
      </trkpt>
      <trkpt lat="43.77044" lon="3.53173">
        <ele>491.37</ele>
        <time>2014-12-07T11:40:02Z</time>
      </trkpt>
      <trkpt lat="43.77044" lon="3.53171">
        <ele>490.89</ele>
        <time>2014-12-07T11:40:17Z</time>
      </trkpt>
      <trkpt lat="43.77044" lon="3.53173">
        <ele>491.37</ele>
        <time>2014-12-07T11:40:32Z</time>
      </trkpt>
      <trkpt lat="43.77043" lon="3.5317">
        <ele>490.89</ele>
        <time>2014-12-07T11:40:47Z</time>
      </trkpt>
      <trkpt lat="43.77043" lon="3.5317">
        <ele>491.37</ele>
        <time>2014-12-07T11:41:02Z</time>
      </trkpt>
      <trkpt lat="43.77043" lon="3.53168">
        <ele>492.33</ele>
        <time>2014-12-07T11:41:17Z</time>
      </trkpt>
      <trkpt lat="43.77043" lon="3.53168">
        <ele>490.89</ele>
        <time>2014-12-07T11:41:32Z</time>
      </trkpt>
      <trkpt lat="43.77042" lon="3.53169">
        <ele>492.81</ele>
        <time>2014-12-07T11:41:47Z</time>
      </trkpt>
      <trkpt lat="43.77042" lon="3.53169">
        <ele>490.89</ele>
        <time>2014-12-07T11:42:02Z</time>
      </trkpt>
      <trkpt lat="43.77043" lon="3.53168">
        <ele>491.85</ele>
        <time>2014-12-07T11:42:17Z</time>
      </trkpt>
      <trkpt lat="43.77043" lon="3.53167">
        <ele>490.89</ele>
        <time>2014-12-07T11:42:32Z</time>
      </trkpt>
      <trkpt lat="43.77043" lon="3.53169">
        <ele>490.41</ele>
        <time>2014-12-07T11:42:47Z</time>
      </trkpt>
      <trkpt lat="43.77043" lon="3.5317">
        <ele>489.93</ele>
        <time>2014-12-07T11:43:02Z</time>
      </trkpt>
      <trkpt lat="43.77042" lon="3.53169">
        <ele>491.37</ele>
        <time>2014-12-07T11:43:17Z</time>
      </trkpt>
      <trkpt lat="43.77042" lon="3.53168">
        <ele>492.81</ele>
        <time>2014-12-07T11:43:32Z</time>
      </trkpt>
      <trkpt lat="43.77042" lon="3.53168">
        <ele>491.37</ele>
        <time>2014-12-07T11:43:47Z</time>
      </trkpt>
      <trkpt lat="43.77043" lon="3.53169">
        <ele>491.85</ele>
        <time>2014-12-07T11:44:02Z</time>
      </trkpt>
      <trkpt lat="43.77043" lon="3.53169">
        <ele>491.37</ele>
        <time>2014-12-07T11:44:17Z</time>
      </trkpt>
      <trkpt lat="43.77043" lon="3.53169">
        <ele>491.37</ele>
        <time>2014-12-07T11:44:32Z</time>
      </trkpt>
      <trkpt lat="43.77043" lon="3.53169">
        <ele>491.85</ele>
        <time>2014-12-07T11:44:47Z</time>
      </trkpt>
      <trkpt lat="43.77043" lon="3.53169">
        <ele>492.33</ele>
        <time>2014-12-07T11:45:02Z</time>
      </trkpt>
      <trkpt lat="43.77044" lon="3.53168">
        <ele>492.33</ele>
        <time>2014-12-07T11:45:17Z</time>
      </trkpt>
      <trkpt lat="43.77044" lon="3.53168">
        <ele>493.29</ele>
        <time>2014-12-07T11:45:32Z</time>
      </trkpt>
      <trkpt lat="43.77044" lon="3.53168">
        <ele>491.85</ele>
        <time>2014-12-07T11:45:47Z</time>
      </trkpt>
      <trkpt lat="43.77044" lon="3.53168">
        <ele>491.37</ele>
        <time>2014-12-07T11:46:02Z</time>
      </trkpt>
      <trkpt lat="43.77044" lon="3.53169">
        <ele>491.85</ele>
        <time>2014-12-07T11:46:17Z</time>
      </trkpt>
      <trkpt lat="43.77044" lon="3.53169">
        <ele>492.33</ele>
        <time>2014-12-07T11:46:32Z</time>
      </trkpt>
      <trkpt lat="43.77044" lon="3.53169">
        <ele>491.85</ele>
        <time>2014-12-07T11:46:47Z</time>
      </trkpt>
      <trkpt lat="43.77044" lon="3.5317">
        <ele>492.33</ele>
        <time>2014-12-07T11:47:02Z</time>
      </trkpt>
      <trkpt lat="43.77044" lon="3.53169">
        <ele>491.85</ele>
        <time>2014-12-07T11:47:17Z</time>
      </trkpt>
      <trkpt lat="43.77043" lon="3.5317">
        <ele>493.77</ele>
        <time>2014-12-07T11:47:32Z</time>
      </trkpt>
      <trkpt lat="43.77043" lon="3.53171">
        <ele>492.81</ele>
        <time>2014-12-07T11:47:47Z</time>
      </trkpt>
      <trkpt lat="43.77043" lon="3.5317">
        <ele>492.33</ele>
        <time>2014-12-07T11:48:02Z</time>
      </trkpt>
      <trkpt lat="43.77043" lon="3.53169">
        <ele>493.77</ele>
        <time>2014-12-07T11:48:17Z</time>
      </trkpt>
      <trkpt lat="43.77043" lon="3.53168">
        <ele>493.29</ele>
        <time>2014-12-07T11:48:32Z</time>
      </trkpt>
      <trkpt lat="43.77042" lon="3.53168">
        <ele>493.77</ele>
        <time>2014-12-07T11:48:47Z</time>
      </trkpt>
      <trkpt lat="43.77043" lon="3.53168">
        <ele>493.29</ele>
        <time>2014-12-07T11:49:02Z</time>
      </trkpt>
      <trkpt lat="43.77044" lon="3.53167">
        <ele>492.81</ele>
        <time>2014-12-07T11:49:17Z</time>
      </trkpt>
      <trkpt lat="43.77043" lon="3.53166">
        <ele>492.33</ele>
        <time>2014-12-07T11:49:32Z</time>
      </trkpt>
      <trkpt lat="43.77043" lon="3.53166">
        <ele>492.81</ele>
        <time>2014-12-07T11:49:47Z</time>
      </trkpt>
      <trkpt lat="43.77042" lon="3.53166">
        <ele>492.81</ele>
        <time>2014-12-07T11:50:02Z</time>
      </trkpt>
      <trkpt lat="43.77043" lon="3.53167">
        <ele>493.77</ele>
        <time>2014-12-07T11:50:17Z</time>
      </trkpt>
      <trkpt lat="43.77042" lon="3.53168">
        <ele>493.77</ele>
        <time>2014-12-07T11:50:32Z</time>
      </trkpt>
      <trkpt lat="43.77043" lon="3.5317">
        <ele>492.81</ele>
        <time>2014-12-07T11:50:47Z</time>
      </trkpt>
      <trkpt lat="43.77043" lon="3.53169">
        <ele>490.89</ele>
        <time>2014-12-07T11:51:02Z</time>
      </trkpt>
      <trkpt lat="43.77043" lon="3.53167">
        <ele>491.85</ele>
        <time>2014-12-07T11:51:17Z</time>
      </trkpt>
      <trkpt lat="43.77043" lon="3.53167">
        <ele>496.18</ele>
        <time>2014-12-07T11:51:32Z</time>
      </trkpt>
      <trkpt lat="43.77042" lon="3.53168">
        <ele>493.77</ele>
        <time>2014-12-07T11:51:47Z</time>
      </trkpt>
      <trkpt lat="43.77042" lon="3.53168">
        <ele>495.22</ele>
        <time>2014-12-07T11:52:02Z</time>
      </trkpt>
      <trkpt lat="43.77041" lon="3.53168">
        <ele>493.77</ele>
        <time>2014-12-07T11:52:17Z</time>
      </trkpt>
      <trkpt lat="43.77041" lon="3.53166">
        <ele>493.29</ele>
        <time>2014-12-07T11:52:32Z</time>
      </trkpt>
      <trkpt lat="43.77041" lon="3.53167">
        <ele>492.81</ele>
        <time>2014-12-07T11:52:47Z</time>
      </trkpt>
      <trkpt lat="43.77041" lon="3.53167">
        <ele>492.33</ele>
        <time>2014-12-07T11:53:02Z</time>
      </trkpt>
      <trkpt lat="43.77042" lon="3.53167">
        <ele>493.29</ele>
        <time>2014-12-07T11:53:17Z</time>
      </trkpt>
      <trkpt lat="43.77042" lon="3.53168">
        <ele>493.77</ele>
        <time>2014-12-07T11:53:32Z</time>
      </trkpt>
      <trkpt lat="43.77043" lon="3.53169">
        <ele>493.77</ele>
        <time>2014-12-07T11:53:47Z</time>
      </trkpt>
      <trkpt lat="43.77043" lon="3.53168">
        <ele>493.77</ele>
        <time>2014-12-07T11:54:02Z</time>
      </trkpt>
      <trkpt lat="43.77043" lon="3.53168">
        <ele>493.29</ele>
        <time>2014-12-07T11:54:17Z</time>
      </trkpt>
      <trkpt lat="43.77042" lon="3.53168">
        <ele>492.81</ele>
        <time>2014-12-07T11:54:32Z</time>
      </trkpt>
      <trkpt lat="43.77042" lon="3.53169">
        <ele>493.29</ele>
        <time>2014-12-07T11:54:47Z</time>
      </trkpt>
      <trkpt lat="43.77042" lon="3.5317">
        <ele>494.26</ele>
        <time>2014-12-07T11:55:02Z</time>
      </trkpt>
      <trkpt lat="43.77042" lon="3.53169">
        <ele>496.18</ele>
        <time>2014-12-07T11:55:17Z</time>
      </trkpt>
      <trkpt lat="43.77042" lon="3.53169">
        <ele>496.18</ele>
        <time>2014-12-07T11:55:32Z</time>
      </trkpt>
      <trkpt lat="43.77042" lon="3.53168">
        <ele>494.74</ele>
        <time>2014-12-07T11:55:47Z</time>
      </trkpt>
      <trkpt lat="43.77044" lon="3.53168">
        <ele>496.18</ele>
        <time>2014-12-07T11:56:02Z</time>
      </trkpt>
      <trkpt lat="43.77044" lon="3.53169">
        <ele>494.74</ele>
        <time>2014-12-07T11:56:17Z</time>
      </trkpt>
      <trkpt lat="43.77044" lon="3.53168">
        <ele>494.74</ele>
        <time>2014-12-07T11:56:32Z</time>
      </trkpt>
      <trkpt lat="43.77044" lon="3.53169">
        <ele>494.74</ele>
        <time>2014-12-07T11:56:47Z</time>
      </trkpt>
      <trkpt lat="43.77043" lon="3.53168">
        <ele>493.29</ele>
        <time>2014-12-07T11:57:02Z</time>
      </trkpt>
      <trkpt lat="43.77043" lon="3.53169">
        <ele>495.22</ele>
        <time>2014-12-07T11:57:17Z</time>
      </trkpt>
      <trkpt lat="43.77043" lon="3.53169">
        <ele>493.77</ele>
        <time>2014-12-07T11:57:32Z</time>
      </trkpt>
      <trkpt lat="43.77043" lon="3.5317">
        <ele>494.74</ele>
        <time>2014-12-07T11:57:47Z</time>
      </trkpt>
      <trkpt lat="43.77044" lon="3.53168">
        <ele>495.7</ele>
        <time>2014-12-07T11:58:02Z</time>
      </trkpt>
      <trkpt lat="43.77044" lon="3.53168">
        <ele>494.26</ele>
        <time>2014-12-07T11:58:17Z</time>
      </trkpt>
      <trkpt lat="43.77043" lon="3.53169">
        <ele>493.29</ele>
        <time>2014-12-07T11:58:32Z</time>
      </trkpt>
      <trkpt lat="43.77043" lon="3.53168">
        <ele>493.29</ele>
        <time>2014-12-07T11:58:47Z</time>
      </trkpt>
      <trkpt lat="43.77044" lon="3.53167">
        <ele>495.22</ele>
        <time>2014-12-07T11:59:02Z</time>
      </trkpt>
      <trkpt lat="43.77044" lon="3.53166">
        <ele>493.77</ele>
        <time>2014-12-07T11:59:17Z</time>
      </trkpt>
      <trkpt lat="43.77042" lon="3.53167">
        <ele>493.29</ele>
        <time>2014-12-07T11:59:32Z</time>
      </trkpt>
      <trkpt lat="43.77043" lon="3.53167">
        <ele>494.26</ele>
        <time>2014-12-07T11:59:47Z</time>
      </trkpt>
      <trkpt lat="43.77042" lon="3.53167">
        <ele>494.74</ele>
        <time>2014-12-07T12:00:02Z</time>
      </trkpt>
      <trkpt lat="43.77042" lon="3.53168">
        <ele>493.77</ele>
        <time>2014-12-07T12:00:17Z</time>
      </trkpt>
      <trkpt lat="43.77043" lon="3.53168">
        <ele>494.74</ele>
        <time>2014-12-07T12:00:32Z</time>
      </trkpt>
      <trkpt lat="43.77044" lon="3.53168">
        <ele>494.26</ele>
        <time>2014-12-07T12:00:47Z</time>
      </trkpt>
      <trkpt lat="43.77042" lon="3.53169">
        <ele>495.22</ele>
        <time>2014-12-07T12:01:02Z</time>
      </trkpt>
      <trkpt lat="43.77042" lon="3.53168">
        <ele>495.7</ele>
        <time>2014-12-07T12:01:17Z</time>
      </trkpt>
      <trkpt lat="43.77041" lon="3.53168">
        <ele>495.7</ele>
        <time>2014-12-07T12:01:32Z</time>
      </trkpt>
      <trkpt lat="43.77041" lon="3.53167">
        <ele>494.26</ele>
        <time>2014-12-07T12:01:47Z</time>
      </trkpt>
      <trkpt lat="43.77041" lon="3.53168">
        <ele>492.81</ele>
        <time>2014-12-07T12:02:02Z</time>
      </trkpt>
      <trkpt lat="43.77043" lon="3.53167">
        <ele>494.26</ele>
        <time>2014-12-07T12:02:17Z</time>
      </trkpt>
      <trkpt lat="43.77043" lon="3.53167">
        <ele>493.77</ele>
        <time>2014-12-07T12:02:32Z</time>
      </trkpt>
      <trkpt lat="43.77042" lon="3.53167">
        <ele>494.74</ele>
        <time>2014-12-07T12:02:47Z</time>
      </trkpt>
      <trkpt lat="43.77043" lon="3.53168">
        <ele>493.77</ele>
        <time>2014-12-07T12:03:02Z</time>
      </trkpt>
      <trkpt lat="43.77043" lon="3.53168">
        <ele>493.29</ele>
        <time>2014-12-07T12:03:17Z</time>
      </trkpt>
      <trkpt lat="43.77042" lon="3.53166">
        <ele>493.29</ele>
        <time>2014-12-07T12:03:32Z</time>
      </trkpt>
      <trkpt lat="43.77043" lon="3.53166">
        <ele>494.26</ele>
        <time>2014-12-07T12:03:47Z</time>
      </trkpt>
      <trkpt lat="43.77043" lon="3.53167">
        <ele>495.22</ele>
        <time>2014-12-07T12:04:02Z</time>
      </trkpt>
      <trkpt lat="43.77045" lon="3.53167">
        <ele>495.22</ele>
        <time>2014-12-07T12:04:17Z</time>
      </trkpt>
      <trkpt lat="43.77045" lon="3.53167">
        <ele>493.77</ele>
        <time>2014-12-07T12:04:32Z</time>
      </trkpt>
      <trkpt lat="43.77044" lon="3.53166">
        <ele>493.77</ele>
        <time>2014-12-07T12:04:47Z</time>
      </trkpt>
      <trkpt lat="43.77045" lon="3.53166">
        <ele>494.74</ele>
        <time>2014-12-07T12:05:02Z</time>
      </trkpt>
      <trkpt lat="43.77044" lon="3.53167">
        <ele>495.22</ele>
        <time>2014-12-07T12:05:17Z</time>
      </trkpt>
      <trkpt lat="43.77043" lon="3.53167">
        <ele>494.74</ele>
        <time>2014-12-07T12:05:32Z</time>
      </trkpt>
      <trkpt lat="43.77042" lon="3.53166">
        <ele>495.22</ele>
        <time>2014-12-07T12:05:47Z</time>
      </trkpt>
      <trkpt lat="43.77042" lon="3.53168">
        <ele>494.26</ele>
        <time>2014-12-07T12:06:02Z</time>
      </trkpt>
      <trkpt lat="43.77042" lon="3.53168">
        <ele>494.26</ele>
        <time>2014-12-07T12:06:17Z</time>
      </trkpt>
      <trkpt lat="43.77043" lon="3.53168">
        <ele>493.77</ele>
        <time>2014-12-07T12:06:32Z</time>
      </trkpt>
      <trkpt lat="43.77044" lon="3.53169">
        <ele>492.33</ele>
        <time>2014-12-07T12:06:47Z</time>
      </trkpt>
      <trkpt lat="43.77043" lon="3.53169">
        <ele>495.22</ele>
        <time>2014-12-07T12:07:02Z</time>
      </trkpt>
      <trkpt lat="43.77043" lon="3.53168">
        <ele>494.74</ele>
        <time>2014-12-07T12:07:17Z</time>
      </trkpt>
      <trkpt lat="43.77043" lon="3.53169">
        <ele>495.7</ele>
        <time>2014-12-07T12:07:32Z</time>
      </trkpt>
      <trkpt lat="43.77043" lon="3.53169">
        <ele>493.77</ele>
        <time>2014-12-07T12:07:47Z</time>
      </trkpt>
      <trkpt lat="43.77044" lon="3.53169">
        <ele>493.29</ele>
        <time>2014-12-07T12:08:02Z</time>
      </trkpt>
      <trkpt lat="43.77043" lon="3.5317">
        <ele>494.26</ele>
        <time>2014-12-07T12:08:17Z</time>
      </trkpt>
      <trkpt lat="43.77043" lon="3.5317">
        <ele>496.18</ele>
        <time>2014-12-07T12:08:32Z</time>
      </trkpt>
      <trkpt lat="43.77043" lon="3.5317">
        <ele>494.74</ele>
        <time>2014-12-07T12:08:47Z</time>
      </trkpt>
      <trkpt lat="43.77043" lon="3.53169">
        <ele>492.81</ele>
        <time>2014-12-07T12:09:02Z</time>
      </trkpt>
      <trkpt lat="43.77043" lon="3.5317">
        <ele>492.33</ele>
        <time>2014-12-07T12:09:17Z</time>
      </trkpt>
      <trkpt lat="43.77043" lon="3.5317">
        <ele>494.26</ele>
        <time>2014-12-07T12:09:32Z</time>
      </trkpt>
      <trkpt lat="43.77043" lon="3.5317">
        <ele>494.26</ele>
        <time>2014-12-07T12:09:47Z</time>
      </trkpt>
      <trkpt lat="43.77043" lon="3.53171">
        <ele>493.29</ele>
        <time>2014-12-07T12:10:02Z</time>
      </trkpt>
      <trkpt lat="43.77044" lon="3.53173">
        <ele>492.81</ele>
        <time>2014-12-07T12:10:17Z</time>
      </trkpt>
      <trkpt lat="43.77043" lon="3.53171">
        <ele>493.29</ele>
        <time>2014-12-07T12:10:32Z</time>
      </trkpt>
      <trkpt lat="43.77042" lon="3.53172">
        <ele>494.74</ele>
        <time>2014-12-07T12:10:47Z</time>
      </trkpt>
      <trkpt lat="43.77042" lon="3.53171">
        <ele>496.18</ele>
        <time>2014-12-07T12:11:02Z</time>
      </trkpt>
      <trkpt lat="43.77043" lon="3.5317">
        <ele>496.18</ele>
        <time>2014-12-07T12:11:17Z</time>
      </trkpt>
      <trkpt lat="43.77043" lon="3.53171">
        <ele>494.74</ele>
        <time>2014-12-07T12:11:32Z</time>
      </trkpt>
      <trkpt lat="43.77043" lon="3.53172">
        <ele>494.74</ele>
        <time>2014-12-07T12:11:47Z</time>
      </trkpt>
      <trkpt lat="43.77043" lon="3.53173">
        <ele>494.26</ele>
        <time>2014-12-07T12:12:02Z</time>
      </trkpt>
      <trkpt lat="43.77043" lon="3.53172">
        <ele>494.26</ele>
        <time>2014-12-07T12:12:17Z</time>
      </trkpt>
      <trkpt lat="43.77044" lon="3.53172">
        <ele>495.22</ele>
        <time>2014-12-07T12:12:32Z</time>
      </trkpt>
      <trkpt lat="43.77044" lon="3.53172">
        <ele>496.18</ele>
        <time>2014-12-07T12:12:47Z</time>
      </trkpt>
      <trkpt lat="43.77043" lon="3.53172">
        <ele>492.81</ele>
        <time>2014-12-07T12:13:02Z</time>
      </trkpt>
      <trkpt lat="43.77044" lon="3.53172">
        <ele>494.26</ele>
        <time>2014-12-07T12:13:17Z</time>
      </trkpt>
      <trkpt lat="43.77043" lon="3.53172">
        <ele>493.29</ele>
        <time>2014-12-07T12:13:32Z</time>
      </trkpt>
      <trkpt lat="43.77043" lon="3.5317">
        <ele>493.29</ele>
        <time>2014-12-07T12:13:47Z</time>
      </trkpt>
      <trkpt lat="43.77043" lon="3.5317">
        <ele>493.29</ele>
        <time>2014-12-07T12:14:02Z</time>
      </trkpt>
      <trkpt lat="43.77043" lon="3.53171">
        <ele>494.74</ele>
        <time>2014-12-07T12:14:17Z</time>
      </trkpt>
      <trkpt lat="43.77043" lon="3.53171">
        <ele>494.26</ele>
        <time>2014-12-07T12:14:32Z</time>
      </trkpt>
      <trkpt lat="43.77043" lon="3.53171">
        <ele>492.33</ele>
        <time>2014-12-07T12:14:47Z</time>
      </trkpt>
      <trkpt lat="43.77043" lon="3.53171">
        <ele>493.77</ele>
        <time>2014-12-07T12:15:02Z</time>
      </trkpt>
      <trkpt lat="43.77044" lon="3.53171">
        <ele>494.74</ele>
        <time>2014-12-07T12:15:17Z</time>
      </trkpt>
      <trkpt lat="43.77044" lon="3.53172">
        <ele>494.74</ele>
        <time>2014-12-07T12:15:32Z</time>
      </trkpt>
      <trkpt lat="43.77044" lon="3.53172">
        <ele>494.26</ele>
        <time>2014-12-07T12:15:47Z</time>
      </trkpt>
      <trkpt lat="43.77044" lon="3.53173">
        <ele>495.7</ele>
        <time>2014-12-07T12:16:02Z</time>
      </trkpt>
      <trkpt lat="43.77043" lon="3.53173">
        <ele>495.7</ele>
        <time>2014-12-07T12:16:17Z</time>
      </trkpt>
      <trkpt lat="43.77042" lon="3.53172">
        <ele>495.22</ele>
        <time>2014-12-07T12:16:32Z</time>
      </trkpt>
      <trkpt lat="43.77042" lon="3.53172">
        <ele>493.77</ele>
        <time>2014-12-07T12:16:47Z</time>
      </trkpt>
      <trkpt lat="43.77042" lon="3.53172">
        <ele>493.77</ele>
        <time>2014-12-07T12:17:02Z</time>
      </trkpt>
      <trkpt lat="43.77043" lon="3.53172">
        <ele>493.77</ele>
        <time>2014-12-07T12:17:17Z</time>
      </trkpt>
      <trkpt lat="43.77044" lon="3.53172">
        <ele>496.18</ele>
        <time>2014-12-07T12:17:32Z</time>
      </trkpt>
      <trkpt lat="43.77044" lon="3.53173">
        <ele>494.26</ele>
        <time>2014-12-07T12:17:47Z</time>
      </trkpt>
      <trkpt lat="43.77044" lon="3.53172">
        <ele>492.81</ele>
        <time>2014-12-07T12:18:02Z</time>
      </trkpt>
      <trkpt lat="43.77044" lon="3.53172">
        <ele>493.77</ele>
        <time>2014-12-07T12:18:17Z</time>
      </trkpt>
      <trkpt lat="43.77044" lon="3.53172">
        <ele>494.74</ele>
        <time>2014-12-07T12:18:32Z</time>
      </trkpt>
      <trkpt lat="43.77043" lon="3.53171">
        <ele>495.22</ele>
        <time>2014-12-07T12:18:47Z</time>
      </trkpt>
      <trkpt lat="43.77042" lon="3.53171">
        <ele>494.74</ele>
        <time>2014-12-07T12:19:02Z</time>
      </trkpt>
      <trkpt lat="43.77041" lon="3.53171">
        <ele>494.26</ele>
        <time>2014-12-07T12:19:17Z</time>
      </trkpt>
      <trkpt lat="43.77043" lon="3.53173">
        <ele>494.26</ele>
        <time>2014-12-07T12:19:32Z</time>
      </trkpt>
      <trkpt lat="43.77043" lon="3.53172">
        <ele>494.74</ele>
        <time>2014-12-07T12:19:47Z</time>
      </trkpt>
      <trkpt lat="43.77042" lon="3.5317">
        <ele>493.77</ele>
        <time>2014-12-07T12:20:02Z</time>
      </trkpt>
      <trkpt lat="43.77042" lon="3.53168">
        <ele>493.77</ele>
        <time>2014-12-07T12:20:17Z</time>
      </trkpt>
      <trkpt lat="43.77043" lon="3.5317">
        <ele>493.77</ele>
        <time>2014-12-07T12:20:32Z</time>
      </trkpt>
      <trkpt lat="43.77044" lon="3.53172">
        <ele>493.77</ele>
        <time>2014-12-07T12:20:47Z</time>
      </trkpt>
      <trkpt lat="43.77043" lon="3.53172">
        <ele>494.74</ele>
        <time>2014-12-07T12:21:02Z</time>
      </trkpt>
      <trkpt lat="43.77043" lon="3.53172">
        <ele>494.26</ele>
        <time>2014-12-07T12:21:17Z</time>
      </trkpt>
      <trkpt lat="43.77043" lon="3.53173">
        <ele>493.29</ele>
        <time>2014-12-07T12:21:32Z</time>
      </trkpt>
      <trkpt lat="43.77043" lon="3.53173">
        <ele>493.77</ele>
        <time>2014-12-07T12:21:47Z</time>
      </trkpt>
      <trkpt lat="43.77042" lon="3.53173">
        <ele>494.74</ele>
        <time>2014-12-07T12:22:02Z</time>
      </trkpt>
      <trkpt lat="43.77042" lon="3.53172">
        <ele>494.26</ele>
        <time>2014-12-07T12:22:17Z</time>
      </trkpt>
      <trkpt lat="43.77041" lon="3.53171">
        <ele>493.29</ele>
        <time>2014-12-07T12:22:32Z</time>
      </trkpt>
      <trkpt lat="43.77043" lon="3.5317">
        <ele>492.81</ele>
        <time>2014-12-07T12:22:47Z</time>
      </trkpt>
      <trkpt lat="43.77044" lon="3.5317">
        <ele>495.22</ele>
        <time>2014-12-07T12:23:02Z</time>
      </trkpt>
      <trkpt lat="43.77043" lon="3.5317">
        <ele>494.26</ele>
        <time>2014-12-07T12:23:17Z</time>
      </trkpt>
      <trkpt lat="43.77044" lon="3.5317">
        <ele>492.81</ele>
        <time>2014-12-07T12:23:32Z</time>
      </trkpt>
      <trkpt lat="43.77043" lon="3.5317">
        <ele>494.26</ele>
        <time>2014-12-07T12:23:47Z</time>
      </trkpt>
      <trkpt lat="43.77042" lon="3.53169">
        <ele>494.26</ele>
        <time>2014-12-07T12:24:02Z</time>
      </trkpt>
      <trkpt lat="43.77042" lon="3.53169">
        <ele>496.18</ele>
        <time>2014-12-07T12:24:17Z</time>
      </trkpt>
      <trkpt lat="43.77042" lon="3.53169">
        <ele>493.29</ele>
        <time>2014-12-07T12:24:32Z</time>
      </trkpt>
      <trkpt lat="43.77043" lon="3.53171">
        <ele>494.74</ele>
        <time>2014-12-07T12:24:47Z</time>
      </trkpt>
      <trkpt lat="43.77041" lon="3.5317">
        <ele>495.22</ele>
        <time>2014-12-07T12:25:02Z</time>
      </trkpt>
      <trkpt lat="43.77042" lon="3.5317">
        <ele>494.26</ele>
        <time>2014-12-07T12:25:17Z</time>
      </trkpt>
      <trkpt lat="43.77041" lon="3.5317">
        <ele>495.7</ele>
        <time>2014-12-07T12:25:32Z</time>
      </trkpt>
      <trkpt lat="43.77042" lon="3.5317">
        <ele>495.7</ele>
        <time>2014-12-07T12:25:47Z</time>
      </trkpt>
      <trkpt lat="43.77042" lon="3.5317">
        <ele>495.22</ele>
        <time>2014-12-07T12:26:02Z</time>
      </trkpt>
      <trkpt lat="43.77044" lon="3.53171">
        <ele>495.22</ele>
        <time>2014-12-07T12:26:17Z</time>
      </trkpt>
      <trkpt lat="43.77044" lon="3.53172">
        <ele>496.18</ele>
        <time>2014-12-07T12:26:32Z</time>
      </trkpt>
      <trkpt lat="43.77044" lon="3.53172">
        <ele>495.22</ele>
        <time>2014-12-07T12:26:47Z</time>
      </trkpt>
      <trkpt lat="43.77043" lon="3.53173">
        <ele>494.74</ele>
        <time>2014-12-07T12:27:02Z</time>
      </trkpt>
      <trkpt lat="43.77043" lon="3.53171">
        <ele>493.77</ele>
        <time>2014-12-07T12:27:17Z</time>
      </trkpt>
      <trkpt lat="43.77042" lon="3.53171">
        <ele>494.74</ele>
        <time>2014-12-07T12:27:32Z</time>
      </trkpt>
      <trkpt lat="43.77042" lon="3.53171">
        <ele>494.26</ele>
        <time>2014-12-07T12:27:46Z</time>
      </trkpt>
      <trkpt lat="43.77042" lon="3.53171">
        <ele>495.7</ele>
        <time>2014-12-07T12:28:02Z</time>
      </trkpt>
      <trkpt lat="43.7704" lon="3.53168">
        <ele>495.7</ele>
        <time>2014-12-07T12:28:16Z</time>
      </trkpt>
      <trkpt lat="43.7704" lon="3.53165">
        <ele>494.74</ele>
        <time>2014-12-07T12:28:32Z</time>
      </trkpt>
      <trkpt lat="43.7704" lon="3.53165">
        <ele>493.77</ele>
        <time>2014-12-07T12:28:47Z</time>
      </trkpt>
      <trkpt lat="43.7704" lon="3.53165">
        <ele>496.18</ele>
        <time>2014-12-07T12:29:02Z</time>
      </trkpt>
      <trkpt lat="43.7704" lon="3.53166">
        <ele>495.7</ele>
        <time>2014-12-07T12:29:17Z</time>
      </trkpt>
      <trkpt lat="43.7704" lon="3.53165">
        <ele>493.77</ele>
        <time>2014-12-07T12:29:32Z</time>
      </trkpt>
      <trkpt lat="43.7704" lon="3.53164">
        <ele>494.26</ele>
        <time>2014-12-07T12:29:47Z</time>
      </trkpt>
      <trkpt lat="43.77039" lon="3.53166">
        <ele>495.22</ele>
        <time>2014-12-07T12:30:02Z</time>
      </trkpt>
      <trkpt lat="43.77038" lon="3.53167">
        <ele>494.26</ele>
        <time>2014-12-07T12:30:17Z</time>
      </trkpt>
      <trkpt lat="43.77039" lon="3.53167">
        <ele>495.22</ele>
        <time>2014-12-07T12:30:32Z</time>
      </trkpt>
      <trkpt lat="43.77038" lon="3.53167">
        <ele>495.22</ele>
        <time>2014-12-07T12:30:47Z</time>
      </trkpt>
      <trkpt lat="43.77038" lon="3.53169">
        <ele>495.7</ele>
        <time>2014-12-07T12:31:02Z</time>
      </trkpt>
      <trkpt lat="43.77039" lon="3.53172">
        <ele>496.66</ele>
        <time>2014-12-07T12:31:17Z</time>
      </trkpt>
      <trkpt lat="43.77041" lon="3.53161">
        <ele>496.66</ele>
        <time>2014-12-07T12:31:32Z</time>
      </trkpt>
      <trkpt lat="43.77034" lon="3.53145">
        <ele>495.7</ele>
        <time>2014-12-07T12:31:47Z</time>
      </trkpt>
      <trkpt lat="43.77028" lon="3.53126">
        <ele>494.74</ele>
        <time>2014-12-07T12:32:02Z</time>
      </trkpt>
      <trkpt lat="43.77021" lon="3.53111">
        <ele>494.26</ele>
        <time>2014-12-07T12:32:17Z</time>
      </trkpt>
      <trkpt lat="43.77006" lon="3.53097">
        <ele>495.22</ele>
        <time>2014-12-07T12:32:32Z</time>
      </trkpt>
      <trkpt lat="43.7699" lon="3.53084">
        <ele>495.22</ele>
        <time>2014-12-07T12:32:47Z</time>
      </trkpt>
      <trkpt lat="43.76976" lon="3.53072">
        <ele>496.18</ele>
        <time>2014-12-07T12:33:02Z</time>
      </trkpt>
      <trkpt lat="43.76965" lon="3.53073">
        <ele>495.7</ele>
        <time>2014-12-07T12:33:17Z</time>
      </trkpt>
      <trkpt lat="43.7696" lon="3.53097">
        <ele>493.77</ele>
        <time>2014-12-07T12:33:32Z</time>
      </trkpt>
      <trkpt lat="43.76947" lon="3.53117">
        <ele>491.37</ele>
        <time>2014-12-07T12:33:47Z</time>
      </trkpt>
      <trkpt lat="43.76927" lon="3.53117">
        <ele>491.37</ele>
        <time>2014-12-07T12:34:02Z</time>
      </trkpt>
      <trkpt lat="43.7691" lon="3.5312">
        <ele>489.93</ele>
        <time>2014-12-07T12:34:17Z</time>
      </trkpt>
      <trkpt lat="43.76895" lon="3.53136">
        <ele>489.45</ele>
        <time>2014-12-07T12:34:32Z</time>
      </trkpt>
      <trkpt lat="43.76875" lon="3.53146">
        <ele>487.53</ele>
        <time>2014-12-07T12:34:47Z</time>
      </trkpt>
      <trkpt lat="43.76861" lon="3.53159">
        <ele>488.01</ele>
        <time>2014-12-07T12:35:02Z</time>
      </trkpt>
      <trkpt lat="43.76844" lon="3.53164">
        <ele>488.49</ele>
        <time>2014-12-07T12:35:17Z</time>
      </trkpt>
      <trkpt lat="43.76827" lon="3.53171">
        <ele>487.05</ele>
        <time>2014-12-07T12:35:32Z</time>
      </trkpt>
      <trkpt lat="43.76814" lon="3.5319">
        <ele>484.64</ele>
        <time>2014-12-07T12:35:47Z</time>
      </trkpt>
      <trkpt lat="43.76808" lon="3.53214">
        <ele>484.16</ele>
        <time>2014-12-07T12:36:02Z</time>
      </trkpt>
      <trkpt lat="43.76788" lon="3.53214">
        <ele>485.12</ele>
        <time>2014-12-07T12:36:17Z</time>
      </trkpt>
      <trkpt lat="43.7677" lon="3.53212">
        <ele>484.64</ele>
        <time>2014-12-07T12:36:32Z</time>
      </trkpt>
      <trkpt lat="43.76755" lon="3.532">
        <ele>483.68</ele>
        <time>2014-12-07T12:36:47Z</time>
      </trkpt>
      <trkpt lat="43.76736" lon="3.532">
        <ele>483.2</ele>
        <time>2014-12-07T12:37:02Z</time>
      </trkpt>
      <trkpt lat="43.76719" lon="3.53203">
        <ele>482.24</ele>
        <time>2014-12-07T12:37:17Z</time>
      </trkpt>
      <trkpt lat="43.76702" lon="3.53222">
        <ele>482.24</ele>
        <time>2014-12-07T12:37:32Z</time>
      </trkpt>
      <trkpt lat="43.76689" lon="3.53238">
        <ele>482.24</ele>
        <time>2014-12-07T12:37:47Z</time>
      </trkpt>
      <trkpt lat="43.76674" lon="3.53254">
        <ele>479.84</ele>
        <time>2014-12-07T12:38:02Z</time>
      </trkpt>
      <trkpt lat="43.76654" lon="3.53267">
        <ele>479.35</ele>
        <time>2014-12-07T12:38:17Z</time>
      </trkpt>
      <trkpt lat="43.76638" lon="3.53284">
        <ele>477.91</ele>
        <time>2014-12-07T12:38:32Z</time>
      </trkpt>
      <trkpt lat="43.76622" lon="3.53297">
        <ele>476.47</ele>
        <time>2014-12-07T12:38:47Z</time>
      </trkpt>
      <trkpt lat="43.76609" lon="3.53312">
        <ele>475.99</ele>
        <time>2014-12-07T12:39:02Z</time>
      </trkpt>
      <trkpt lat="43.76593" lon="3.53328">
        <ele>476.47</ele>
        <time>2014-12-07T12:39:17Z</time>
      </trkpt>
      <trkpt lat="43.76577" lon="3.53339">
        <ele>475.51</ele>
        <time>2014-12-07T12:39:32Z</time>
      </trkpt>
      <trkpt lat="43.7656" lon="3.53349">
        <ele>475.51</ele>
        <time>2014-12-07T12:39:47Z</time>
      </trkpt>
      <trkpt lat="43.76545" lon="3.53355">
        <ele>475.51</ele>
        <time>2014-12-07T12:40:02Z</time>
      </trkpt>
      <trkpt lat="43.76527" lon="3.53365">
        <ele>475.03</ele>
        <time>2014-12-07T12:40:17Z</time>
      </trkpt>
      <trkpt lat="43.7651" lon="3.5338">
        <ele>474.55</ele>
        <time>2014-12-07T12:40:32Z</time>
      </trkpt>
      <trkpt lat="43.76505" lon="3.53381">
        <ele>474.55</ele>
        <time>2014-12-07T12:40:47Z</time>
      </trkpt>
      <trkpt lat="43.76502" lon="3.53383">
        <ele>475.03</ele>
        <time>2014-12-07T12:41:02Z</time>
      </trkpt>
      <trkpt lat="43.76499" lon="3.53384">
        <ele>474.07</ele>
        <time>2014-12-07T12:41:17Z</time>
      </trkpt>
      <trkpt lat="43.76499" lon="3.53382">
        <ele>474.07</ele>
        <time>2014-12-07T12:41:32Z</time>
      </trkpt>
      <trkpt lat="43.76486" lon="3.53383">
        <ele>472.63</ele>
        <time>2014-12-07T12:41:47Z</time>
      </trkpt>
      <trkpt lat="43.76467" lon="3.53398">
        <ele>472.63</ele>
        <time>2014-12-07T12:42:02Z</time>
      </trkpt>
      <trkpt lat="43.7646" lon="3.53421">
        <ele>472.63</ele>
        <time>2014-12-07T12:42:17Z</time>
      </trkpt>
      <trkpt lat="43.76452" lon="3.53443">
        <ele>471.66</ele>
        <time>2014-12-07T12:42:32Z</time>
      </trkpt>
      <trkpt lat="43.76442" lon="3.53469">
        <ele>470.22</ele>
        <time>2014-12-07T12:42:47Z</time>
      </trkpt>
      <trkpt lat="43.76429" lon="3.53489">
        <ele>470.7</ele>
        <time>2014-12-07T12:43:02Z</time>
      </trkpt>
      <trkpt lat="43.76421" lon="3.535">
        <ele>470.22</ele>
        <time>2014-12-07T12:43:17Z</time>
      </trkpt>
      <trkpt lat="43.76412" lon="3.53504">
        <ele>469.26</ele>
        <time>2014-12-07T12:43:32Z</time>
      </trkpt>
      <trkpt lat="43.76394" lon="3.53508">
        <ele>470.7</ele>
        <time>2014-12-07T12:43:47Z</time>
      </trkpt>
      <trkpt lat="43.76369" lon="3.53509">
        <ele>470.7</ele>
        <time>2014-12-07T12:44:02Z</time>
      </trkpt>
      <trkpt lat="43.76357" lon="3.53514">
        <ele>473.11</ele>
        <time>2014-12-07T12:44:17Z</time>
      </trkpt>
      <trkpt lat="43.76334" lon="3.53519">
        <ele>473.59</ele>
        <time>2014-12-07T12:44:32Z</time>
      </trkpt>
      <trkpt lat="43.76314" lon="3.5353">
        <ele>476.47</ele>
        <time>2014-12-07T12:44:47Z</time>
      </trkpt>
      <trkpt lat="43.76298" lon="3.53551">
        <ele>478.39</ele>
        <time>2014-12-07T12:45:02Z</time>
      </trkpt>
      <trkpt lat="43.76282" lon="3.53569">
        <ele>480.8</ele>
        <time>2014-12-07T12:45:17Z</time>
      </trkpt>
      <trkpt lat="43.76264" lon="3.53569">
        <ele>483.68</ele>
        <time>2014-12-07T12:45:32Z</time>
      </trkpt>
      <trkpt lat="43.76272" lon="3.53548">
        <ele>485.6</ele>
        <time>2014-12-07T12:45:47Z</time>
      </trkpt>
      <trkpt lat="43.76282" lon="3.53529">
        <ele>487.05</ele>
        <time>2014-12-07T12:46:02Z</time>
      </trkpt>
      <trkpt lat="43.76277" lon="3.535">
        <ele>487.53</ele>
        <time>2014-12-07T12:46:17Z</time>
      </trkpt>
      <trkpt lat="43.7627" lon="3.53474">
        <ele>490.89</ele>
        <time>2014-12-07T12:46:32Z</time>
      </trkpt>
      <trkpt lat="43.76266" lon="3.53453">
        <ele>491.85</ele>
        <time>2014-12-07T12:46:47Z</time>
      </trkpt>
      <trkpt lat="43.76257" lon="3.53431">
        <ele>495.22</ele>
        <time>2014-12-07T12:47:02Z</time>
      </trkpt>
      <trkpt lat="43.76242" lon="3.53423">
        <ele>498.58</ele>
        <time>2014-12-07T12:47:17Z</time>
      </trkpt>
      <trkpt lat="43.76241" lon="3.53424">
        <ele>497.14</ele>
        <time>2014-12-07T12:47:32Z</time>
      </trkpt>
      <trkpt lat="43.76239" lon="3.53423">
        <ele>497.62</ele>
        <time>2014-12-07T12:47:47Z</time>
      </trkpt>
      <trkpt lat="43.76244" lon="3.53425">
        <ele>496.66</ele>
        <time>2014-12-07T12:48:02Z</time>
      </trkpt>
      <trkpt lat="43.76256" lon="3.53433">
        <ele>495.7</ele>
        <time>2014-12-07T12:48:17Z</time>
      </trkpt>
      <trkpt lat="43.76265" lon="3.53456">
        <ele>492.81</ele>
        <time>2014-12-07T12:48:32Z</time>
      </trkpt>
      <trkpt lat="43.76269" lon="3.53477">
        <ele>490.89</ele>
        <time>2014-12-07T12:48:47Z</time>
      </trkpt>
      <trkpt lat="43.76274" lon="3.53504">
        <ele>489.93</ele>
        <time>2014-12-07T12:49:02Z</time>
      </trkpt>
      <trkpt lat="43.76279" lon="3.5353">
        <ele>488.97</ele>
        <time>2014-12-07T12:49:17Z</time>
      </trkpt>
      <trkpt lat="43.7627" lon="3.53555">
        <ele>487.05</ele>
        <time>2014-12-07T12:49:32Z</time>
      </trkpt>
      <trkpt lat="43.76257" lon="3.53568">
        <ele>485.6</ele>
        <time>2014-12-07T12:49:47Z</time>
      </trkpt>
      <trkpt lat="43.76256" lon="3.5358">
        <ele>486.08</ele>
        <time>2014-12-07T12:50:02Z</time>
      </trkpt>
      <trkpt lat="43.76256" lon="3.53577">
        <ele>487.05</ele>
        <time>2014-12-07T12:50:17Z</time>
      </trkpt>
      <trkpt lat="43.76249" lon="3.53573">
        <ele>487.53</ele>
        <time>2014-12-07T12:50:32Z</time>
      </trkpt>
      <trkpt lat="43.76245" lon="3.5355">
        <ele>489.45</ele>
        <time>2014-12-07T12:50:47Z</time>
      </trkpt>
      <trkpt lat="43.76237" lon="3.53536">
        <ele>492.33</ele>
        <time>2014-12-07T12:51:02Z</time>
      </trkpt>
      <trkpt lat="43.76224" lon="3.53527">
        <ele>493.77</ele>
        <time>2014-12-07T12:51:17Z</time>
      </trkpt>
      <trkpt lat="43.76208" lon="3.5353">
        <ele>494.26</ele>
        <time>2014-12-07T12:51:32Z</time>
      </trkpt>
      <trkpt lat="43.76199" lon="3.53527">
        <ele>497.62</ele>
        <time>2014-12-07T12:51:47Z</time>
      </trkpt>
      <trkpt lat="43.76185" lon="3.53516">
        <ele>498.58</ele>
        <time>2014-12-07T12:52:02Z</time>
      </trkpt>
      <trkpt lat="43.76169" lon="3.53504">
        <ele>499.06</ele>
        <time>2014-12-07T12:52:17Z</time>
      </trkpt>
      <trkpt lat="43.76157" lon="3.53495">
        <ele>499.06</ele>
        <time>2014-12-07T12:52:32Z</time>
      </trkpt>
      <trkpt lat="43.76141" lon="3.53495">
        <ele>501.46</ele>
        <time>2014-12-07T12:52:47Z</time>
      </trkpt>
      <trkpt lat="43.76124" lon="3.53508">
        <ele>503.39</ele>
        <time>2014-12-07T12:53:02Z</time>
      </trkpt>
      <trkpt lat="43.76112" lon="3.53518">
        <ele>505.31</ele>
        <time>2014-12-07T12:53:17Z</time>
      </trkpt>
      <trkpt lat="43.761" lon="3.53529">
        <ele>507.71</ele>
        <time>2014-12-07T12:53:32Z</time>
      </trkpt>
      <trkpt lat="43.76086" lon="3.53539">
        <ele>509.16</ele>
        <time>2014-12-07T12:53:47Z</time>
      </trkpt>
      <trkpt lat="43.76073" lon="3.53546">
        <ele>511.56</ele>
        <time>2014-12-07T12:54:02Z</time>
      </trkpt>
      <trkpt lat="43.76063" lon="3.53556">
        <ele>514.44</ele>
        <time>2014-12-07T12:54:17Z</time>
      </trkpt>
      <trkpt lat="43.76052" lon="3.53559">
        <ele>516.85</ele>
        <time>2014-12-07T12:54:32Z</time>
      </trkpt>
      <trkpt lat="43.76042" lon="3.53555">
        <ele>519.73</ele>
        <time>2014-12-07T12:54:47Z</time>
      </trkpt>
      <trkpt lat="43.76038" lon="3.53574">
        <ele>521.65</ele>
        <time>2014-12-07T12:55:02Z</time>
      </trkpt>
      <trkpt lat="43.76026" lon="3.53584">
        <ele>524.54</ele>
        <time>2014-12-07T12:55:17Z</time>
      </trkpt>
      <trkpt lat="43.76023" lon="3.53588">
        <ele>524.06</ele>
        <time>2014-12-07T12:55:32Z</time>
      </trkpt>
      <trkpt lat="43.76022" lon="3.5359">
        <ele>524.54</ele>
        <time>2014-12-07T12:55:47Z</time>
      </trkpt>
      <trkpt lat="43.76022" lon="3.53592">
        <ele>524.06</ele>
        <time>2014-12-07T12:56:02Z</time>
      </trkpt>
      <trkpt lat="43.76011" lon="3.53593">
        <ele>522.61</ele>
        <time>2014-12-07T12:56:17Z</time>
      </trkpt>
      <trkpt lat="43.75997" lon="3.53604">
        <ele>522.61</ele>
        <time>2014-12-07T12:56:32Z</time>
      </trkpt>
      <trkpt lat="43.7598" lon="3.5362">
        <ele>518.77</ele>
        <time>2014-12-07T12:56:47Z</time>
      </trkpt>
      <trkpt lat="43.75966" lon="3.53637">
        <ele>517.81</ele>
        <time>2014-12-07T12:57:02Z</time>
      </trkpt>
      <trkpt lat="43.75951" lon="3.53652">
        <ele>515.88</ele>
        <time>2014-12-07T12:57:17Z</time>
      </trkpt>
      <trkpt lat="43.75934" lon="3.53661">
        <ele>513</ele>
        <time>2014-12-07T12:57:32Z</time>
      </trkpt>
      <trkpt lat="43.75916" lon="3.53683">
        <ele>512.04</ele>
        <time>2014-12-07T12:57:47Z</time>
      </trkpt>
      <trkpt lat="43.75902" lon="3.53691">
        <ele>512.52</ele>
        <time>2014-12-07T12:58:02Z</time>
      </trkpt>
      <trkpt lat="43.75879" lon="3.53691">
        <ele>510.12</ele>
        <time>2014-12-07T12:58:17Z</time>
      </trkpt>
      <trkpt lat="43.75868" lon="3.53675">
        <ele>509.64</ele>
        <time>2014-12-07T12:58:32Z</time>
      </trkpt>
      <trkpt lat="43.75861" lon="3.53654">
        <ele>507.23</ele>
        <time>2014-12-07T12:58:47Z</time>
      </trkpt>
      <trkpt lat="43.75867" lon="3.53634">
        <ele>513</ele>
        <time>2014-12-07T12:59:02Z</time>
      </trkpt>
      <trkpt lat="43.75872" lon="3.5361">
        <ele>513</ele>
        <time>2014-12-07T12:59:17Z</time>
      </trkpt>
      <trkpt lat="43.75876" lon="3.53589">
        <ele>513.48</ele>
        <time>2014-12-07T12:59:32Z</time>
      </trkpt>
      <trkpt lat="43.75887" lon="3.53572">
        <ele>514.44</ele>
        <time>2014-12-07T12:59:47Z</time>
      </trkpt>
      <trkpt lat="43.75898" lon="3.53557">
        <ele>516.85</ele>
        <time>2014-12-07T13:00:02Z</time>
      </trkpt>
      <trkpt lat="43.75908" lon="3.53533">
        <ele>520.21</ele>
        <time>2014-12-07T13:00:17Z</time>
      </trkpt>
      <trkpt lat="43.75901" lon="3.5351">
        <ele>519.25</ele>
        <time>2014-12-07T13:00:32Z</time>
      </trkpt>
      <trkpt lat="43.75883" lon="3.53509">
        <ele>516.85</ele>
        <time>2014-12-07T13:00:47Z</time>
      </trkpt>
      <trkpt lat="43.75861" lon="3.53509">
        <ele>516.37</ele>
        <time>2014-12-07T13:01:02Z</time>
      </trkpt>
      <trkpt lat="43.75844" lon="3.53501">
        <ele>514.44</ele>
        <time>2014-12-07T13:01:17Z</time>
      </trkpt>
      <trkpt lat="43.75842" lon="3.53473">
        <ele>514.92</ele>
        <time>2014-12-07T13:01:32Z</time>
      </trkpt>
      <trkpt lat="43.75837" lon="3.53447">
        <ele>517.33</ele>
        <time>2014-12-07T13:01:47Z</time>
      </trkpt>
      <trkpt lat="43.75822" lon="3.53427">
        <ele>516.37</ele>
        <time>2014-12-07T13:02:02Z</time>
      </trkpt>
      <trkpt lat="43.7581" lon="3.53412">
        <ele>515.4</ele>
        <time>2014-12-07T13:02:17Z</time>
      </trkpt>
      <trkpt lat="43.75796" lon="3.53385">
        <ele>515.88</ele>
        <time>2014-12-07T13:02:32Z</time>
      </trkpt>
      <trkpt lat="43.75791" lon="3.53363">
        <ele>515.4</ele>
        <time>2014-12-07T13:02:47Z</time>
      </trkpt>
      <trkpt lat="43.75781" lon="3.5334">
        <ele>515.4</ele>
        <time>2014-12-07T13:03:02Z</time>
      </trkpt>
      <trkpt lat="43.75756" lon="3.5334">
        <ele>512.52</ele>
        <time>2014-12-07T13:03:17Z</time>
      </trkpt>
      <trkpt lat="43.75738" lon="3.53361">
        <ele>513</ele>
        <time>2014-12-07T13:03:32Z</time>
      </trkpt>
      <trkpt lat="43.75732" lon="3.53377">
        <ele>509.16</ele>
        <time>2014-12-07T13:03:47Z</time>
      </trkpt>
      <trkpt lat="43.75724" lon="3.53408">
        <ele>507.71</ele>
        <time>2014-12-07T13:04:02Z</time>
      </trkpt>
      <trkpt lat="43.75714" lon="3.53426">
        <ele>508.19</ele>
        <time>2014-12-07T13:04:17Z</time>
      </trkpt>
      <trkpt lat="43.75691" lon="3.53428">
        <ele>507.71</ele>
        <time>2014-12-07T13:04:32Z</time>
      </trkpt>
      <trkpt lat="43.75677" lon="3.53413">
        <ele>507.71</ele>
        <time>2014-12-07T13:04:47Z</time>
      </trkpt>
      <trkpt lat="43.75662" lon="3.53402">
        <ele>507.71</ele>
        <time>2014-12-07T13:05:02Z</time>
      </trkpt>
      <trkpt lat="43.75657" lon="3.53381">
        <ele>511.08</ele>
        <time>2014-12-07T13:05:17Z</time>
      </trkpt>
      <trkpt lat="43.75664" lon="3.53356">
        <ele>509.64</ele>
        <time>2014-12-07T13:05:32Z</time>
      </trkpt>
      <trkpt lat="43.75667" lon="3.53333">
        <ele>510.6</ele>
        <time>2014-12-07T13:05:47Z</time>
      </trkpt>
      <trkpt lat="43.7566" lon="3.53309">
        <ele>511.56</ele>
        <time>2014-12-07T13:06:02Z</time>
      </trkpt>
      <trkpt lat="43.75657" lon="3.53312">
        <ele>512.52</ele>
        <time>2014-12-07T13:06:17Z</time>
      </trkpt>
      <trkpt lat="43.75656" lon="3.5331">
        <ele>511.08</ele>
        <time>2014-12-07T13:06:32Z</time>
      </trkpt>
      <trkpt lat="43.75656" lon="3.53311">
        <ele>512.52</ele>
        <time>2014-12-07T13:06:47Z</time>
      </trkpt>
      <trkpt lat="43.75642" lon="3.53315">
        <ele>509.64</ele>
        <time>2014-12-07T13:07:02Z</time>
      </trkpt>
      <trkpt lat="43.75628" lon="3.53326">
        <ele>511.56</ele>
        <time>2014-12-07T13:07:17Z</time>
      </trkpt>
      <trkpt lat="43.75609" lon="3.5334">
        <ele>509.16</ele>
        <time>2014-12-07T13:07:32Z</time>
      </trkpt>
      <trkpt lat="43.75592" lon="3.5335">
        <ele>509.16</ele>
        <time>2014-12-07T13:07:47Z</time>
      </trkpt>
      <trkpt lat="43.75578" lon="3.53367">
        <ele>507.23</ele>
        <time>2014-12-07T13:08:02Z</time>
      </trkpt>
      <trkpt lat="43.75566" lon="3.53385">
        <ele>505.79</ele>
        <time>2014-12-07T13:08:17Z</time>
      </trkpt>
      <trkpt lat="43.7556" lon="3.53413">
        <ele>505.31</ele>
        <time>2014-12-07T13:08:32Z</time>
      </trkpt>
      <trkpt lat="43.75555" lon="3.53434">
        <ele>506.75</ele>
        <time>2014-12-07T13:08:47Z</time>
      </trkpt>
      <trkpt lat="43.75555" lon="3.53463">
        <ele>503.87</ele>
        <time>2014-12-07T13:09:02Z</time>
      </trkpt>
      <trkpt lat="43.7554" lon="3.53483">
        <ele>502.43</ele>
        <time>2014-12-07T13:09:17Z</time>
      </trkpt>
      <trkpt lat="43.75528" lon="3.53472">
        <ele>500.5</ele>
        <time>2014-12-07T13:09:32Z</time>
      </trkpt>
      <trkpt lat="43.75515" lon="3.53451">
        <ele>500.02</ele>
        <time>2014-12-07T13:09:47Z</time>
      </trkpt>
      <trkpt lat="43.755" lon="3.53432">
        <ele>498.58</ele>
        <time>2014-12-07T13:10:02Z</time>
      </trkpt>
      <trkpt lat="43.75495" lon="3.53412">
        <ele>500.98</ele>
        <time>2014-12-07T13:10:17Z</time>
      </trkpt>
      <trkpt lat="43.75491" lon="3.53391">
        <ele>501.95</ele>
        <time>2014-12-07T13:10:32Z</time>
      </trkpt>
      <trkpt lat="43.75481" lon="3.53362">
        <ele>501.95</ele>
        <time>2014-12-07T13:10:47Z</time>
      </trkpt>
      <trkpt lat="43.75463" lon="3.53338">
        <ele>500.02</ele>
        <time>2014-12-07T13:11:02Z</time>
      </trkpt>
      <trkpt lat="43.75455" lon="3.53328">
        <ele>497.62</ele>
        <time>2014-12-07T13:11:17Z</time>
      </trkpt>
      <trkpt lat="43.75454" lon="3.53301">
        <ele>499.06</ele>
        <time>2014-12-07T13:11:32Z</time>
      </trkpt>
      <trkpt lat="43.75448" lon="3.53279">
        <ele>494.74</ele>
        <time>2014-12-07T13:11:47Z</time>
      </trkpt>
      <trkpt lat="43.75427" lon="3.53252">
        <ele>493.77</ele>
        <time>2014-12-07T13:12:02Z</time>
      </trkpt>
      <trkpt lat="43.75411" lon="3.53265">
        <ele>492.33</ele>
        <time>2014-12-07T13:12:17Z</time>
      </trkpt>
      <trkpt lat="43.75402" lon="3.53286">
        <ele>491.37</ele>
        <time>2014-12-07T13:12:32Z</time>
      </trkpt>
      <trkpt lat="43.75392" lon="3.53316">
        <ele>490.41</ele>
        <time>2014-12-07T13:12:47Z</time>
      </trkpt>
      <trkpt lat="43.75378" lon="3.53327">
        <ele>492.33</ele>
        <time>2014-12-07T13:13:02Z</time>
      </trkpt>
      <trkpt lat="43.75361" lon="3.5331">
        <ele>490.89</ele>
        <time>2014-12-07T13:13:17Z</time>
      </trkpt>
      <trkpt lat="43.75339" lon="3.53318">
        <ele>488.97</ele>
        <time>2014-12-07T13:13:32Z</time>
      </trkpt>
      <trkpt lat="43.75328" lon="3.53342">
        <ele>489.93</ele>
        <time>2014-12-07T13:13:47Z</time>
      </trkpt>
      <trkpt lat="43.75318" lon="3.53366">
        <ele>488.49</ele>
        <time>2014-12-07T13:14:02Z</time>
      </trkpt>
      <trkpt lat="43.75302" lon="3.53382">
        <ele>486.08</ele>
        <time>2014-12-07T13:14:17Z</time>
      </trkpt>
      <trkpt lat="43.75284" lon="3.53386">
        <ele>488.49</ele>
        <time>2014-12-07T13:14:32Z</time>
      </trkpt>
      <trkpt lat="43.75263" lon="3.53392">
        <ele>489.45</ele>
        <time>2014-12-07T13:14:47Z</time>
      </trkpt>
      <trkpt lat="43.75249" lon="3.5342">
        <ele>489.45</ele>
        <time>2014-12-07T13:15:02Z</time>
      </trkpt>
      <trkpt lat="43.75235" lon="3.53435">
        <ele>484.16</ele>
        <time>2014-12-07T13:15:17Z</time>
      </trkpt>
      <trkpt lat="43.7522" lon="3.5343">
        <ele>486.08</ele>
        <time>2014-12-07T13:15:32Z</time>
      </trkpt>
      <trkpt lat="43.75204" lon="3.53404">
        <ele>487.53</ele>
        <time>2014-12-07T13:15:47Z</time>
      </trkpt>
      <trkpt lat="43.75192" lon="3.53384">
        <ele>487.53</ele>
        <time>2014-12-07T13:16:02Z</time>
      </trkpt>
      <trkpt lat="43.7519" lon="3.53358">
        <ele>488.01</ele>
        <time>2014-12-07T13:16:17Z</time>
      </trkpt>
      <trkpt lat="43.75191" lon="3.53332">
        <ele>489.45</ele>
        <time>2014-12-07T13:16:32Z</time>
      </trkpt>
      <trkpt lat="43.75192" lon="3.53309">
        <ele>490.89</ele>
        <time>2014-12-07T13:16:47Z</time>
      </trkpt>
      <trkpt lat="43.75186" lon="3.53284">
        <ele>492.33</ele>
        <time>2014-12-07T13:17:02Z</time>
      </trkpt>
      <trkpt lat="43.75161" lon="3.53282">
        <ele>493.29</ele>
        <time>2014-12-07T13:17:17Z</time>
      </trkpt>
      <trkpt lat="43.75154" lon="3.53316">
        <ele>490.41</ele>
        <time>2014-12-07T13:17:32Z</time>
      </trkpt>
      <trkpt lat="43.7514" lon="3.53314">
        <ele>488.01</ele>
        <time>2014-12-07T13:17:47Z</time>
      </trkpt>
      <trkpt lat="43.75123" lon="3.53329">
        <ele>490.41</ele>
        <time>2014-12-07T13:18:02Z</time>
      </trkpt>
      <trkpt lat="43.75106" lon="3.53344">
        <ele>491.85</ele>
        <time>2014-12-07T13:18:17Z</time>
      </trkpt>
      <trkpt lat="43.75089" lon="3.53341">
        <ele>492.33</ele>
        <time>2014-12-07T13:18:32Z</time>
      </trkpt>
      <trkpt lat="43.75067" lon="3.53326">
        <ele>492.81</ele>
        <time>2014-12-07T13:18:47Z</time>
      </trkpt>
      <trkpt lat="43.75047" lon="3.53331">
        <ele>492.33</ele>
        <time>2014-12-07T13:19:02Z</time>
      </trkpt>
      <trkpt lat="43.75028" lon="3.5334">
        <ele>489.93</ele>
        <time>2014-12-07T13:19:17Z</time>
      </trkpt>
      <trkpt lat="43.75011" lon="3.53337">
        <ele>488.49</ele>
        <time>2014-12-07T13:19:32Z</time>
      </trkpt>
      <trkpt lat="43.75002" lon="3.53314">
        <ele>489.45</ele>
        <time>2014-12-07T13:19:47Z</time>
      </trkpt>
      <trkpt lat="43.74991" lon="3.53292">
        <ele>489.93</ele>
        <time>2014-12-07T13:20:02Z</time>
      </trkpt>
      <trkpt lat="43.7497" lon="3.53291">
        <ele>489.45</ele>
        <time>2014-12-07T13:20:17Z</time>
      </trkpt>
      <trkpt lat="43.74962" lon="3.53282">
        <ele>489.45</ele>
        <time>2014-12-07T13:20:32Z</time>
      </trkpt>
      <trkpt lat="43.74936" lon="3.53262">
        <ele>488.97</ele>
        <time>2014-12-07T13:20:47Z</time>
      </trkpt>
      <trkpt lat="43.74911" lon="3.53247">
        <ele>489.93</ele>
        <time>2014-12-07T13:21:02Z</time>
      </trkpt>
      <trkpt lat="43.74895" lon="3.53244">
        <ele>493.29</ele>
        <time>2014-12-07T13:21:17Z</time>
      </trkpt>
      <trkpt lat="43.74885" lon="3.53272">
        <ele>491.85</ele>
        <time>2014-12-07T13:21:32Z</time>
      </trkpt>
      <trkpt lat="43.7487" lon="3.53289">
        <ele>491.85</ele>
        <time>2014-12-07T13:21:47Z</time>
      </trkpt>
      <trkpt lat="43.74855" lon="3.53296">
        <ele>490.41</ele>
        <time>2014-12-07T13:22:02Z</time>
      </trkpt>
      <trkpt lat="43.74837" lon="3.53305">
        <ele>487.53</ele>
        <time>2014-12-07T13:22:17Z</time>
      </trkpt>
      <trkpt lat="43.7482" lon="3.53319">
        <ele>490.41</ele>
        <time>2014-12-07T13:22:32Z</time>
      </trkpt>
      <trkpt lat="43.74799" lon="3.53314">
        <ele>490.89</ele>
        <time>2014-12-07T13:22:47Z</time>
      </trkpt>
      <trkpt lat="43.74777" lon="3.53297">
        <ele>489.45</ele>
        <time>2014-12-07T13:23:02Z</time>
      </trkpt>
      <trkpt lat="43.74767" lon="3.5329">
        <ele>490.89</ele>
        <time>2014-12-07T13:23:17Z</time>
      </trkpt>
      <trkpt lat="43.74741" lon="3.53291">
        <ele>492.33</ele>
        <time>2014-12-07T13:23:32Z</time>
      </trkpt>
      <trkpt lat="43.74718" lon="3.53289">
        <ele>490.89</ele>
        <time>2014-12-07T13:23:47Z</time>
      </trkpt>
      <trkpt lat="43.74695" lon="3.53296">
        <ele>489.45</ele>
        <time>2014-12-07T13:24:02Z</time>
      </trkpt>
      <trkpt lat="43.74669" lon="3.53314">
        <ele>492.81</ele>
        <time>2014-12-07T13:24:17Z</time>
      </trkpt>
      <trkpt lat="43.74654" lon="3.53323">
        <ele>499.06</ele>
        <time>2014-12-07T13:24:32Z</time>
      </trkpt>
      <trkpt lat="43.74657" lon="3.53345">
        <ele>504.35</ele>
        <time>2014-12-07T13:24:47Z</time>
      </trkpt>
      <trkpt lat="43.74657" lon="3.53372">
        <ele>505.31</ele>
        <time>2014-12-07T13:25:02Z</time>
      </trkpt>
      <trkpt lat="43.74657" lon="3.53372">
        <ele>503.87</ele>
        <time>2014-12-07T13:25:17Z</time>
      </trkpt>
      <trkpt lat="43.74656" lon="3.53372">
        <ele>504.83</ele>
        <time>2014-12-07T13:25:32Z</time>
      </trkpt>
      <trkpt lat="43.74655" lon="3.53372">
        <ele>504.35</ele>
        <time>2014-12-07T13:25:47Z</time>
      </trkpt>
      <trkpt lat="43.74657" lon="3.5338">
        <ele>501.95</ele>
        <time>2014-12-07T13:26:02Z</time>
      </trkpt>
      <trkpt lat="43.74655" lon="3.53379">
        <ele>503.39</ele>
        <time>2014-12-07T13:26:17Z</time>
      </trkpt>
      <trkpt lat="43.74655" lon="3.5338">
        <ele>505.31</ele>
        <time>2014-12-07T13:26:32Z</time>
      </trkpt>
      <trkpt lat="43.74655" lon="3.53381">
        <ele>503.39</ele>
        <time>2014-12-07T13:26:47Z</time>
      </trkpt>
      <trkpt lat="43.74655" lon="3.53382">
        <ele>503.39</ele>
        <time>2014-12-07T13:27:02Z</time>
      </trkpt>
      <trkpt lat="43.74656" lon="3.53381">
        <ele>503.87</ele>
        <time>2014-12-07T13:27:17Z</time>
      </trkpt>
      <trkpt lat="43.74656" lon="3.53381">
        <ele>503.87</ele>
        <time>2014-12-07T13:27:32Z</time>
      </trkpt>
      <trkpt lat="43.74654" lon="3.53379">
        <ele>502.43</ele>
        <time>2014-12-07T13:27:47Z</time>
      </trkpt>
      <trkpt lat="43.74657" lon="3.5338">
        <ele>500.98</ele>
        <time>2014-12-07T13:28:02Z</time>
      </trkpt>
      <trkpt lat="43.74654" lon="3.53376">
        <ele>502.43</ele>
        <time>2014-12-07T13:28:17Z</time>
      </trkpt>
      <trkpt lat="43.74653" lon="3.53372">
        <ele>502.43</ele>
        <time>2014-12-07T13:28:32Z</time>
      </trkpt>
      <trkpt lat="43.74658" lon="3.53355">
        <ele>503.39</ele>
        <time>2014-12-07T13:28:47Z</time>
      </trkpt>
      <trkpt lat="43.74652" lon="3.5332">
        <ele>499.06</ele>
        <time>2014-12-07T13:29:02Z</time>
      </trkpt>
      <trkpt lat="43.74645" lon="3.53276">
        <ele>487.53</ele>
        <time>2014-12-07T13:29:17Z</time>
      </trkpt>
      <trkpt lat="43.74652" lon="3.53227">
        <ele>474.07</ele>
        <time>2014-12-07T13:29:32Z</time>
      </trkpt>
      <trkpt lat="43.74633" lon="3.53192">
        <ele>476.47</ele>
        <time>2014-12-07T13:29:47Z</time>
      </trkpt>
      <trkpt lat="43.74649" lon="3.53135">
        <ele>472.14</ele>
        <time>2014-12-07T13:30:02Z</time>
      </trkpt>
      <trkpt lat="43.7465" lon="3.5308">
        <ele>466.86</ele>
        <time>2014-12-07T13:30:17Z</time>
      </trkpt>
      <trkpt lat="43.74643" lon="3.53037">
        <ele>467.82</ele>
        <time>2014-12-07T13:30:32Z</time>
      </trkpt>
      <trkpt lat="43.74641" lon="3.53017">
        <ele>467.82</ele>
        <time>2014-12-07T13:30:47Z</time>
      </trkpt>
      <trkpt lat="43.74643" lon="3.53016">
        <ele>469.26</ele>
        <time>2014-12-07T13:31:02Z</time>
      </trkpt>
      <trkpt lat="43.74642" lon="3.53017">
        <ele>468.78</ele>
        <time>2014-12-07T13:31:17Z</time>
      </trkpt>
      <trkpt lat="43.74642" lon="3.5302">
        <ele>471.18</ele>
        <time>2014-12-07T13:31:32Z</time>
      </trkpt>
      <trkpt lat="43.74643" lon="3.53017">
        <ele>467.82</ele>
        <time>2014-12-07T13:31:47Z</time>
      </trkpt>
      <trkpt lat="43.74642" lon="3.53017">
        <ele>468.78</ele>
        <time>2014-12-07T13:32:02Z</time>
      </trkpt>
      <trkpt lat="43.74643" lon="3.53017">
        <ele>471.66</ele>
        <time>2014-12-07T13:32:17Z</time>
      </trkpt>
      <trkpt lat="43.74642" lon="3.53014">
        <ele>470.7</ele>
        <time>2014-12-07T13:32:32Z</time>
      </trkpt>
      <trkpt lat="43.74643" lon="3.53009">
        <ele>469.74</ele>
        <time>2014-12-07T13:32:47Z</time>
      </trkpt>
      <trkpt lat="43.7464" lon="3.52992">
        <ele>472.63</ele>
        <time>2014-12-07T13:33:02Z</time>
      </trkpt>
      <trkpt lat="43.74653" lon="3.5298">
        <ele>473.59</ele>
        <time>2014-12-07T13:33:17Z</time>
      </trkpt>
      <trkpt lat="43.7467" lon="3.52976">
        <ele>475.03</ele>
        <time>2014-12-07T13:33:32Z</time>
      </trkpt>
      <trkpt lat="43.74687" lon="3.52978">
        <ele>475.99</ele>
        <time>2014-12-07T13:33:47Z</time>
      </trkpt>
      <trkpt lat="43.74706" lon="3.52984">
        <ele>476.47</ele>
        <time>2014-12-07T13:34:02Z</time>
      </trkpt>
      <trkpt lat="43.74726" lon="3.52985">
        <ele>477.43</ele>
        <time>2014-12-07T13:34:17Z</time>
      </trkpt>
      <trkpt lat="43.74739" lon="3.52965">
        <ele>477.91</ele>
        <time>2014-12-07T13:34:32Z</time>
      </trkpt>
      <trkpt lat="43.74745" lon="3.52946">
        <ele>480.32</ele>
        <time>2014-12-07T13:34:47Z</time>
      </trkpt>
      <trkpt lat="43.74734" lon="3.52942">
        <ele>480.32</ele>
        <time>2014-12-07T13:35:02Z</time>
      </trkpt>
      <trkpt lat="43.74719" lon="3.52935">
        <ele>482.24</ele>
        <time>2014-12-07T13:35:17Z</time>
      </trkpt>
      <trkpt lat="43.74703" lon="3.52927">
        <ele>484.64</ele>
        <time>2014-12-07T13:35:32Z</time>
      </trkpt>
      <trkpt lat="43.74709" lon="3.52914">
        <ele>485.6</ele>
        <time>2014-12-07T13:35:47Z</time>
      </trkpt>
      <trkpt lat="43.74724" lon="3.52903">
        <ele>486.56</ele>
        <time>2014-12-07T13:36:02Z</time>
      </trkpt>
      <trkpt lat="43.74718" lon="3.5289">
        <ele>488.97</ele>
        <time>2014-12-07T13:36:17Z</time>
      </trkpt>
      <trkpt lat="43.74703" lon="3.52885">
        <ele>492.81</ele>
        <time>2014-12-07T13:36:32Z</time>
      </trkpt>
      <trkpt lat="43.74688" lon="3.52877">
        <ele>494.26</ele>
        <time>2014-12-07T13:36:47Z</time>
      </trkpt>
      <trkpt lat="43.74674" lon="3.52865">
        <ele>494.26</ele>
        <time>2014-12-07T13:37:02Z</time>
      </trkpt>
      <trkpt lat="43.74659" lon="3.52853">
        <ele>495.22</ele>
        <time>2014-12-07T13:37:17Z</time>
      </trkpt>
      <trkpt lat="43.74644" lon="3.52844">
        <ele>496.66</ele>
        <time>2014-12-07T13:37:32Z</time>
      </trkpt>
      <trkpt lat="43.7463" lon="3.52828">
        <ele>495.22</ele>
        <time>2014-12-07T13:37:47Z</time>
      </trkpt>
      <trkpt lat="43.74615" lon="3.52818">
        <ele>492.33</ele>
        <time>2014-12-07T13:38:02Z</time>
      </trkpt>
      <trkpt lat="43.74601" lon="3.52799">
        <ele>491.37</ele>
        <time>2014-12-07T13:38:17Z</time>
      </trkpt>
      <trkpt lat="43.74598" lon="3.52776">
        <ele>489.93</ele>
        <time>2014-12-07T13:38:32Z</time>
      </trkpt>
      <trkpt lat="43.74593" lon="3.52759">
        <ele>487.53</ele>
        <time>2014-12-07T13:38:47Z</time>
      </trkpt>
      <trkpt lat="43.74586" lon="3.52747">
        <ele>484.16</ele>
        <time>2014-12-07T13:39:02Z</time>
      </trkpt>
      <trkpt lat="43.74585" lon="3.5275">
        <ele>485.6</ele>
        <time>2014-12-07T13:39:17Z</time>
      </trkpt>
      <trkpt lat="43.74583" lon="3.52743">
        <ele>486.08</ele>
        <time>2014-12-07T13:39:32Z</time>
      </trkpt>
      <trkpt lat="43.74576" lon="3.52722">
        <ele>482.72</ele>
        <time>2014-12-07T13:39:47Z</time>
      </trkpt>
      <trkpt lat="43.74571" lon="3.52702">
        <ele>478.87</ele>
        <time>2014-12-07T13:40:02Z</time>
      </trkpt>
      <trkpt lat="43.74571" lon="3.52684">
        <ele>474.55</ele>
        <time>2014-12-07T13:40:17Z</time>
      </trkpt>
      <trkpt lat="43.74572" lon="3.52664">
        <ele>472.63</ele>
        <time>2014-12-07T13:40:32Z</time>
      </trkpt>
      <trkpt lat="43.74574" lon="3.52641">
        <ele>472.14</ele>
        <time>2014-12-07T13:40:47Z</time>
      </trkpt>
      <trkpt lat="43.74575" lon="3.52617">
        <ele>470.7</ele>
        <time>2014-12-07T13:41:02Z</time>
      </trkpt>
      <trkpt lat="43.74576" lon="3.5261">
        <ele>467.34</ele>
        <time>2014-12-07T13:41:17Z</time>
      </trkpt>
      <trkpt lat="43.7458" lon="3.52603">
        <ele>463.49</ele>
        <time>2014-12-07T13:41:32Z</time>
      </trkpt>
      <trkpt lat="43.74581" lon="3.52599">
        <ele>461.09</ele>
        <time>2014-12-07T13:41:47Z</time>
      </trkpt>
      <trkpt lat="43.7458" lon="3.52597">
        <ele>464.45</ele>
        <time>2014-12-07T13:42:02Z</time>
      </trkpt>
      <trkpt lat="43.74576" lon="3.52588">
        <ele>466.86</ele>
        <time>2014-12-07T13:42:17Z</time>
      </trkpt>
      <trkpt lat="43.74573" lon="3.52563">
        <ele>466.38</ele>
        <time>2014-12-07T13:42:32Z</time>
      </trkpt>
      <trkpt lat="43.74572" lon="3.52542">
        <ele>466.38</ele>
        <time>2014-12-07T13:42:47Z</time>
      </trkpt>
      <trkpt lat="43.74574" lon="3.52519">
        <ele>468.3</ele>
        <time>2014-12-07T13:43:02Z</time>
      </trkpt>
      <trkpt lat="43.74576" lon="3.52499">
        <ele>468.78</ele>
        <time>2014-12-07T13:43:17Z</time>
      </trkpt>
      <trkpt lat="43.74584" lon="3.5247">
        <ele>470.22</ele>
        <time>2014-12-07T13:43:32Z</time>
      </trkpt>
      <trkpt lat="43.7459" lon="3.52456">
        <ele>472.14</ele>
        <time>2014-12-07T13:43:47Z</time>
      </trkpt>
      <trkpt lat="43.74602" lon="3.52437">
        <ele>475.03</ele>
        <time>2014-12-07T13:44:02Z</time>
      </trkpt>
      <trkpt lat="43.74609" lon="3.52415">
        <ele>475.51</ele>
        <time>2014-12-07T13:44:17Z</time>
      </trkpt>
      <trkpt lat="43.74595" lon="3.52401">
        <ele>477.43</ele>
        <time>2014-12-07T13:44:32Z</time>
      </trkpt>
      <trkpt lat="43.74581" lon="3.52389">
        <ele>478.39</ele>
        <time>2014-12-07T13:44:47Z</time>
      </trkpt>
      <trkpt lat="43.74567" lon="3.52376">
        <ele>480.8</ele>
        <time>2014-12-07T13:45:02Z</time>
      </trkpt>
      <trkpt lat="43.74558" lon="3.52356">
        <ele>483.68</ele>
        <time>2014-12-07T13:45:17Z</time>
      </trkpt>
      <trkpt lat="43.7456" lon="3.52336">
        <ele>484.64</ele>
        <time>2014-12-07T13:45:32Z</time>
      </trkpt>
      <trkpt lat="43.74571" lon="3.52316">
        <ele>486.08</ele>
        <time>2014-12-07T13:45:47Z</time>
      </trkpt>
      <trkpt lat="43.74573" lon="3.52291">
        <ele>483.2</ele>
        <time>2014-12-07T13:46:02Z</time>
      </trkpt>
      <trkpt lat="43.74569" lon="3.52263">
        <ele>486.08</ele>
        <time>2014-12-07T13:46:17Z</time>
      </trkpt>
      <trkpt lat="43.74567" lon="3.52237">
        <ele>486.08</ele>
        <time>2014-12-07T13:46:32Z</time>
      </trkpt>
      <trkpt lat="43.74563" lon="3.52212">
        <ele>488.97</ele>
        <time>2014-12-07T13:46:47Z</time>
      </trkpt>
      <trkpt lat="43.74549" lon="3.52191">
        <ele>495.7</ele>
        <time>2014-12-07T13:47:02Z</time>
      </trkpt>
      <trkpt lat="43.74528" lon="3.52195">
        <ele>490.89</ele>
        <time>2014-12-07T13:47:17Z</time>
      </trkpt>
      <trkpt lat="43.74508" lon="3.52202">
        <ele>489.93</ele>
        <time>2014-12-07T13:47:32Z</time>
      </trkpt>
      <trkpt lat="43.7449" lon="3.52207">
        <ele>491.37</ele>
        <time>2014-12-07T13:47:47Z</time>
      </trkpt>
      <trkpt lat="43.74469" lon="3.52209">
        <ele>492.33</ele>
        <time>2014-12-07T13:48:02Z</time>
      </trkpt>
      <trkpt lat="43.7445" lon="3.52212">
        <ele>493.77</ele>
        <time>2014-12-07T13:48:17Z</time>
      </trkpt>
      <trkpt lat="43.74432" lon="3.52225">
        <ele>494.26</ele>
        <time>2014-12-07T13:48:32Z</time>
      </trkpt>
      <trkpt lat="43.74422" lon="3.52247">
        <ele>494.26</ele>
        <time>2014-12-07T13:48:47Z</time>
      </trkpt>
      <trkpt lat="43.74407" lon="3.52269">
        <ele>493.77</ele>
        <time>2014-12-07T13:49:02Z</time>
      </trkpt>
      <trkpt lat="43.74389" lon="3.52271">
        <ele>496.66</ele>
        <time>2014-12-07T13:49:17Z</time>
      </trkpt>
      <trkpt lat="43.74372" lon="3.52277">
        <ele>499.06</ele>
        <time>2014-12-07T13:49:32Z</time>
      </trkpt>
      <trkpt lat="43.7437" lon="3.52278">
        <ele>500.02</ele>
        <time>2014-12-07T13:49:47Z</time>
      </trkpt>
      <trkpt lat="43.74364" lon="3.52276">
        <ele>501.95</ele>
        <time>2014-12-07T13:50:02Z</time>
      </trkpt>
      <trkpt lat="43.74365" lon="3.52276">
        <ele>501.95</ele>
        <time>2014-12-07T13:50:17Z</time>
      </trkpt>
      <trkpt lat="43.74367" lon="3.52276">
        <ele>500.5</ele>
        <time>2014-12-07T13:50:32Z</time>
      </trkpt>
      <trkpt lat="43.74365" lon="3.52277">
        <ele>501.46</ele>
        <time>2014-12-07T13:50:47Z</time>
      </trkpt>
      <trkpt lat="43.74369" lon="3.52279">
        <ele>500.5</ele>
        <time>2014-12-07T13:51:02Z</time>
      </trkpt>
      <trkpt lat="43.74375" lon="3.52283">
        <ele>497.14</ele>
        <time>2014-12-07T13:51:17Z</time>
      </trkpt>
      <trkpt lat="43.74375" lon="3.52286">
        <ele>497.14</ele>
        <time>2014-12-07T13:51:32Z</time>
      </trkpt>
      <trkpt lat="43.74374" lon="3.52281">
        <ele>497.14</ele>
        <time>2014-12-07T13:51:47Z</time>
      </trkpt>
      <trkpt lat="43.74371" lon="3.5228">
        <ele>497.62</ele>
        <time>2014-12-07T13:52:02Z</time>
      </trkpt>
      <trkpt lat="43.74372" lon="3.52284">
        <ele>501.95</ele>
        <time>2014-12-07T13:52:17Z</time>
      </trkpt>
      <trkpt lat="43.74373" lon="3.52283">
        <ele>498.1</ele>
        <time>2014-12-07T13:52:32Z</time>
      </trkpt>
      <trkpt lat="43.74372" lon="3.5228">
        <ele>496.66</ele>
        <time>2014-12-07T13:52:47Z</time>
      </trkpt>
      <trkpt lat="43.74371" lon="3.5228">
        <ele>496.66</ele>
        <time>2014-12-07T13:53:02Z</time>
      </trkpt>
      <trkpt lat="43.7437" lon="3.52279">
        <ele>497.62</ele>
        <time>2014-12-07T13:53:17Z</time>
      </trkpt>
      <trkpt lat="43.74369" lon="3.52289">
        <ele>497.14</ele>
        <time>2014-12-07T13:53:32Z</time>
      </trkpt>
      <trkpt lat="43.74371" lon="3.52311">
        <ele>493.77</ele>
        <time>2014-12-07T13:53:47Z</time>
      </trkpt>
      <trkpt lat="43.74373" lon="3.52331">
        <ele>492.33</ele>
        <time>2014-12-07T13:54:02Z</time>
      </trkpt>
      <trkpt lat="43.74375" lon="3.52354">
        <ele>491.85</ele>
        <time>2014-12-07T13:54:17Z</time>
      </trkpt>
      <trkpt lat="43.74375" lon="3.52374">
        <ele>487.53</ele>
        <time>2014-12-07T13:54:32Z</time>
      </trkpt>
      <trkpt lat="43.74363" lon="3.52396">
        <ele>485.6</ele>
        <time>2014-12-07T13:54:47Z</time>
      </trkpt>
      <trkpt lat="43.74352" lon="3.52415">
        <ele>484.16</ele>
        <time>2014-12-07T13:55:02Z</time>
      </trkpt>
      <trkpt lat="43.74348" lon="3.52437">
        <ele>483.2</ele>
        <time>2014-12-07T13:55:17Z</time>
      </trkpt>
      <trkpt lat="43.74355" lon="3.52451">
        <ele>478.87</ele>
        <time>2014-12-07T13:55:32Z</time>
      </trkpt>
      <trkpt lat="43.74356" lon="3.52473">
        <ele>476.47</ele>
        <time>2014-12-07T13:55:47Z</time>
      </trkpt>
      <trkpt lat="43.74351" lon="3.52489">
        <ele>472.63</ele>
        <time>2014-12-07T13:56:02Z</time>
      </trkpt>
      <trkpt lat="43.74343" lon="3.5247">
        <ele>468.3</ele>
        <time>2014-12-07T13:56:17Z</time>
      </trkpt>
      <trkpt lat="43.7434" lon="3.52471">
        <ele>465.9</ele>
        <time>2014-12-07T13:56:32Z</time>
      </trkpt>
      <trkpt lat="43.74341" lon="3.52494">
        <ele>462.53</ele>
        <time>2014-12-07T13:56:47Z</time>
      </trkpt>
      <trkpt lat="43.74345" lon="3.52518">
        <ele>460.13</ele>
        <time>2014-12-07T13:57:02Z</time>
      </trkpt>
      <trkpt lat="43.74344" lon="3.52532">
        <ele>458.21</ele>
        <time>2014-12-07T13:57:17Z</time>
      </trkpt>
      <trkpt lat="43.74334" lon="3.52512">
        <ele>456.76</ele>
        <time>2014-12-07T13:57:32Z</time>
      </trkpt>
      <trkpt lat="43.74326" lon="3.52491">
        <ele>451.48</ele>
        <time>2014-12-07T13:57:47Z</time>
      </trkpt>
      <trkpt lat="43.74325" lon="3.52493">
        <ele>451.48</ele>
        <time>2014-12-07T13:58:02Z</time>
      </trkpt>
      <trkpt lat="43.74324" lon="3.52494">
        <ele>449.07</ele>
        <time>2014-12-07T13:58:17Z</time>
      </trkpt>
      <trkpt lat="43.74325" lon="3.52496">
        <ele>452.92</ele>
        <time>2014-12-07T13:58:32Z</time>
      </trkpt>
      <trkpt lat="43.74336" lon="3.52522">
        <ele>450.03</ele>
        <time>2014-12-07T13:58:47Z</time>
      </trkpt>
      <trkpt lat="43.74337" lon="3.52534">
        <ele>446.67</ele>
        <time>2014-12-07T13:59:02Z</time>
      </trkpt>
      <trkpt lat="43.74344" lon="3.52551">
        <ele>444.27</ele>
        <time>2014-12-07T13:59:17Z</time>
      </trkpt>
      <trkpt lat="43.74345" lon="3.52575">
        <ele>444.75</ele>
        <time>2014-12-07T13:59:32Z</time>
      </trkpt>
      <trkpt lat="43.74339" lon="3.52597">
        <ele>440.42</ele>
        <time>2014-12-07T13:59:47Z</time>
      </trkpt>
      <trkpt lat="43.74336" lon="3.52606">
        <ele>440.9</ele>
        <time>2014-12-07T14:00:02Z</time>
      </trkpt>
      <trkpt lat="43.74337" lon="3.52583">
        <ele>438.98</ele>
        <time>2014-12-07T14:00:17Z</time>
      </trkpt>
      <trkpt lat="43.7433" lon="3.52567">
        <ele>432.73</ele>
        <time>2014-12-07T14:00:32Z</time>
      </trkpt>
      <trkpt lat="43.74332" lon="3.52581">
        <ele>429.85</ele>
        <time>2014-12-07T14:00:47Z</time>
      </trkpt>
      <trkpt lat="43.74325" lon="3.52599">
        <ele>429.37</ele>
        <time>2014-12-07T14:01:02Z</time>
      </trkpt>
      <trkpt lat="43.74321" lon="3.52623">
        <ele>428.4</ele>
        <time>2014-12-07T14:01:17Z</time>
      </trkpt>
      <trkpt lat="43.74326" lon="3.52644">
        <ele>424.56</ele>
        <time>2014-12-07T14:01:32Z</time>
      </trkpt>
      <trkpt lat="43.74336" lon="3.5266">
        <ele>422.16</ele>
        <time>2014-12-07T14:01:47Z</time>
      </trkpt>
      <trkpt lat="43.7434" lon="3.52684">
        <ele>418.31</ele>
        <time>2014-12-07T14:02:02Z</time>
      </trkpt>
      <trkpt lat="43.74341" lon="3.52708">
        <ele>421.68</ele>
        <time>2014-12-07T14:02:17Z</time>
      </trkpt>
      <trkpt lat="43.74343" lon="3.52733">
        <ele>418.79</ele>
        <time>2014-12-07T14:02:32Z</time>
      </trkpt>
      <trkpt lat="43.74347" lon="3.52754">
        <ele>415.43</ele>
        <time>2014-12-07T14:02:47Z</time>
      </trkpt>
      <trkpt lat="43.74356" lon="3.52772">
        <ele>412.54</ele>
        <time>2014-12-07T14:03:02Z</time>
      </trkpt>
      <trkpt lat="43.74363" lon="3.52794">
        <ele>408.7</ele>
        <time>2014-12-07T14:03:17Z</time>
      </trkpt>
      <trkpt lat="43.74367" lon="3.52814">
        <ele>406.77</ele>
        <time>2014-12-07T14:03:32Z</time>
      </trkpt>
      <trkpt lat="43.74367" lon="3.52831">
        <ele>402.93</ele>
        <time>2014-12-07T14:03:47Z</time>
      </trkpt>
      <trkpt lat="43.74367" lon="3.52828">
        <ele>403.89</ele>
        <time>2014-12-07T14:04:02Z</time>
      </trkpt>
      <trkpt lat="43.74366" lon="3.52829">
        <ele>401.01</ele>
        <time>2014-12-07T14:04:17Z</time>
      </trkpt>
      <trkpt lat="43.74368" lon="3.52828">
        <ele>402.45</ele>
        <time>2014-12-07T14:04:32Z</time>
      </trkpt>
      <trkpt lat="43.7437" lon="3.52828">
        <ele>402.45</ele>
        <time>2014-12-07T14:04:47Z</time>
      </trkpt>
      <trkpt lat="43.74368" lon="3.52825">
        <ele>403.41</ele>
        <time>2014-12-07T14:05:02Z</time>
      </trkpt>
      <trkpt lat="43.74367" lon="3.52832">
        <ele>402.45</ele>
        <time>2014-12-07T14:05:17Z</time>
      </trkpt>
      <trkpt lat="43.74362" lon="3.52817">
        <ele>403.89</ele>
        <time>2014-12-07T14:05:32Z</time>
      </trkpt>
      <trkpt lat="43.74347" lon="3.528">
        <ele>396.2</ele>
        <time>2014-12-07T14:05:47Z</time>
      </trkpt>
      <trkpt lat="43.74321" lon="3.5278">
        <ele>392.36</ele>
        <time>2014-12-07T14:06:02Z</time>
      </trkpt>
      <trkpt lat="43.74296" lon="3.52746">
        <ele>386.59</ele>
        <time>2014-12-07T14:06:17Z</time>
      </trkpt>
      <trkpt lat="43.74283" lon="3.5274">
        <ele>378.9</ele>
        <time>2014-12-07T14:06:32Z</time>
      </trkpt>
      <trkpt lat="43.74271" lon="3.52731">
        <ele>376.49</ele>
        <time>2014-12-07T14:06:47Z</time>
      </trkpt>
      <trkpt lat="43.7424" lon="3.52712">
        <ele>374.09</ele>
        <time>2014-12-07T14:07:02Z</time>
      </trkpt>
      <trkpt lat="43.74223" lon="3.52676">
        <ele>364.48</ele>
        <time>2014-12-07T14:07:17Z</time>
      </trkpt>
      <trkpt lat="43.74215" lon="3.52655">
        <ele>360.63</ele>
        <time>2014-12-07T14:07:32Z</time>
      </trkpt>
      <trkpt lat="43.7421" lon="3.52638">
        <ele>357.75</ele>
        <time>2014-12-07T14:07:47Z</time>
      </trkpt>
      <trkpt lat="43.74209" lon="3.5261">
        <ele>354.38</ele>
        <time>2014-12-07T14:08:02Z</time>
      </trkpt>
      <trkpt lat="43.74203" lon="3.52586">
        <ele>350.54</ele>
        <time>2014-12-07T14:08:17Z</time>
      </trkpt>
      <trkpt lat="43.74195" lon="3.5257">
        <ele>347.65</ele>
        <time>2014-12-07T14:08:32Z</time>
      </trkpt>
      <trkpt lat="43.74188" lon="3.52553">
        <ele>347.17</ele>
        <time>2014-12-07T14:08:47Z</time>
      </trkpt>
      <trkpt lat="43.74182" lon="3.52529">
        <ele>344.29</ele>
        <time>2014-12-07T14:09:02Z</time>
      </trkpt>
      <trkpt lat="43.74175" lon="3.52507">
        <ele>337.56</ele>
        <time>2014-12-07T14:09:17Z</time>
      </trkpt>
      <trkpt lat="43.74168" lon="3.52487">
        <ele>339.96</ele>
        <time>2014-12-07T14:09:32Z</time>
      </trkpt>
      <trkpt lat="43.74153" lon="3.52488">
        <ele>336.12</ele>
        <time>2014-12-07T14:09:47Z</time>
      </trkpt>
      <trkpt lat="43.74139" lon="3.52502">
        <ele>336.6</ele>
        <time>2014-12-07T14:10:02Z</time>
      </trkpt>
      <trkpt lat="43.74126" lon="3.52515">
        <ele>335.64</ele>
        <time>2014-12-07T14:10:17Z</time>
      </trkpt>
      <trkpt lat="43.74109" lon="3.52524">
        <ele>331.79</ele>
        <time>2014-12-07T14:10:32Z</time>
      </trkpt>
      <trkpt lat="43.74093" lon="3.52526">
        <ele>329.39</ele>
        <time>2014-12-07T14:10:47Z</time>
      </trkpt>
      <trkpt lat="43.74079" lon="3.52524">
        <ele>328.43</ele>
        <time>2014-12-07T14:11:02Z</time>
      </trkpt>
      <trkpt lat="43.74069" lon="3.5251">
        <ele>326.02</ele>
        <time>2014-12-07T14:11:17Z</time>
      </trkpt>
      <trkpt lat="43.74057" lon="3.52498">
        <ele>323.14</ele>
        <time>2014-12-07T14:11:32Z</time>
      </trkpt>
      <trkpt lat="43.74044" lon="3.52486">
        <ele>320.26</ele>
        <time>2014-12-07T14:11:47Z</time>
      </trkpt>
      <trkpt lat="43.7404" lon="3.52464">
        <ele>317.37</ele>
        <time>2014-12-07T14:12:02Z</time>
      </trkpt>
      <trkpt lat="43.74031" lon="3.52447">
        <ele>315.45</ele>
        <time>2014-12-07T14:12:17Z</time>
      </trkpt>
      <trkpt lat="43.74023" lon="3.52433">
        <ele>312.09</ele>
        <time>2014-12-07T14:12:32Z</time>
      </trkpt>
      <trkpt lat="43.74015" lon="3.52416">
        <ele>310.16</ele>
        <time>2014-12-07T14:12:47Z</time>
      </trkpt>
      <trkpt lat="43.74006" lon="3.52399">
        <ele>309.2</ele>
        <time>2014-12-07T14:13:02Z</time>
      </trkpt>
      <trkpt lat="43.73995" lon="3.52382">
        <ele>305.36</ele>
        <time>2014-12-07T14:13:17Z</time>
      </trkpt>
      <trkpt lat="43.73986" lon="3.52364">
        <ele>302.95</ele>
        <time>2014-12-07T14:13:32Z</time>
      </trkpt>
      <trkpt lat="43.73984" lon="3.52345">
        <ele>301.03</ele>
        <time>2014-12-07T14:13:47Z</time>
      </trkpt>
      <trkpt lat="43.73985" lon="3.52322">
        <ele>298.63</ele>
        <time>2014-12-07T14:14:02Z</time>
      </trkpt>
      <trkpt lat="43.73988" lon="3.52299">
        <ele>296.22</ele>
        <time>2014-12-07T14:14:17Z</time>
      </trkpt>
      <trkpt lat="43.73991" lon="3.52275">
        <ele>294.3</ele>
        <time>2014-12-07T14:14:32Z</time>
      </trkpt>
      <trkpt lat="43.73993" lon="3.52254">
        <ele>292.38</ele>
        <time>2014-12-07T14:14:47Z</time>
      </trkpt>
      <trkpt lat="43.73987" lon="3.52243">
        <ele>292.86</ele>
        <time>2014-12-07T14:15:02Z</time>
      </trkpt>
      <trkpt lat="43.7398" lon="3.52247">
        <ele>293.34</ele>
        <time>2014-12-07T14:15:17Z</time>
      </trkpt>
      <trkpt lat="43.73977" lon="3.5225">
        <ele>293.34</ele>
        <time>2014-12-07T14:15:32Z</time>
      </trkpt>
      <trkpt lat="43.73982" lon="3.52248">
        <ele>293.82</ele>
        <time>2014-12-07T14:15:47Z</time>
      </trkpt>
      <trkpt lat="43.73984" lon="3.52234">
        <ele>293.82</ele>
        <time>2014-12-07T14:16:02Z</time>
      </trkpt>
      <trkpt lat="43.73978" lon="3.52244">
        <ele>293.82</ele>
        <time>2014-12-07T14:16:17Z</time>
      </trkpt>
      <trkpt lat="43.73977" lon="3.52251">
        <ele>293.82</ele>
        <time>2014-12-07T14:16:32Z</time>
      </trkpt>
      <trkpt lat="43.73977" lon="3.5225">
        <ele>293.82</ele>
        <time>2014-12-07T14:16:47Z</time>
      </trkpt>
      <trkpt lat="43.73977" lon="3.5225">
        <ele>294.78</ele>
        <time>2014-12-07T14:17:02Z</time>
      </trkpt>
      <trkpt lat="43.73976" lon="3.52249">
        <ele>295.26</ele>
        <time>2014-12-07T14:17:17Z</time>
      </trkpt>
      <trkpt lat="43.73974" lon="3.52249">
        <ele>293.82</ele>
        <time>2014-12-07T14:17:32Z</time>
      </trkpt>
      <trkpt lat="43.73975" lon="3.52252">
        <ele>294.3</ele>
        <time>2014-12-07T14:17:47Z</time>
      </trkpt>
      <trkpt lat="43.73978" lon="3.5225">
        <ele>294.3</ele>
        <time>2014-12-07T14:18:02Z</time>
      </trkpt>
      <trkpt lat="43.73978" lon="3.5225">
        <ele>292.38</ele>
        <time>2014-12-07T14:18:17Z</time>
      </trkpt>
      <trkpt lat="43.73972" lon="3.52249">
        <ele>292.86</ele>
        <time>2014-12-07T14:18:32Z</time>
      </trkpt>
      <trkpt lat="43.73976" lon="3.52241">
        <ele>294.3</ele>
        <time>2014-12-07T14:18:47Z</time>
      </trkpt>
      <trkpt lat="43.7398" lon="3.52233">
        <ele>294.78</ele>
        <time>2014-12-07T14:19:02Z</time>
      </trkpt>
      <trkpt lat="43.73988" lon="3.52218">
        <ele>296.22</ele>
        <time>2014-12-07T14:19:17Z</time>
      </trkpt>
      <trkpt lat="43.7399" lon="3.52203">
        <ele>295.74</ele>
        <time>2014-12-07T14:19:32Z</time>
      </trkpt>
      <trkpt lat="43.7399" lon="3.52177">
        <ele>295.74</ele>
        <time>2014-12-07T14:19:47Z</time>
      </trkpt>
      <trkpt lat="43.7399" lon="3.52155">
        <ele>294.78</ele>
        <time>2014-12-07T14:20:02Z</time>
      </trkpt>
      <trkpt lat="43.73993" lon="3.5213">
        <ele>295.26</ele>
        <time>2014-12-07T14:20:17Z</time>
      </trkpt>
      <trkpt lat="43.73998" lon="3.52107">
        <ele>295.26</ele>
        <time>2014-12-07T14:20:32Z</time>
      </trkpt>
      <trkpt lat="43.74004" lon="3.52089">
        <ele>295.26</ele>
        <time>2014-12-07T14:20:47Z</time>
      </trkpt>
      <trkpt lat="43.74013" lon="3.52071">
        <ele>294.78</ele>
        <time>2014-12-07T14:21:02Z</time>
      </trkpt>
      <trkpt lat="43.74027" lon="3.52045">
        <ele>296.22</ele>
        <time>2014-12-07T14:21:17Z</time>
      </trkpt>
      <trkpt lat="43.7404" lon="3.52028">
        <ele>296.7</ele>
        <time>2014-12-07T14:21:32Z</time>
      </trkpt>
      <trkpt lat="43.74055" lon="3.52014">
        <ele>298.15</ele>
        <time>2014-12-07T14:21:47Z</time>
      </trkpt>
      <trkpt lat="43.7407" lon="3.51998">
        <ele>299.59</ele>
        <time>2014-12-07T14:22:02Z</time>
      </trkpt>
      <trkpt lat="43.74085" lon="3.51979">
        <ele>301.03</ele>
        <time>2014-12-07T14:22:17Z</time>
      </trkpt>
      <trkpt lat="43.74097" lon="3.5196">
        <ele>301.51</ele>
        <time>2014-12-07T14:22:32Z</time>
      </trkpt>
      <trkpt lat="43.74108" lon="3.51936">
        <ele>301.03</ele>
        <time>2014-12-07T14:22:47Z</time>
      </trkpt>
      <trkpt lat="43.74112" lon="3.51912">
        <ele>302.95</ele>
        <time>2014-12-07T14:23:02Z</time>
      </trkpt>
      <trkpt lat="43.74109" lon="3.51888">
        <ele>303.43</ele>
        <time>2014-12-07T14:23:17Z</time>
      </trkpt>
      <trkpt lat="43.74104" lon="3.51865">
        <ele>303.43</ele>
        <time>2014-12-07T14:23:32Z</time>
      </trkpt>
      <trkpt lat="43.74093" lon="3.51852">
        <ele>303.43</ele>
        <time>2014-12-07T14:23:47Z</time>
      </trkpt>
      <trkpt lat="43.74077" lon="3.51843">
        <ele>303.91</ele>
        <time>2014-12-07T14:24:02Z</time>
      </trkpt>
      <trkpt lat="43.74075" lon="3.51821">
        <ele>305.36</ele>
        <time>2014-12-07T14:24:17Z</time>
      </trkpt>
      <trkpt lat="43.74084" lon="3.51803">
        <ele>307.76</ele>
        <time>2014-12-07T14:24:32Z</time>
      </trkpt>
      <trkpt lat="43.74092" lon="3.51789">
        <ele>308.24</ele>
        <time>2014-12-07T14:24:47Z</time>
      </trkpt>
      <trkpt lat="43.74104" lon="3.5177">
        <ele>310.64</ele>
        <time>2014-12-07T14:25:02Z</time>
      </trkpt>
      <trkpt lat="43.74119" lon="3.51749">
        <ele>313.53</ele>
        <time>2014-12-07T14:25:17Z</time>
      </trkpt>
      <trkpt lat="43.7413" lon="3.51731">
        <ele>314.49</ele>
        <time>2014-12-07T14:25:32Z</time>
      </trkpt>
      <trkpt lat="43.74139" lon="3.51715">
        <ele>314.97</ele>
        <time>2014-12-07T14:25:47Z</time>
      </trkpt>
      <trkpt lat="43.7415" lon="3.51695">
        <ele>314.01</ele>
        <time>2014-12-07T14:26:02Z</time>
      </trkpt>
      <trkpt lat="43.7416" lon="3.51671">
        <ele>314.49</ele>
        <time>2014-12-07T14:26:17Z</time>
      </trkpt>
      <trkpt lat="43.74172" lon="3.51667">
        <ele>315.45</ele>
        <time>2014-12-07T14:26:32Z</time>
      </trkpt>
      <trkpt lat="43.74186" lon="3.51649">
        <ele>314.97</ele>
        <time>2014-12-07T14:26:47Z</time>
      </trkpt>
      <trkpt lat="43.74196" lon="3.51625">
        <ele>314.49</ele>
        <time>2014-12-07T14:27:02Z</time>
      </trkpt>
      <trkpt lat="43.742" lon="3.51602">
        <ele>314.01</ele>
        <time>2014-12-07T14:27:17Z</time>
      </trkpt>
      <trkpt lat="43.74198" lon="3.51579">
        <ele>316.89</ele>
        <time>2014-12-07T14:27:32Z</time>
      </trkpt>
      <trkpt lat="43.742" lon="3.51561">
        <ele>318.81</ele>
        <time>2014-12-07T14:27:47Z</time>
      </trkpt>
      <trkpt lat="43.74198" lon="3.51556">
        <ele>320.74</ele>
        <time>2014-12-07T14:28:02Z</time>
      </trkpt>
      <trkpt lat="43.74197" lon="3.51556">
        <ele>321.22</ele>
        <time>2014-12-07T14:28:17Z</time>
      </trkpt>
      <trkpt lat="43.74192" lon="3.51556">
        <ele>320.74</ele>
        <time>2014-12-07T14:28:32Z</time>
      </trkpt>
      <trkpt lat="43.74193" lon="3.51552">
        <ele>320.74</ele>
        <time>2014-12-07T14:28:47Z</time>
      </trkpt>
      <trkpt lat="43.74189" lon="3.51537">
        <ele>322.18</ele>
        <time>2014-12-07T14:29:02Z</time>
      </trkpt>
      <trkpt lat="43.74188" lon="3.51511">
        <ele>324.1</ele>
        <time>2014-12-07T14:29:17Z</time>
      </trkpt>
      <trkpt lat="43.74194" lon="3.51489">
        <ele>326.99</ele>
        <time>2014-12-07T14:29:32Z</time>
      </trkpt>
      <trkpt lat="43.74205" lon="3.51472">
        <ele>329.39</ele>
        <time>2014-12-07T14:29:47Z</time>
      </trkpt>
      <trkpt lat="43.74211" lon="3.51456">
        <ele>332.27</ele>
        <time>2014-12-07T14:30:02Z</time>
      </trkpt>
      <trkpt lat="43.74212" lon="3.51433">
        <ele>335.64</ele>
        <time>2014-12-07T14:30:17Z</time>
      </trkpt>
      <trkpt lat="43.7421" lon="3.51412">
        <ele>338.52</ele>
        <time>2014-12-07T14:30:32Z</time>
      </trkpt>
      <trkpt lat="43.74207" lon="3.51387">
        <ele>339.48</ele>
        <time>2014-12-07T14:30:47Z</time>
      </trkpt>
      <trkpt lat="43.74206" lon="3.51363">
        <ele>339</ele>
        <time>2014-12-07T14:31:02Z</time>
      </trkpt>
      <trkpt lat="43.7421" lon="3.5134">
        <ele>339.96</ele>
        <time>2014-12-07T14:31:17Z</time>
      </trkpt>
      <trkpt lat="43.74215" lon="3.51318">
        <ele>340.44</ele>
        <time>2014-12-07T14:31:32Z</time>
      </trkpt>
      <trkpt lat="43.74227" lon="3.51303">
        <ele>344.77</ele>
        <time>2014-12-07T14:31:47Z</time>
      </trkpt>
      <trkpt lat="43.74237" lon="3.51287">
        <ele>346.69</ele>
        <time>2014-12-07T14:32:02Z</time>
      </trkpt>
      <trkpt lat="43.74247" lon="3.5127">
        <ele>348.62</ele>
        <time>2014-12-07T14:32:17Z</time>
      </trkpt>
      <trkpt lat="43.74252" lon="3.5125">
        <ele>350.06</ele>
        <time>2014-12-07T14:32:32Z</time>
      </trkpt>
      <trkpt lat="43.74266" lon="3.5124">
        <ele>351.5</ele>
        <time>2014-12-07T14:32:47Z</time>
      </trkpt>
      <trkpt lat="43.74279" lon="3.51226">
        <ele>351.5</ele>
        <time>2014-12-07T14:33:02Z</time>
      </trkpt>
      <trkpt lat="43.74287" lon="3.51205">
        <ele>354.38</ele>
        <time>2014-12-07T14:33:17Z</time>
      </trkpt>
      <trkpt lat="43.74287" lon="3.51201">
        <ele>354.86</ele>
        <time>2014-12-07T14:33:32Z</time>
      </trkpt>
      <trkpt lat="43.74298" lon="3.51182">
        <ele>354.38</ele>
        <time>2014-12-07T14:33:47Z</time>
      </trkpt>
      <trkpt lat="43.74306" lon="3.51163">
        <ele>355.34</ele>
        <time>2014-12-07T14:34:02Z</time>
      </trkpt>
      <trkpt lat="43.74312" lon="3.5114">
        <ele>355.83</ele>
        <time>2014-12-07T14:34:17Z</time>
      </trkpt>
      <trkpt lat="43.74321" lon="3.51125">
        <ele>358.23</ele>
        <time>2014-12-07T14:34:32Z</time>
      </trkpt>
      <trkpt lat="43.74329" lon="3.51108">
        <ele>356.79</ele>
        <time>2014-12-07T14:34:47Z</time>
      </trkpt>
      <trkpt lat="43.74324" lon="3.51084">
        <ele>358.71</ele>
        <time>2014-12-07T14:35:02Z</time>
      </trkpt>
      <trkpt lat="43.74316" lon="3.51061">
        <ele>359.67</ele>
        <time>2014-12-07T14:35:17Z</time>
      </trkpt>
      <trkpt lat="43.7431" lon="3.51039">
        <ele>362.55</ele>
        <time>2014-12-07T14:35:32Z</time>
      </trkpt>
      <trkpt lat="43.74309" lon="3.51016">
        <ele>361.11</ele>
        <time>2014-12-07T14:35:47Z</time>
      </trkpt>
      <trkpt lat="43.74309" lon="3.51021">
        <ele>362.07</ele>
        <time>2014-12-07T14:36:02Z</time>
      </trkpt>
      <trkpt lat="43.74309" lon="3.5102">
        <ele>363.04</ele>
        <time>2014-12-07T14:36:17Z</time>
      </trkpt>
      <trkpt lat="43.74308" lon="3.51018">
        <ele>363.04</ele>
        <time>2014-12-07T14:36:32Z</time>
      </trkpt>
      <trkpt lat="43.74311" lon="3.50997">
        <ele>363.52</ele>
        <time>2014-12-07T14:36:47Z</time>
      </trkpt>
      <trkpt lat="43.74304" lon="3.50975">
        <ele>362.55</ele>
        <time>2014-12-07T14:37:02Z</time>
      </trkpt>
      <trkpt lat="43.74292" lon="3.50957">
        <ele>364.96</ele>
        <time>2014-12-07T14:37:17Z</time>
      </trkpt>
      <trkpt lat="43.74287" lon="3.50938">
        <ele>367.36</ele>
        <time>2014-12-07T14:37:32Z</time>
      </trkpt>
      <trkpt lat="43.74286" lon="3.50918">
        <ele>370.24</ele>
        <time>2014-12-07T14:37:47Z</time>
      </trkpt>
      <trkpt lat="43.74281" lon="3.50893">
        <ele>371.69</ele>
        <time>2014-12-07T14:38:02Z</time>
      </trkpt>
      <trkpt lat="43.7428" lon="3.50871">
        <ele>371.21</ele>
        <time>2014-12-07T14:38:17Z</time>
      </trkpt>
      <trkpt lat="43.74277" lon="3.50845">
        <ele>375.53</ele>
        <time>2014-12-07T14:38:32Z</time>
      </trkpt>
      <trkpt lat="43.74273" lon="3.50825">
        <ele>376.97</ele>
        <time>2014-12-07T14:38:47Z</time>
      </trkpt>
      <trkpt lat="43.74269" lon="3.50807">
        <ele>379.86</ele>
        <time>2014-12-07T14:39:02Z</time>
      </trkpt>
      <trkpt lat="43.74268" lon="3.50786">
        <ele>380.34</ele>
        <time>2014-12-07T14:39:17Z</time>
      </trkpt>
      <trkpt lat="43.74268" lon="3.50766">
        <ele>382.26</ele>
        <time>2014-12-07T14:39:32Z</time>
      </trkpt>
      <trkpt lat="43.74267" lon="3.50746">
        <ele>385.15</ele>
        <time>2014-12-07T14:39:47Z</time>
      </trkpt>
      <trkpt lat="43.74269" lon="3.50725">
        <ele>387.07</ele>
        <time>2014-12-07T14:40:02Z</time>
      </trkpt>
      <trkpt lat="43.74272" lon="3.50704">
        <ele>390.43</ele>
        <time>2014-12-07T14:40:17Z</time>
      </trkpt>
      <trkpt lat="43.74262" lon="3.50687">
        <ele>395.24</ele>
        <time>2014-12-07T14:40:32Z</time>
      </trkpt>
      <trkpt lat="43.74257" lon="3.50666">
        <ele>393.32</ele>
        <time>2014-12-07T14:40:47Z</time>
      </trkpt>
      <trkpt lat="43.7425" lon="3.5065">
        <ele>396.2</ele>
        <time>2014-12-07T14:41:02Z</time>
      </trkpt>
      <trkpt lat="43.74245" lon="3.50637">
        <ele>398.6</ele>
        <time>2014-12-07T14:41:17Z</time>
      </trkpt>
      <trkpt lat="43.74256" lon="3.50623">
        <ele>401.49</ele>
        <time>2014-12-07T14:41:32Z</time>
      </trkpt>
      <trkpt lat="43.74266" lon="3.50609">
        <ele>403.41</ele>
        <time>2014-12-07T14:41:47Z</time>
      </trkpt>
      <trkpt lat="43.74269" lon="3.50593">
        <ele>401.97</ele>
        <time>2014-12-07T14:42:02Z</time>
      </trkpt>
      <trkpt lat="43.74272" lon="3.50579">
        <ele>406.77</ele>
        <time>2014-12-07T14:42:17Z</time>
      </trkpt>
      <trkpt lat="43.74274" lon="3.50567">
        <ele>411.58</ele>
        <time>2014-12-07T14:42:32Z</time>
      </trkpt>
      <trkpt lat="43.74276" lon="3.50553">
        <ele>415.91</ele>
        <time>2014-12-07T14:42:47Z</time>
      </trkpt>
      <trkpt lat="43.74275" lon="3.5054">
        <ele>418.79</ele>
        <time>2014-12-07T14:43:02Z</time>
      </trkpt>
      <trkpt lat="43.74267" lon="3.50521">
        <ele>421.68</ele>
        <time>2014-12-07T14:43:17Z</time>
      </trkpt>
      <trkpt lat="43.74259" lon="3.50505">
        <ele>425.52</ele>
        <time>2014-12-07T14:43:32Z</time>
      </trkpt>
      <trkpt lat="43.74249" lon="3.50495">
        <ele>426.96</ele>
        <time>2014-12-07T14:43:47Z</time>
      </trkpt>
      <trkpt lat="43.74235" lon="3.50487">
        <ele>429.37</ele>
        <time>2014-12-07T14:44:02Z</time>
      </trkpt>
      <trkpt lat="43.74223" lon="3.5049">
        <ele>430.33</ele>
        <time>2014-12-07T14:44:17Z</time>
      </trkpt>
      <trkpt lat="43.74211" lon="3.50492">
        <ele>435.61</ele>
        <time>2014-12-07T14:44:32Z</time>
      </trkpt>
      <trkpt lat="43.74198" lon="3.50481">
        <ele>437.54</ele>
        <time>2014-12-07T14:44:47Z</time>
      </trkpt>
      <trkpt lat="43.74184" lon="3.50492">
        <ele>436.58</ele>
        <time>2014-12-07T14:45:02Z</time>
      </trkpt>
      <trkpt lat="43.74173" lon="3.50507">
        <ele>434.65</ele>
        <time>2014-12-07T14:45:17Z</time>
      </trkpt>
      <trkpt lat="43.74156" lon="3.50509">
        <ele>430.33</ele>
        <time>2014-12-07T14:45:32Z</time>
      </trkpt>
      <trkpt lat="43.74139" lon="3.5052">
        <ele>434.17</ele>
        <time>2014-12-07T14:45:47Z</time>
      </trkpt>
      <trkpt lat="43.74122" lon="3.50532">
        <ele>433.69</ele>
        <time>2014-12-07T14:46:02Z</time>
      </trkpt>
      <trkpt lat="43.74108" lon="3.50522">
        <ele>433.21</ele>
        <time>2014-12-07T14:46:17Z</time>
      </trkpt>
      <trkpt lat="43.74097" lon="3.5051">
        <ele>438.5</ele>
        <time>2014-12-07T14:46:32Z</time>
      </trkpt>
      <trkpt lat="43.74098" lon="3.50514">
        <ele>439.94</ele>
        <time>2014-12-07T14:46:47Z</time>
      </trkpt>
      <trkpt lat="43.74096" lon="3.50515">
        <ele>438.02</ele>
        <time>2014-12-07T14:47:02Z</time>
      </trkpt>
      <trkpt lat="43.74098" lon="3.50515">
        <ele>438.5</ele>
        <time>2014-12-07T14:47:17Z</time>
      </trkpt>
      <trkpt lat="43.74097" lon="3.50517">
        <ele>436.58</ele>
        <time>2014-12-07T14:47:32Z</time>
      </trkpt>
      <trkpt lat="43.74098" lon="3.50516">
        <ele>437.54</ele>
        <time>2014-12-07T14:47:47Z</time>
      </trkpt>
      <trkpt lat="43.74094" lon="3.50518">
        <ele>438.5</ele>
        <time>2014-12-07T14:48:02Z</time>
      </trkpt>
      <trkpt lat="43.74094" lon="3.50518">
        <ele>437.06</ele>
        <time>2014-12-07T14:48:17Z</time>
      </trkpt>
      <trkpt lat="43.74095" lon="3.50516">
        <ele>437.06</ele>
        <time>2014-12-07T14:48:32Z</time>
      </trkpt>
      <trkpt lat="43.74095" lon="3.50515">
        <ele>438.5</ele>
        <time>2014-12-07T14:48:47Z</time>
      </trkpt>
      <trkpt lat="43.74097" lon="3.50516">
        <ele>440.42</ele>
        <time>2014-12-07T14:49:02Z</time>
      </trkpt>
      <trkpt lat="43.74098" lon="3.50516">
        <ele>439.94</ele>
        <time>2014-12-07T14:49:17Z</time>
      </trkpt>
      <trkpt lat="43.74096" lon="3.5052">
        <ele>439.94</ele>
        <time>2014-12-07T14:49:32Z</time>
      </trkpt>
      <trkpt lat="43.74097" lon="3.50511">
        <ele>440.9</ele>
        <time>2014-12-07T14:49:47Z</time>
      </trkpt>
      <trkpt lat="43.74093" lon="3.50502">
        <ele>442.82</ele>
        <time>2014-12-07T14:50:02Z</time>
      </trkpt>
      <trkpt lat="43.7409" lon="3.50483">
        <ele>443.79</ele>
        <time>2014-12-07T14:50:17Z</time>
      </trkpt>
      <trkpt lat="43.74087" lon="3.50466">
        <ele>443.79</ele>
        <time>2014-12-07T14:50:32Z</time>
      </trkpt>
      <trkpt lat="43.74085" lon="3.50447">
        <ele>444.27</ele>
        <time>2014-12-07T14:50:47Z</time>
      </trkpt>
      <trkpt lat="43.74091" lon="3.50427">
        <ele>447.15</ele>
        <time>2014-12-07T14:51:02Z</time>
      </trkpt>
      <trkpt lat="43.74099" lon="3.50407">
        <ele>449.55</ele>
        <time>2014-12-07T14:51:17Z</time>
      </trkpt>
      <trkpt lat="43.74108" lon="3.50387">
        <ele>450.03</ele>
        <time>2014-12-07T14:51:32Z</time>
      </trkpt>
      <trkpt lat="43.74109" lon="3.50366">
        <ele>451</ele>
        <time>2014-12-07T14:51:47Z</time>
      </trkpt>
      <trkpt lat="43.74112" lon="3.50343">
        <ele>453.88</ele>
        <time>2014-12-07T14:52:02Z</time>
      </trkpt>
      <trkpt lat="43.74114" lon="3.50324">
        <ele>454.36</ele>
        <time>2014-12-07T14:52:17Z</time>
      </trkpt>
      <trkpt lat="43.74115" lon="3.50303">
        <ele>456.76</ele>
        <time>2014-12-07T14:52:32Z</time>
      </trkpt>
      <trkpt lat="43.74116" lon="3.50282">
        <ele>460.13</ele>
        <time>2014-12-07T14:52:47Z</time>
      </trkpt>
      <trkpt lat="43.74121" lon="3.50262">
        <ele>460.61</ele>
        <time>2014-12-07T14:53:02Z</time>
      </trkpt>
      <trkpt lat="43.74127" lon="3.50244">
        <ele>461.09</ele>
        <time>2014-12-07T14:53:17Z</time>
      </trkpt>
      <trkpt lat="43.7413" lon="3.5023">
        <ele>463.01</ele>
        <time>2014-12-07T14:53:32Z</time>
      </trkpt>
      <trkpt lat="43.74131" lon="3.50227">
        <ele>462.05</ele>
        <time>2014-12-07T14:53:47Z</time>
      </trkpt>
      <trkpt lat="43.7413" lon="3.50223">
        <ele>460.13</ele>
        <time>2014-12-07T14:54:02Z</time>
      </trkpt>
      <trkpt lat="43.74131" lon="3.50217">
        <ele>460.61</ele>
        <time>2014-12-07T14:54:17Z</time>
      </trkpt>
      <trkpt lat="43.74133" lon="3.50219">
        <ele>463.97</ele>
        <time>2014-12-07T14:54:32Z</time>
      </trkpt>
      <trkpt lat="43.74133" lon="3.50223">
        <ele>463.01</ele>
        <time>2014-12-07T14:54:47Z</time>
      </trkpt>
      <trkpt lat="43.74133" lon="3.50221">
        <ele>461.09</ele>
        <time>2014-12-07T14:55:01Z</time>
      </trkpt>
    </trkseg>
  </trk>
</gpx>